<?xml version="1.0" encoding="UTF-8" standalone="no" ?>
<gpx xmlns="http://www.topografix.com/GPX/1/1" xmlns:xsi="http://www.w3.org/2001/XMLSchema-instance" xsi:schemaLocation="http://www.topografix.com/GPX/1/1 http://www.topografix.com/GPX/1/1/gpx.xsd" version="1.1" creator="VisuGPX - https://www.visugpx.com">
  <metadata>
    <name>Villeneuve de Marc jour 2</name>
    <desc><![CDATA[Boucle du jour 2]]></desc>
  </metadata>
  <trk>
    <name><![CDATA[Parcours 2012-05-27 11:47]]></name>
    <trkseg>
      <trkpt lat="45.46833" lon="5.09855">
        <ele>398.5</ele>
        <time>2012-05-27T09:48:12Z</time>
      </trkpt>
      <trkpt lat="45.46831" lon="5.0985">
        <ele>413.09997558594</ele>
        <time>2012-05-27T09:49:40Z</time>
      </trkpt>
      <trkpt lat="45.46848" lon="5.09838">
        <ele>413.29998779297</ele>
        <time>2012-05-27T09:49:56Z</time>
      </trkpt>
      <trkpt lat="45.46858" lon="5.09836">
        <ele>413.20001220703</ele>
        <time>2012-05-27T09:50:07Z</time>
      </trkpt>
      <trkpt lat="45.46866" lon="5.0983">
        <ele>413.40002441406</ele>
        <time>2012-05-27T09:50:16Z</time>
      </trkpt>
      <trkpt lat="45.46875" lon="5.09826">
        <ele>413.70001220703</ele>
        <time>2012-05-27T09:50:24Z</time>
      </trkpt>
      <trkpt lat="45.46885" lon="5.09824">
        <ele>413.29998779297</ele>
        <time>2012-05-27T09:50:33Z</time>
      </trkpt>
      <trkpt lat="45.46894" lon="5.09824">
        <ele>414.29998779297</ele>
        <time>2012-05-27T09:50:40Z</time>
      </trkpt>
      <trkpt lat="45.46904" lon="5.09826">
        <ele>414.29998779297</ele>
        <time>2012-05-27T09:50:52Z</time>
      </trkpt>
      <trkpt lat="45.46913" lon="5.09826">
        <ele>414.79998779297</ele>
        <time>2012-05-27T09:50:59Z</time>
      </trkpt>
      <trkpt lat="45.46923" lon="5.09825">
        <ele>416.09997558594</ele>
        <time>2012-05-27T09:51:07Z</time>
      </trkpt>
      <trkpt lat="45.4693" lon="5.09815">
        <ele>417.90002441406</ele>
        <time>2012-05-27T09:51:15Z</time>
      </trkpt>
      <trkpt lat="45.4693" lon="5.09801">
        <ele>416.70001220703</ele>
        <time>2012-05-27T09:51:23Z</time>
      </trkpt>
      <trkpt lat="45.4693" lon="5.09773">
        <ele>416.90002441406</ele>
        <time>2012-05-27T09:51:38Z</time>
      </trkpt>
      <trkpt lat="45.46932" lon="5.09746">
        <ele>416</ele>
        <time>2012-05-27T09:51:51Z</time>
      </trkpt>
      <trkpt lat="45.46932" lon="5.09732">
        <ele>416.5</ele>
        <time>2012-05-27T09:51:58Z</time>
      </trkpt>
      <trkpt lat="45.46932" lon="5.0972">
        <ele>416.5</ele>
        <time>2012-05-27T09:52:05Z</time>
      </trkpt>
      <trkpt lat="45.46932" lon="5.09705">
        <ele>416.70001220703</ele>
        <time>2012-05-27T09:52:13Z</time>
      </trkpt>
      <trkpt lat="45.46933" lon="5.09691">
        <ele>416.5</ele>
        <time>2012-05-27T09:52:21Z</time>
      </trkpt>
      <trkpt lat="45.46933" lon="5.09678">
        <ele>416.79998779297</ele>
        <time>2012-05-27T09:52:28Z</time>
      </trkpt>
      <trkpt lat="45.46932" lon="5.09664">
        <ele>417.79998779297</ele>
        <time>2012-05-27T09:52:35Z</time>
      </trkpt>
      <trkpt lat="45.46933" lon="5.09651">
        <ele>417.59997558594</ele>
        <time>2012-05-27T09:52:42Z</time>
      </trkpt>
      <trkpt lat="45.46935" lon="5.09625">
        <ele>413.79998779297</ele>
        <time>2012-05-27T09:53:05Z</time>
      </trkpt>
      <trkpt lat="45.46935" lon="5.09612">
        <ele>413.20001220703</ele>
        <time>2012-05-27T09:53:13Z</time>
      </trkpt>
      <trkpt lat="45.46934" lon="5.09584">
        <ele>412.5</ele>
        <time>2012-05-27T09:53:34Z</time>
      </trkpt>
      <trkpt lat="45.46936" lon="5.09558">
        <ele>408.5</ele>
        <time>2012-05-27T09:55:04Z</time>
      </trkpt>
      <trkpt lat="45.46937" lon="5.09544">
        <ele>408.59997558594</ele>
        <time>2012-05-27T09:56:18Z</time>
      </trkpt>
      <trkpt lat="45.46937" lon="5.0953">
        <ele>407.5</ele>
        <time>2012-05-27T09:58:48Z</time>
      </trkpt>
      <trkpt lat="45.46936" lon="5.09503">
        <ele>409.90002441406</ele>
        <time>2012-05-27T09:59:03Z</time>
      </trkpt>
      <trkpt lat="45.46934" lon="5.09476">
        <ele>410.40002441406</ele>
        <time>2012-05-27T09:59:18Z</time>
      </trkpt>
      <trkpt lat="45.46931" lon="5.0945">
        <ele>409</ele>
        <time>2012-05-27T09:59:45Z</time>
      </trkpt>
      <trkpt lat="45.46927" lon="5.09423">
        <ele>408.09997558594</ele>
        <time>2012-05-27T10:00:01Z</time>
      </trkpt>
      <trkpt lat="45.46919" lon="5.09398">
        <ele>409.09997558594</ele>
        <time>2012-05-27T10:00:15Z</time>
      </trkpt>
      <trkpt lat="45.46913" lon="5.09388">
        <ele>410</ele>
        <time>2012-05-27T10:00:21Z</time>
      </trkpt>
      <trkpt lat="45.46905" lon="5.0938">
        <ele>411</ele>
        <time>2012-05-27T10:00:28Z</time>
      </trkpt>
      <trkpt lat="45.46895" lon="5.09377">
        <ele>410.70001220703</ele>
        <time>2012-05-27T10:00:35Z</time>
      </trkpt>
      <trkpt lat="45.46885" lon="5.09375">
        <ele>410.70001220703</ele>
        <time>2012-05-27T10:00:43Z</time>
      </trkpt>
      <trkpt lat="45.46867" lon="5.09368">
        <ele>409.59997558594</ele>
        <time>2012-05-27T10:00:58Z</time>
      </trkpt>
      <trkpt lat="45.46859" lon="5.09361">
        <ele>409.20001220703</ele>
        <time>2012-05-27T10:01:04Z</time>
      </trkpt>
      <trkpt lat="45.46852" lon="5.09351">
        <ele>408.40002441406</ele>
        <time>2012-05-27T10:01:10Z</time>
      </trkpt>
      <trkpt lat="45.46846" lon="5.0934">
        <ele>408.40002441406</ele>
        <time>2012-05-27T10:01:17Z</time>
      </trkpt>
      <trkpt lat="45.46841" lon="5.09329">
        <ele>408</ele>
        <time>2012-05-27T10:01:24Z</time>
      </trkpt>
      <trkpt lat="45.46838" lon="5.09316">
        <ele>407.70001220703</ele>
        <time>2012-05-27T10:01:31Z</time>
      </trkpt>
      <trkpt lat="45.46833" lon="5.09288">
        <ele>408.29998779297</ele>
        <time>2012-05-27T10:01:44Z</time>
      </trkpt>
      <trkpt lat="45.46824" lon="5.09262">
        <ele>407.09997558594</ele>
        <time>2012-05-27T10:01:52Z</time>
      </trkpt>
      <trkpt lat="45.46807" lon="5.09249">
        <ele>406.79998779297</ele>
        <time>2012-05-27T10:02:06Z</time>
      </trkpt>
      <trkpt lat="45.46788" lon="5.09251">
        <ele>407</ele>
        <time>2012-05-27T10:02:20Z</time>
      </trkpt>
      <trkpt lat="45.46778" lon="5.0925">
        <ele>407.5</ele>
        <time>2012-05-27T10:02:27Z</time>
      </trkpt>
      <trkpt lat="45.46764" lon="5.09233">
        <ele>408.70001220703</ele>
        <time>2012-05-27T10:02:45Z</time>
      </trkpt>
      <trkpt lat="45.46761" lon="5.09221">
        <ele>408.59997558594</ele>
        <time>2012-05-27T10:02:51Z</time>
      </trkpt>
      <trkpt lat="45.46758" lon="5.09208">
        <ele>408.79998779297</ele>
        <time>2012-05-27T10:02:57Z</time>
      </trkpt>
      <trkpt lat="45.46756" lon="5.09195">
        <ele>409.20001220703</ele>
        <time>2012-05-27T10:03:03Z</time>
      </trkpt>
      <trkpt lat="45.46753" lon="5.09182">
        <ele>409.40002441406</ele>
        <time>2012-05-27T10:03:09Z</time>
      </trkpt>
      <trkpt lat="45.46751" lon="5.09169">
        <ele>409.59997558594</ele>
        <time>2012-05-27T10:03:15Z</time>
      </trkpt>
      <trkpt lat="45.46749" lon="5.09157">
        <ele>409.79998779297</ele>
        <time>2012-05-27T10:03:21Z</time>
      </trkpt>
      <trkpt lat="45.46746" lon="5.09142">
        <ele>409.90002441406</ele>
        <time>2012-05-27T10:03:28Z</time>
      </trkpt>
      <trkpt lat="45.46744" lon="5.09129">
        <ele>410.09997558594</ele>
        <time>2012-05-27T10:03:34Z</time>
      </trkpt>
      <trkpt lat="45.46742" lon="5.09117">
        <ele>410.29998779297</ele>
        <time>2012-05-27T10:03:40Z</time>
      </trkpt>
      <trkpt lat="45.4674" lon="5.09104">
        <ele>410.5</ele>
        <time>2012-05-27T10:03:46Z</time>
      </trkpt>
      <trkpt lat="45.46738" lon="5.0909">
        <ele>410.5</ele>
        <time>2012-05-27T10:03:53Z</time>
      </trkpt>
      <trkpt lat="45.46735" lon="5.09076">
        <ele>410.40002441406</ele>
        <time>2012-05-27T10:04:00Z</time>
      </trkpt>
      <trkpt lat="45.46733" lon="5.09063">
        <ele>411</ele>
        <time>2012-05-27T10:04:07Z</time>
      </trkpt>
      <trkpt lat="45.4673" lon="5.09035">
        <ele>411.20001220703</ele>
        <time>2012-05-27T10:04:21Z</time>
      </trkpt>
      <trkpt lat="45.46727" lon="5.09021">
        <ele>411.09997558594</ele>
        <time>2012-05-27T10:04:28Z</time>
      </trkpt>
      <trkpt lat="45.46724" lon="5.08994">
        <ele>410.40002441406</ele>
        <time>2012-05-27T10:04:42Z</time>
      </trkpt>
      <trkpt lat="45.46719" lon="5.08967">
        <ele>410.29998779297</ele>
        <time>2012-05-27T10:04:56Z</time>
      </trkpt>
      <trkpt lat="45.46715" lon="5.0894">
        <ele>410.90002441406</ele>
        <time>2012-05-27T10:05:10Z</time>
      </trkpt>
      <trkpt lat="45.4671" lon="5.08911">
        <ele>410.70001220703</ele>
        <time>2012-05-27T10:05:24Z</time>
      </trkpt>
      <trkpt lat="45.46708" lon="5.08898">
        <ele>409.79998779297</ele>
        <time>2012-05-27T10:05:31Z</time>
      </trkpt>
      <trkpt lat="45.46706" lon="5.08884">
        <ele>408.90002441406</ele>
        <time>2012-05-27T10:05:38Z</time>
      </trkpt>
      <trkpt lat="45.46704" lon="5.08871">
        <ele>408.70001220703</ele>
        <time>2012-05-27T10:05:45Z</time>
      </trkpt>
      <trkpt lat="45.46702" lon="5.08857">
        <ele>409.20001220703</ele>
        <time>2012-05-27T10:05:52Z</time>
      </trkpt>
      <trkpt lat="45.46699" lon="5.08843">
        <ele>409.90002441406</ele>
        <time>2012-05-27T10:05:59Z</time>
      </trkpt>
      <trkpt lat="45.46697" lon="5.08831">
        <ele>410.29998779297</ele>
        <time>2012-05-27T10:06:05Z</time>
      </trkpt>
      <trkpt lat="45.46694" lon="5.08818">
        <ele>409.79998779297</ele>
        <time>2012-05-27T10:06:11Z</time>
      </trkpt>
      <trkpt lat="45.46693" lon="5.08803">
        <ele>408.79998779297</ele>
        <time>2012-05-27T10:06:18Z</time>
      </trkpt>
      <trkpt lat="45.46691" lon="5.08789">
        <ele>409.09997558594</ele>
        <time>2012-05-27T10:06:24Z</time>
      </trkpt>
      <trkpt lat="45.46691" lon="5.08776">
        <ele>409.40002441406</ele>
        <time>2012-05-27T10:06:30Z</time>
      </trkpt>
      <trkpt lat="45.46689" lon="5.08763">
        <ele>408.59997558594</ele>
        <time>2012-05-27T10:06:36Z</time>
      </trkpt>
      <trkpt lat="45.46688" lon="5.08749">
        <ele>408.79998779297</ele>
        <time>2012-05-27T10:06:43Z</time>
      </trkpt>
      <trkpt lat="45.46687" lon="5.08735">
        <ele>409.20001220703</ele>
        <time>2012-05-27T10:06:51Z</time>
      </trkpt>
      <trkpt lat="45.46687" lon="5.0872">
        <ele>409.40002441406</ele>
        <time>2012-05-27T10:06:58Z</time>
      </trkpt>
      <trkpt lat="45.46686" lon="5.08706">
        <ele>409</ele>
        <time>2012-05-27T10:07:05Z</time>
      </trkpt>
      <trkpt lat="45.46687" lon="5.08693">
        <ele>409.09997558594</ele>
        <time>2012-05-27T10:07:11Z</time>
      </trkpt>
      <trkpt lat="45.46689" lon="5.08678">
        <ele>409.40002441406</ele>
        <time>2012-05-27T10:07:18Z</time>
      </trkpt>
      <trkpt lat="45.4669" lon="5.08665">
        <ele>409</ele>
        <time>2012-05-27T10:07:25Z</time>
      </trkpt>
      <trkpt lat="45.4669" lon="5.0865">
        <ele>408.5</ele>
        <time>2012-05-27T10:07:32Z</time>
      </trkpt>
      <trkpt lat="45.46691" lon="5.08636">
        <ele>408</ele>
        <time>2012-05-27T10:07:39Z</time>
      </trkpt>
      <trkpt lat="45.46693" lon="5.08623">
        <ele>407.29998779297</ele>
        <time>2012-05-27T10:07:45Z</time>
      </trkpt>
      <trkpt lat="45.46694" lon="5.0861">
        <ele>406.20001220703</ele>
        <time>2012-05-27T10:07:51Z</time>
      </trkpt>
      <trkpt lat="45.46694" lon="5.08596">
        <ele>406.59997558594</ele>
        <time>2012-05-27T10:07:57Z</time>
      </trkpt>
      <trkpt lat="45.46695" lon="5.08583">
        <ele>407.09997558594</ele>
        <time>2012-05-27T10:08:03Z</time>
      </trkpt>
      <trkpt lat="45.46696" lon="5.0857">
        <ele>407.90002441406</ele>
        <time>2012-05-27T10:08:09Z</time>
      </trkpt>
      <trkpt lat="45.46697" lon="5.08556">
        <ele>407.5</ele>
        <time>2012-05-27T10:08:16Z</time>
      </trkpt>
      <trkpt lat="45.46699" lon="5.08542">
        <ele>407.20001220703</ele>
        <time>2012-05-27T10:08:23Z</time>
      </trkpt>
      <trkpt lat="45.46701" lon="5.08527">
        <ele>407.29998779297</ele>
        <time>2012-05-27T10:08:30Z</time>
      </trkpt>
      <trkpt lat="45.46701" lon="5.0851">
        <ele>406.70001220703</ele>
        <time>2012-05-27T10:08:36Z</time>
      </trkpt>
      <trkpt lat="45.46702" lon="5.08497">
        <ele>406.59997558594</ele>
        <time>2012-05-27T10:08:39Z</time>
      </trkpt>
      <trkpt lat="45.46702" lon="5.08483">
        <ele>406.90002441406</ele>
        <time>2012-05-27T10:08:44Z</time>
      </trkpt>
      <trkpt lat="45.46702" lon="5.08469">
        <ele>408</ele>
        <time>2012-05-27T10:08:51Z</time>
      </trkpt>
      <trkpt lat="45.46703" lon="5.08456">
        <ele>408</ele>
        <time>2012-05-27T10:08:58Z</time>
      </trkpt>
      <trkpt lat="45.46703" lon="5.08442">
        <ele>407.40002441406</ele>
        <time>2012-05-27T10:09:05Z</time>
      </trkpt>
      <trkpt lat="45.46705" lon="5.08429">
        <ele>407.79998779297</ele>
        <time>2012-05-27T10:09:21Z</time>
      </trkpt>
      <trkpt lat="45.46712" lon="5.08437">
        <ele>405.90002441406</ele>
        <time>2012-05-27T10:09:33Z</time>
      </trkpt>
      <trkpt lat="45.4672" lon="5.08444">
        <ele>403.90002441406</ele>
        <time>2012-05-27T10:09:40Z</time>
      </trkpt>
      <trkpt lat="45.46729" lon="5.08447">
        <ele>403.59997558594</ele>
        <time>2012-05-27T10:09:46Z</time>
      </trkpt>
      <trkpt lat="45.46747" lon="5.08457">
        <ele>404</ele>
        <time>2012-05-27T10:10:03Z</time>
      </trkpt>
      <trkpt lat="45.46755" lon="5.08465">
        <ele>403.79998779297</ele>
        <time>2012-05-27T10:10:09Z</time>
      </trkpt>
      <trkpt lat="45.46773" lon="5.08472">
        <ele>402.59997558594</ele>
        <time>2012-05-27T10:10:23Z</time>
      </trkpt>
      <trkpt lat="45.46792" lon="5.0847">
        <ele>401.90002441406</ele>
        <time>2012-05-27T10:10:38Z</time>
      </trkpt>
      <trkpt lat="45.46811" lon="5.0847">
        <ele>402.09997558594</ele>
        <time>2012-05-27T10:10:51Z</time>
      </trkpt>
      <trkpt lat="45.46829" lon="5.08475">
        <ele>401.79998779297</ele>
        <time>2012-05-27T10:11:03Z</time>
      </trkpt>
      <trkpt lat="45.4687" lon="5.08476">
        <ele>405.09997558594</ele>
        <time>2012-05-27T10:14:27Z</time>
      </trkpt>
      <trkpt lat="45.46879" lon="5.08483">
        <ele>405.5</ele>
        <time>2012-05-27T10:14:35Z</time>
      </trkpt>
      <trkpt lat="45.46894" lon="5.08499">
        <ele>406</ele>
        <time>2012-05-27T10:14:53Z</time>
      </trkpt>
      <trkpt lat="45.46909" lon="5.08488">
        <ele>410.09997558594</ele>
        <time>2012-05-27T10:15:26Z</time>
      </trkpt>
      <trkpt lat="45.46912" lon="5.08462">
        <ele>416.59997558594</ele>
        <time>2012-05-27T10:15:42Z</time>
      </trkpt>
      <trkpt lat="45.4692" lon="5.08436">
        <ele>423.20001220703</ele>
        <time>2012-05-27T10:16:00Z</time>
      </trkpt>
      <trkpt lat="45.46926" lon="5.08396">
        <ele>428.90002441406</ele>
        <time>2012-05-27T10:16:22Z</time>
      </trkpt>
      <trkpt lat="45.46931" lon="5.0837">
        <ele>431.90002441406</ele>
        <time>2012-05-27T10:16:36Z</time>
      </trkpt>
      <trkpt lat="45.46934" lon="5.08344">
        <ele>435.29998779297</ele>
        <time>2012-05-27T10:16:53Z</time>
      </trkpt>
      <trkpt lat="45.46932" lon="5.08316">
        <ele>436.20001220703</ele>
        <time>2012-05-27T10:17:07Z</time>
      </trkpt>
      <trkpt lat="45.46932" lon="5.08289">
        <ele>438.20001220703</ele>
        <time>2012-05-27T10:17:20Z</time>
      </trkpt>
      <trkpt lat="45.46933" lon="5.08262">
        <ele>441.79998779297</ele>
        <time>2012-05-27T10:17:36Z</time>
      </trkpt>
      <trkpt lat="45.4693" lon="5.08236">
        <ele>442.20001220703</ele>
        <time>2012-05-27T10:17:49Z</time>
      </trkpt>
      <trkpt lat="45.46933" lon="5.08208">
        <ele>440.79998779297</ele>
        <time>2012-05-27T10:18:05Z</time>
      </trkpt>
      <trkpt lat="45.46932" lon="5.08181">
        <ele>442.29998779297</ele>
        <time>2012-05-27T10:18:19Z</time>
      </trkpt>
      <trkpt lat="45.46929" lon="5.08154">
        <ele>441</ele>
        <time>2012-05-27T10:18:31Z</time>
      </trkpt>
      <trkpt lat="45.46932" lon="5.08128">
        <ele>443.59997558594</ele>
        <time>2012-05-27T10:18:43Z</time>
      </trkpt>
      <trkpt lat="45.46956" lon="5.08111">
        <ele>439.90002441406</ele>
        <time>2012-05-27T10:19:10Z</time>
      </trkpt>
      <trkpt lat="45.46984" lon="5.08098">
        <ele>441.79998779297</ele>
        <time>2012-05-27T10:19:30Z</time>
      </trkpt>
      <trkpt lat="45.47006" lon="5.08076">
        <ele>447.90002441406</ele>
        <time>2012-05-27T10:19:58Z</time>
      </trkpt>
      <trkpt lat="45.4703" lon="5.0805">
        <ele>451.5</ele>
        <time>2012-05-27T10:20:24Z</time>
      </trkpt>
      <trkpt lat="45.4705" lon="5.08026">
        <ele>457.29998779297</ele>
        <time>2012-05-27T10:20:48Z</time>
      </trkpt>
      <trkpt lat="45.47066" lon="5.0801">
        <ele>458.70001220703</ele>
        <time>2012-05-27T10:21:05Z</time>
      </trkpt>
      <trkpt lat="45.47085" lon="5.08001">
        <ele>460.90002441406</ele>
        <time>2012-05-27T10:21:23Z</time>
      </trkpt>
      <trkpt lat="45.47103" lon="5.08006">
        <ele>463.09997558594</ele>
        <time>2012-05-27T10:21:36Z</time>
      </trkpt>
      <trkpt lat="45.47121" lon="5.0802">
        <ele>466.79998779297</ele>
        <time>2012-05-27T10:21:50Z</time>
      </trkpt>
      <trkpt lat="45.4713" lon="5.08023">
        <ele>467.29998779297</ele>
        <time>2012-05-27T10:21:57Z</time>
      </trkpt>
      <trkpt lat="45.47139" lon="5.08026">
        <ele>468.40002441406</ele>
        <time>2012-05-27T10:22:04Z</time>
      </trkpt>
      <trkpt lat="45.47149" lon="5.08029">
        <ele>468.90002441406</ele>
        <time>2012-05-27T10:22:12Z</time>
      </trkpt>
      <trkpt lat="45.47159" lon="5.0803">
        <ele>469.59997558594</ele>
        <time>2012-05-27T10:22:20Z</time>
      </trkpt>
      <trkpt lat="45.47169" lon="5.08033">
        <ele>470.29998779297</ele>
        <time>2012-05-27T10:22:26Z</time>
      </trkpt>
      <trkpt lat="45.47178" lon="5.08038">
        <ele>470.70001220703</ele>
        <time>2012-05-27T10:22:34Z</time>
      </trkpt>
      <trkpt lat="45.47188" lon="5.08042">
        <ele>471.20001220703</ele>
        <time>2012-05-27T10:22:44Z</time>
      </trkpt>
      <trkpt lat="45.47197" lon="5.08045">
        <ele>471.5</ele>
        <time>2012-05-27T10:22:51Z</time>
      </trkpt>
      <trkpt lat="45.47206" lon="5.08051">
        <ele>472.29998779297</ele>
        <time>2012-05-27T10:22:59Z</time>
      </trkpt>
      <trkpt lat="45.47215" lon="5.08054">
        <ele>473.09997558594</ele>
        <time>2012-05-27T10:23:07Z</time>
      </trkpt>
      <trkpt lat="45.47225" lon="5.08055">
        <ele>473.29998779297</ele>
        <time>2012-05-27T10:23:14Z</time>
      </trkpt>
      <trkpt lat="45.47234" lon="5.08059">
        <ele>473.40002441406</ele>
        <time>2012-05-27T10:23:22Z</time>
      </trkpt>
      <trkpt lat="45.47252" lon="5.08065">
        <ele>473.20001220703</ele>
        <time>2012-05-27T10:23:38Z</time>
      </trkpt>
      <trkpt lat="45.47262" lon="5.08068">
        <ele>472</ele>
        <time>2012-05-27T10:23:45Z</time>
      </trkpt>
      <trkpt lat="45.47271" lon="5.08072">
        <ele>470.90002441406</ele>
        <time>2012-05-27T10:23:52Z</time>
      </trkpt>
      <trkpt lat="45.47281" lon="5.08077">
        <ele>469.79998779297</ele>
        <time>2012-05-27T10:24:06Z</time>
      </trkpt>
      <trkpt lat="45.4729" lon="5.0808">
        <ele>469.40002441406</ele>
        <time>2012-05-27T10:24:16Z</time>
      </trkpt>
      <trkpt lat="45.4731" lon="5.08084">
        <ele>466.20001220703</ele>
        <time>2012-05-27T10:24:29Z</time>
      </trkpt>
      <trkpt lat="45.47321" lon="5.08086">
        <ele>464.29998779297</ele>
        <time>2012-05-27T10:28:40Z</time>
      </trkpt>
      <trkpt lat="45.4734" lon="5.08085">
        <ele>463.59997558594</ele>
        <time>2012-05-27T10:29:00Z</time>
      </trkpt>
      <trkpt lat="45.47358" lon="5.08079">
        <ele>462.20001220703</ele>
        <time>2012-05-27T10:29:17Z</time>
      </trkpt>
      <trkpt lat="45.47377" lon="5.08069">
        <ele>460.40002441406</ele>
        <time>2012-05-27T10:29:31Z</time>
      </trkpt>
      <trkpt lat="45.47395" lon="5.08063">
        <ele>458.40002441406</ele>
        <time>2012-05-27T10:29:42Z</time>
      </trkpt>
      <trkpt lat="45.47415" lon="5.08056">
        <ele>457.40002441406</ele>
        <time>2012-05-27T10:29:50Z</time>
      </trkpt>
      <trkpt lat="45.47425" lon="5.08052">
        <ele>456.5</ele>
        <time>2012-05-27T10:29:55Z</time>
      </trkpt>
      <trkpt lat="45.47434" lon="5.08048">
        <ele>455.90002441406</ele>
        <time>2012-05-27T10:30:01Z</time>
      </trkpt>
      <trkpt lat="45.47443" lon="5.08044">
        <ele>455.90002441406</ele>
        <time>2012-05-27T10:30:08Z</time>
      </trkpt>
      <trkpt lat="45.47453" lon="5.08039">
        <ele>455.59997558594</ele>
        <time>2012-05-27T10:30:15Z</time>
      </trkpt>
      <trkpt lat="45.47462" lon="5.08035">
        <ele>456.09997558594</ele>
        <time>2012-05-27T10:30:21Z</time>
      </trkpt>
      <trkpt lat="45.47471" lon="5.08029">
        <ele>456</ele>
        <time>2012-05-27T10:30:27Z</time>
      </trkpt>
      <trkpt lat="45.47479" lon="5.08026">
        <ele>455.5</ele>
        <time>2012-05-27T10:30:33Z</time>
      </trkpt>
      <trkpt lat="45.47489" lon="5.08025">
        <ele>454.70001220703</ele>
        <time>2012-05-27T10:30:40Z</time>
      </trkpt>
      <trkpt lat="45.47498" lon="5.0803">
        <ele>453.70001220703</ele>
        <time>2012-05-27T10:30:49Z</time>
      </trkpt>
      <trkpt lat="45.47507" lon="5.08034">
        <ele>453</ele>
        <time>2012-05-27T10:30:56Z</time>
      </trkpt>
      <trkpt lat="45.47516" lon="5.08038">
        <ele>452.70001220703</ele>
        <time>2012-05-27T10:31:02Z</time>
      </trkpt>
      <trkpt lat="45.47525" lon="5.0804">
        <ele>451.90002441406</ele>
        <time>2012-05-27T10:31:09Z</time>
      </trkpt>
      <trkpt lat="45.47535" lon="5.08041">
        <ele>450.40002441406</ele>
        <time>2012-05-27T10:31:19Z</time>
      </trkpt>
      <trkpt lat="45.47544" lon="5.0804">
        <ele>448.5</ele>
        <time>2012-05-27T10:31:29Z</time>
      </trkpt>
      <trkpt lat="45.47553" lon="5.08036">
        <ele>447.59997558594</ele>
        <time>2012-05-27T10:31:39Z</time>
      </trkpt>
      <trkpt lat="45.47561" lon="5.08031">
        <ele>446.20001220703</ele>
        <time>2012-05-27T10:31:46Z</time>
      </trkpt>
      <trkpt lat="45.4757" lon="5.08024">
        <ele>444.20001220703</ele>
        <time>2012-05-27T10:31:53Z</time>
      </trkpt>
      <trkpt lat="45.47578" lon="5.0802">
        <ele>443.70001220703</ele>
        <time>2012-05-27T10:32:00Z</time>
      </trkpt>
      <trkpt lat="45.47586" lon="5.08013">
        <ele>443.5</ele>
        <time>2012-05-27T10:32:08Z</time>
      </trkpt>
      <trkpt lat="45.47595" lon="5.08007">
        <ele>443.40002441406</ele>
        <time>2012-05-27T10:32:16Z</time>
      </trkpt>
      <trkpt lat="45.47602" lon="5.07999">
        <ele>442.40002441406</ele>
        <time>2012-05-27T10:32:24Z</time>
      </trkpt>
      <trkpt lat="45.4761" lon="5.07992">
        <ele>441.5</ele>
        <time>2012-05-27T10:32:31Z</time>
      </trkpt>
      <trkpt lat="45.47618" lon="5.07984">
        <ele>441.90002441406</ele>
        <time>2012-05-27T10:32:41Z</time>
      </trkpt>
      <trkpt lat="45.47627" lon="5.07977">
        <ele>442.29998779297</ele>
        <time>2012-05-27T10:32:49Z</time>
      </trkpt>
      <trkpt lat="45.47645" lon="5.07967">
        <ele>441.79998779297</ele>
        <time>2012-05-27T10:33:05Z</time>
      </trkpt>
      <trkpt lat="45.47663" lon="5.07956">
        <ele>441</ele>
        <time>2012-05-27T10:33:22Z</time>
      </trkpt>
      <trkpt lat="45.47676" lon="5.07935">
        <ele>438.70001220703</ele>
        <time>2012-05-27T10:33:37Z</time>
      </trkpt>
      <trkpt lat="45.47676" lon="5.07908">
        <ele>437.90002441406</ele>
        <time>2012-05-27T10:33:53Z</time>
      </trkpt>
      <trkpt lat="45.47681" lon="5.0788">
        <ele>432.29998779297</ele>
        <time>2012-05-27T10:34:09Z</time>
      </trkpt>
      <trkpt lat="45.47685" lon="5.07867">
        <ele>430.79998779297</ele>
        <time>2012-05-27T10:34:17Z</time>
      </trkpt>
      <trkpt lat="45.47693" lon="5.07842">
        <ele>428.59997558594</ele>
        <time>2012-05-27T10:34:33Z</time>
      </trkpt>
      <trkpt lat="45.47695" lon="5.07829">
        <ele>427.79998779297</ele>
        <time>2012-05-27T10:34:42Z</time>
      </trkpt>
      <trkpt lat="45.47696" lon="5.07816">
        <ele>428</ele>
        <time>2012-05-27T10:34:56Z</time>
      </trkpt>
      <trkpt lat="45.47699" lon="5.07804">
        <ele>428.90002441406</ele>
        <time>2012-05-27T10:35:08Z</time>
      </trkpt>
      <trkpt lat="45.47703" lon="5.07777">
        <ele>427.59997558594</ele>
        <time>2012-05-27T10:35:23Z</time>
      </trkpt>
      <trkpt lat="45.47707" lon="5.0775">
        <ele>426.90002441406</ele>
        <time>2012-05-27T10:35:41Z</time>
      </trkpt>
      <trkpt lat="45.47715" lon="5.07727">
        <ele>422.09997558594</ele>
        <time>2012-05-27T10:35:52Z</time>
      </trkpt>
      <trkpt lat="45.47724" lon="5.07704">
        <ele>418</ele>
        <time>2012-05-27T10:36:04Z</time>
      </trkpt>
      <trkpt lat="45.47731" lon="5.07693">
        <ele>415.59997558594</ele>
        <time>2012-05-27T10:36:11Z</time>
      </trkpt>
      <trkpt lat="45.47736" lon="5.07681">
        <ele>412.29998779297</ele>
        <time>2012-05-27T10:36:18Z</time>
      </trkpt>
      <trkpt lat="45.47739" lon="5.07668">
        <ele>411.5</ele>
        <time>2012-05-27T10:36:26Z</time>
      </trkpt>
      <trkpt lat="45.4774" lon="5.07655">
        <ele>411.70001220703</ele>
        <time>2012-05-27T10:36:33Z</time>
      </trkpt>
      <trkpt lat="45.47732" lon="5.07647">
        <ele>410.59997558594</ele>
        <time>2012-05-27T10:36:57Z</time>
      </trkpt>
      <trkpt lat="45.47719" lon="5.0763">
        <ele>410.40002441406</ele>
        <time>2012-05-27T10:37:30Z</time>
      </trkpt>
      <trkpt lat="45.47733" lon="5.07646">
        <ele>407.5</ele>
        <time>2012-05-27T10:38:25Z</time>
      </trkpt>
      <trkpt lat="45.47747" lon="5.07632">
        <ele>407.09997558594</ele>
        <time>2012-05-27T10:38:54Z</time>
      </trkpt>
      <trkpt lat="45.47752" lon="5.07621">
        <ele>409.59997558594</ele>
        <time>2012-05-27T10:39:02Z</time>
      </trkpt>
      <trkpt lat="45.47755" lon="5.07594">
        <ele>411.09997558594</ele>
        <time>2012-05-27T10:39:18Z</time>
      </trkpt>
      <trkpt lat="45.47756" lon="5.07567">
        <ele>413.09997558594</ele>
        <time>2012-05-27T10:39:31Z</time>
      </trkpt>
      <trkpt lat="45.47756" lon="5.07539">
        <ele>413.90002441406</ele>
        <time>2012-05-27T10:39:43Z</time>
      </trkpt>
      <trkpt lat="45.47757" lon="5.07525">
        <ele>415.20001220703</ele>
        <time>2012-05-27T10:39:50Z</time>
      </trkpt>
      <trkpt lat="45.47759" lon="5.07512">
        <ele>416.20001220703</ele>
        <time>2012-05-27T10:39:56Z</time>
      </trkpt>
      <trkpt lat="45.47761" lon="5.07499">
        <ele>417.79998779297</ele>
        <time>2012-05-27T10:40:02Z</time>
      </trkpt>
      <trkpt lat="45.47762" lon="5.07485">
        <ele>419.70001220703</ele>
        <time>2012-05-27T10:40:09Z</time>
      </trkpt>
      <trkpt lat="45.47766" lon="5.07472">
        <ele>419.29998779297</ele>
        <time>2012-05-27T10:40:17Z</time>
      </trkpt>
      <trkpt lat="45.47769" lon="5.07459">
        <ele>419.40002441406</ele>
        <time>2012-05-27T10:40:23Z</time>
      </trkpt>
      <trkpt lat="45.47777" lon="5.07433">
        <ele>419.70001220703</ele>
        <time>2012-05-27T10:40:38Z</time>
      </trkpt>
      <trkpt lat="45.4778" lon="5.07421">
        <ele>420.40002441406</ele>
        <time>2012-05-27T10:40:46Z</time>
      </trkpt>
      <trkpt lat="45.47786" lon="5.07394">
        <ele>420.40002441406</ele>
        <time>2012-05-27T10:41:04Z</time>
      </trkpt>
      <trkpt lat="45.47791" lon="5.07369">
        <ele>422.5</ele>
        <time>2012-05-27T10:41:18Z</time>
      </trkpt>
      <trkpt lat="45.47799" lon="5.07343">
        <ele>419.59997558594</ele>
        <time>2012-05-27T10:41:31Z</time>
      </trkpt>
      <trkpt lat="45.47809" lon="5.07319">
        <ele>417.59997558594</ele>
        <time>2012-05-27T10:41:46Z</time>
      </trkpt>
      <trkpt lat="45.47817" lon="5.07293">
        <ele>412.79998779297</ele>
        <time>2012-05-27T10:42:00Z</time>
      </trkpt>
      <trkpt lat="45.47825" lon="5.07268">
        <ele>412.70001220703</ele>
        <time>2012-05-27T10:42:15Z</time>
      </trkpt>
      <trkpt lat="45.47834" lon="5.07243">
        <ele>413.40002441406</ele>
        <time>2012-05-27T10:42:30Z</time>
      </trkpt>
      <trkpt lat="45.4784" lon="5.07232">
        <ele>413.79998779297</ele>
        <time>2012-05-27T10:42:37Z</time>
      </trkpt>
      <trkpt lat="45.47845" lon="5.07221">
        <ele>415.5</ele>
        <time>2012-05-27T10:42:44Z</time>
      </trkpt>
      <trkpt lat="45.47851" lon="5.07209">
        <ele>415.70001220703</ele>
        <time>2012-05-27T10:42:51Z</time>
      </trkpt>
      <trkpt lat="45.47857" lon="5.07198">
        <ele>414.90002441406</ele>
        <time>2012-05-27T10:42:59Z</time>
      </trkpt>
      <trkpt lat="45.47864" lon="5.07189">
        <ele>413.59997558594</ele>
        <time>2012-05-27T10:43:07Z</time>
      </trkpt>
      <trkpt lat="45.47871" lon="5.07178">
        <ele>413.09997558594</ele>
        <time>2012-05-27T10:43:15Z</time>
      </trkpt>
      <trkpt lat="45.47877" lon="5.07167">
        <ele>413.59997558594</ele>
        <time>2012-05-27T10:43:23Z</time>
      </trkpt>
      <trkpt lat="45.47883" lon="5.07156">
        <ele>415.09997558594</ele>
        <time>2012-05-27T10:43:30Z</time>
      </trkpt>
      <trkpt lat="45.47895" lon="5.07135">
        <ele>418.09997558594</ele>
        <time>2012-05-27T10:43:51Z</time>
      </trkpt>
      <trkpt lat="45.47906" lon="5.07112">
        <ele>421.09997558594</ele>
        <time>2012-05-27T10:44:06Z</time>
      </trkpt>
      <trkpt lat="45.47917" lon="5.07091">
        <ele>421.29998779297</ele>
        <time>2012-05-27T10:44:20Z</time>
      </trkpt>
      <trkpt lat="45.47937" lon="5.0706">
        <ele>420.70001220703</ele>
        <time>2012-05-27T10:44:42Z</time>
      </trkpt>
      <trkpt lat="45.47951" lon="5.0704">
        <ele>419.70001220703</ele>
        <time>2012-05-27T10:44:56Z</time>
      </trkpt>
      <trkpt lat="45.47958" lon="5.07033">
        <ele>420</ele>
        <time>2012-05-27T10:45:03Z</time>
      </trkpt>
      <trkpt lat="45.47965" lon="5.07024">
        <ele>419.90002441406</ele>
        <time>2012-05-27T10:45:10Z</time>
      </trkpt>
      <trkpt lat="45.47972" lon="5.07014">
        <ele>422.59997558594</ele>
        <time>2012-05-27T10:45:17Z</time>
      </trkpt>
      <trkpt lat="45.47979" lon="5.07006">
        <ele>424.40002441406</ele>
        <time>2012-05-27T10:45:24Z</time>
      </trkpt>
      <trkpt lat="45.47987" lon="5.06999">
        <ele>425.09997558594</ele>
        <time>2012-05-27T10:45:32Z</time>
      </trkpt>
      <trkpt lat="45.48004" lon="5.06993">
        <ele>424.09997558594</ele>
        <time>2012-05-27T10:45:49Z</time>
      </trkpt>
      <trkpt lat="45.48014" lon="5.06994">
        <ele>422.29998779297</ele>
        <time>2012-05-27T10:45:58Z</time>
      </trkpt>
      <trkpt lat="45.48023" lon="5.06993">
        <ele>423.29998779297</ele>
        <time>2012-05-27T10:46:05Z</time>
      </trkpt>
      <trkpt lat="45.48033" lon="5.06991">
        <ele>423.20001220703</ele>
        <time>2012-05-27T10:46:10Z</time>
      </trkpt>
      <trkpt lat="45.4804" lon="5.06983">
        <ele>424.20001220703</ele>
        <time>2012-05-27T10:46:18Z</time>
      </trkpt>
      <trkpt lat="45.48043" lon="5.06971">
        <ele>426</ele>
        <time>2012-05-27T10:46:27Z</time>
      </trkpt>
      <trkpt lat="45.48043" lon="5.06944">
        <ele>430.40002441406</ele>
        <time>2012-05-27T10:46:41Z</time>
      </trkpt>
      <trkpt lat="45.48042" lon="5.06917">
        <ele>433.90002441406</ele>
        <time>2012-05-27T10:46:58Z</time>
      </trkpt>
      <trkpt lat="45.48045" lon="5.06891">
        <ele>431.20001220703</ele>
        <time>2012-05-27T10:47:13Z</time>
      </trkpt>
      <trkpt lat="45.48056" lon="5.06869">
        <ele>430.20001220703</ele>
        <time>2012-05-27T10:47:29Z</time>
      </trkpt>
      <trkpt lat="45.48048" lon="5.06863">
        <ele>434.09997558594</ele>
        <time>2012-05-27T10:48:02Z</time>
      </trkpt>
      <trkpt lat="45.48039" lon="5.06868">
        <ele>433.40002441406</ele>
        <time>2012-05-27T10:48:13Z</time>
      </trkpt>
      <trkpt lat="45.4803" lon="5.06874">
        <ele>432</ele>
        <time>2012-05-27T10:48:24Z</time>
      </trkpt>
      <trkpt lat="45.48021" lon="5.06875">
        <ele>430.20001220703</ele>
        <time>2012-05-27T10:48:40Z</time>
      </trkpt>
      <trkpt lat="45.48012" lon="5.06881">
        <ele>427.70001220703</ele>
        <time>2012-05-27T10:48:50Z</time>
      </trkpt>
      <trkpt lat="45.48004" lon="5.06887">
        <ele>426.40002441406</ele>
        <time>2012-05-27T10:48:59Z</time>
      </trkpt>
      <trkpt lat="45.47996" lon="5.06894">
        <ele>426.40002441406</ele>
        <time>2012-05-27T10:49:10Z</time>
      </trkpt>
      <trkpt lat="45.4799" lon="5.06904">
        <ele>426.59997558594</ele>
        <time>2012-05-27T10:49:21Z</time>
      </trkpt>
      <trkpt lat="45.47984" lon="5.06914">
        <ele>427.29998779297</ele>
        <time>2012-05-27T10:49:31Z</time>
      </trkpt>
      <trkpt lat="45.47974" lon="5.06911">
        <ele>416.79998779297</ele>
        <time>2012-05-27T10:49:50Z</time>
      </trkpt>
      <trkpt lat="45.47967" lon="5.06901">
        <ele>410.09997558594</ele>
        <time>2012-05-27T10:50:00Z</time>
      </trkpt>
      <trkpt lat="45.47962" lon="5.0689">
        <ele>406.20001220703</ele>
        <time>2012-05-27T10:50:12Z</time>
      </trkpt>
      <trkpt lat="45.47958" lon="5.06878">
        <ele>403.40002441406</ele>
        <time>2012-05-27T10:50:23Z</time>
      </trkpt>
      <trkpt lat="45.47955" lon="5.06865">
        <ele>401.70001220703</ele>
        <time>2012-05-27T10:50:32Z</time>
      </trkpt>
      <trkpt lat="45.47951" lon="5.06853">
        <ele>399</ele>
        <time>2012-05-27T10:50:41Z</time>
      </trkpt>
      <trkpt lat="45.47952" lon="5.06839">
        <ele>393.5</ele>
        <time>2012-05-27T10:51:50Z</time>
      </trkpt>
      <trkpt lat="45.47956" lon="5.06813">
        <ele>393.5</ele>
        <time>2012-05-27T10:52:10Z</time>
      </trkpt>
      <trkpt lat="45.4797" lon="5.06788">
        <ele>394.70001220703</ele>
        <time>2012-05-27T10:52:17Z</time>
      </trkpt>
      <trkpt lat="45.47988" lon="5.06766">
        <ele>396</ele>
        <time>2012-05-27T10:52:24Z</time>
      </trkpt>
      <trkpt lat="45.47993" lon="5.06738">
        <ele>397.90002441406</ele>
        <time>2012-05-27T10:52:32Z</time>
      </trkpt>
      <trkpt lat="45.47988" lon="5.0671">
        <ele>398.90002441406</ele>
        <time>2012-05-27T10:52:43Z</time>
      </trkpt>
      <trkpt lat="45.47981" lon="5.06683">
        <ele>399.5</ele>
        <time>2012-05-27T10:52:50Z</time>
      </trkpt>
      <trkpt lat="45.47973" lon="5.06652">
        <ele>399.5</ele>
        <time>2012-05-27T10:52:57Z</time>
      </trkpt>
      <trkpt lat="45.4797" lon="5.06623">
        <ele>400</ele>
        <time>2012-05-27T10:53:03Z</time>
      </trkpt>
      <trkpt lat="45.4797" lon="5.0661">
        <ele>399</ele>
        <time>2012-05-27T10:53:08Z</time>
      </trkpt>
      <trkpt lat="45.4797" lon="5.06596">
        <ele>399.40002441406</ele>
        <time>2012-05-27T10:53:15Z</time>
      </trkpt>
      <trkpt lat="45.4797" lon="5.06582">
        <ele>400.90002441406</ele>
        <time>2012-05-27T10:53:23Z</time>
      </trkpt>
      <trkpt lat="45.47974" lon="5.06556">
        <ele>401.09997558594</ele>
        <time>2012-05-27T10:53:36Z</time>
      </trkpt>
      <trkpt lat="45.47975" lon="5.06542">
        <ele>399.09997558594</ele>
        <time>2012-05-27T10:53:42Z</time>
      </trkpt>
      <trkpt lat="45.47975" lon="5.06529">
        <ele>398.59997558594</ele>
        <time>2012-05-27T10:53:49Z</time>
      </trkpt>
      <trkpt lat="45.47975" lon="5.06501">
        <ele>398.79998779297</ele>
        <time>2012-05-27T10:54:05Z</time>
      </trkpt>
      <trkpt lat="45.47977" lon="5.06475">
        <ele>399.90002441406</ele>
        <time>2012-05-27T10:54:26Z</time>
      </trkpt>
      <trkpt lat="45.4798" lon="5.06445">
        <ele>400.20001220703</ele>
        <time>2012-05-27T10:54:35Z</time>
      </trkpt>
      <trkpt lat="45.47983" lon="5.06417">
        <ele>399.90002441406</ele>
        <time>2012-05-27T10:54:41Z</time>
      </trkpt>
      <trkpt lat="45.47986" lon="5.0639">
        <ele>400.5</ele>
        <time>2012-05-27T10:54:52Z</time>
      </trkpt>
      <trkpt lat="45.4799" lon="5.06363">
        <ele>399.79998779297</ele>
        <time>2012-05-27T10:55:04Z</time>
      </trkpt>
      <trkpt lat="45.47999" lon="5.06338">
        <ele>397.70001220703</ele>
        <time>2012-05-27T10:55:19Z</time>
      </trkpt>
      <trkpt lat="45.48005" lon="5.06314">
        <ele>397.40002441406</ele>
        <time>2012-05-27T10:55:36Z</time>
      </trkpt>
      <trkpt lat="45.4801" lon="5.06302">
        <ele>396.70001220703</ele>
        <time>2012-05-27T10:55:44Z</time>
      </trkpt>
      <trkpt lat="45.48014" lon="5.0629">
        <ele>396.90002441406</ele>
        <time>2012-05-27T10:55:51Z</time>
      </trkpt>
      <trkpt lat="45.48017" lon="5.06278">
        <ele>397.09997558594</ele>
        <time>2012-05-27T10:55:58Z</time>
      </trkpt>
      <trkpt lat="45.48026" lon="5.06253">
        <ele>394.90002441406</ele>
        <time>2012-05-27T10:56:12Z</time>
      </trkpt>
      <trkpt lat="45.48028" lon="5.06226">
        <ele>396.40002441406</ele>
        <time>2012-05-27T10:56:27Z</time>
      </trkpt>
      <trkpt lat="45.48023" lon="5.062">
        <ele>396.79998779297</ele>
        <time>2012-05-27T10:56:43Z</time>
      </trkpt>
      <trkpt lat="45.48022" lon="5.06186">
        <ele>396.29998779297</ele>
        <time>2012-05-27T10:56:49Z</time>
      </trkpt>
      <trkpt lat="45.48019" lon="5.06157">
        <ele>397.5</ele>
        <time>2012-05-27T10:57:03Z</time>
      </trkpt>
      <trkpt lat="45.48024" lon="5.06126">
        <ele>395.20001220703</ele>
        <time>2012-05-27T10:57:09Z</time>
      </trkpt>
      <trkpt lat="45.48023" lon="5.0609">
        <ele>395.70001220703</ele>
        <time>2012-05-27T10:57:15Z</time>
      </trkpt>
      <trkpt lat="45.48025" lon="5.06049">
        <ele>396.20001220703</ele>
        <time>2012-05-27T10:57:30Z</time>
      </trkpt>
      <trkpt lat="45.48032" lon="5.06024">
        <ele>396.40002441406</ele>
        <time>2012-05-27T10:57:41Z</time>
      </trkpt>
      <trkpt lat="45.48042" lon="5.05997">
        <ele>395</ele>
        <time>2012-05-27T10:57:53Z</time>
      </trkpt>
      <trkpt lat="45.48048" lon="5.05972">
        <ele>393.20001220703</ele>
        <time>2012-05-27T10:58:06Z</time>
      </trkpt>
      <trkpt lat="45.48052" lon="5.05945">
        <ele>394</ele>
        <time>2012-05-27T10:58:20Z</time>
      </trkpt>
      <trkpt lat="45.48064" lon="5.0591">
        <ele>395.79998779297</ele>
        <time>2012-05-27T10:58:42Z</time>
      </trkpt>
      <trkpt lat="45.4806" lon="5.05882">
        <ele>397.40002441406</ele>
        <time>2012-05-27T10:58:55Z</time>
      </trkpt>
      <trkpt lat="45.48058" lon="5.05856">
        <ele>399.40002441406</ele>
        <time>2012-05-27T10:59:10Z</time>
      </trkpt>
      <trkpt lat="45.48058" lon="5.05828">
        <ele>399</ele>
        <time>2012-05-27T10:59:25Z</time>
      </trkpt>
      <trkpt lat="45.48054" lon="5.058">
        <ele>396.5</ele>
        <time>2012-05-27T10:59:38Z</time>
      </trkpt>
      <trkpt lat="45.48047" lon="5.05774">
        <ele>397.09997558594</ele>
        <time>2012-05-27T10:59:52Z</time>
      </trkpt>
      <trkpt lat="45.48044" lon="5.05761">
        <ele>397.29998779297</ele>
        <time>2012-05-27T11:00:00Z</time>
      </trkpt>
      <trkpt lat="45.48037" lon="5.05752">
        <ele>396.5</ele>
        <time>2012-05-27T11:00:08Z</time>
      </trkpt>
      <trkpt lat="45.48032" lon="5.0574">
        <ele>396.70001220703</ele>
        <time>2012-05-27T11:00:15Z</time>
      </trkpt>
      <trkpt lat="45.48031" lon="5.05713">
        <ele>395.20001220703</ele>
        <time>2012-05-27T11:00:30Z</time>
      </trkpt>
      <trkpt lat="45.48029" lon="5.05677">
        <ele>391.79998779297</ele>
        <time>2012-05-27T11:02:07Z</time>
      </trkpt>
      <trkpt lat="45.48028" lon="5.05637">
        <ele>390.90002441406</ele>
        <time>2012-05-27T11:02:30Z</time>
      </trkpt>
      <trkpt lat="45.4803" lon="5.05595">
        <ele>391.90002441406</ele>
        <time>2012-05-27T11:02:53Z</time>
      </trkpt>
      <trkpt lat="45.48028" lon="5.05553">
        <ele>389.29998779297</ele>
        <time>2012-05-27T11:03:13Z</time>
      </trkpt>
      <trkpt lat="45.48027" lon="5.0551">
        <ele>385.40002441406</ele>
        <time>2012-05-27T11:03:29Z</time>
      </trkpt>
      <trkpt lat="45.48024" lon="5.05484">
        <ele>382.59997558594</ele>
        <time>2012-05-27T11:03:42Z</time>
      </trkpt>
      <trkpt lat="45.4802" lon="5.05472">
        <ele>382.29998779297</ele>
        <time>2012-05-27T11:03:47Z</time>
      </trkpt>
      <trkpt lat="45.48017" lon="5.05444">
        <ele>383.09997558594</ele>
        <time>2012-05-27T11:03:55Z</time>
      </trkpt>
      <trkpt lat="45.4802" lon="5.05412">
        <ele>383.90002441406</ele>
        <time>2012-05-27T11:04:02Z</time>
      </trkpt>
      <trkpt lat="45.48022" lon="5.05382">
        <ele>383.79998779297</ele>
        <time>2012-05-27T11:04:07Z</time>
      </trkpt>
      <trkpt lat="45.48027" lon="5.05356">
        <ele>384.20001220703</ele>
        <time>2012-05-27T11:04:19Z</time>
      </trkpt>
      <trkpt lat="45.48033" lon="5.05329">
        <ele>387.5</ele>
        <time>2012-05-27T11:04:34Z</time>
      </trkpt>
      <trkpt lat="45.48037" lon="5.05302">
        <ele>389.59997558594</ele>
        <time>2012-05-27T11:04:49Z</time>
      </trkpt>
      <trkpt lat="45.48037" lon="5.05275">
        <ele>391.90002441406</ele>
        <time>2012-05-27T11:05:02Z</time>
      </trkpt>
      <trkpt lat="45.48036" lon="5.05262">
        <ele>393.59997558594</ele>
        <time>2012-05-27T11:05:07Z</time>
      </trkpt>
      <trkpt lat="45.48034" lon="5.05249">
        <ele>394.70001220703</ele>
        <time>2012-05-27T11:05:14Z</time>
      </trkpt>
      <trkpt lat="45.48026" lon="5.05222">
        <ele>398.29998779297</ele>
        <time>2012-05-27T11:05:59Z</time>
      </trkpt>
      <trkpt lat="45.48028" lon="5.05195">
        <ele>399.40002441406</ele>
        <time>2012-05-27T11:06:11Z</time>
      </trkpt>
      <trkpt lat="45.48028" lon="5.05181">
        <ele>400.20001220703</ele>
        <time>2012-05-27T11:06:22Z</time>
      </trkpt>
      <trkpt lat="45.48036" lon="5.05157">
        <ele>401.09997558594</ele>
        <time>2012-05-27T11:06:53Z</time>
      </trkpt>
      <trkpt lat="45.48046" lon="5.05138">
        <ele>404.29998779297</ele>
        <time>2012-05-27T11:07:24Z</time>
      </trkpt>
      <trkpt lat="45.48058" lon="5.05116">
        <ele>404.09997558594</ele>
        <time>2012-05-27T11:07:45Z</time>
      </trkpt>
      <trkpt lat="45.48077" lon="5.05112">
        <ele>401.70001220703</ele>
        <time>2012-05-27T11:08:03Z</time>
      </trkpt>
      <trkpt lat="45.48092" lon="5.05124">
        <ele>399.90002441406</ele>
        <time>2012-05-27T11:08:20Z</time>
      </trkpt>
      <trkpt lat="45.48111" lon="5.05133">
        <ele>398.79998779297</ele>
        <time>2012-05-27T11:08:34Z</time>
      </trkpt>
      <trkpt lat="45.48129" lon="5.05126">
        <ele>396.90002441406</ele>
        <time>2012-05-27T11:09:18Z</time>
      </trkpt>
      <trkpt lat="45.48148" lon="5.05126">
        <ele>398.20001220703</ele>
        <time>2012-05-27T11:09:31Z</time>
      </trkpt>
      <trkpt lat="45.48158" lon="5.0515">
        <ele>396</ele>
        <time>2012-05-27T11:09:48Z</time>
      </trkpt>
      <trkpt lat="45.48155" lon="5.05187">
        <ele>400.59997558594</ele>
        <time>2012-05-27T11:10:35Z</time>
      </trkpt>
      <trkpt lat="45.48164" lon="5.05225">
        <ele>402.20001220703</ele>
        <time>2012-05-27T11:10:55Z</time>
      </trkpt>
      <trkpt lat="45.48178" lon="5.05245">
        <ele>406.5</ele>
        <time>2012-05-27T11:11:14Z</time>
      </trkpt>
      <trkpt lat="45.48189" lon="5.05266">
        <ele>412.20001220703</ele>
        <time>2012-05-27T11:11:31Z</time>
      </trkpt>
      <trkpt lat="45.48195" lon="5.05291">
        <ele>412.20001220703</ele>
        <time>2012-05-27T11:11:46Z</time>
      </trkpt>
      <trkpt lat="45.48205" lon="5.05314">
        <ele>412.20001220703</ele>
        <time>2012-05-27T11:12:00Z</time>
      </trkpt>
      <trkpt lat="45.48202" lon="5.05328">
        <ele>410.70001220703</ele>
        <time>2012-05-27T11:12:06Z</time>
      </trkpt>
      <trkpt lat="45.48198" lon="5.05339">
        <ele>411.29998779297</ele>
        <time>2012-05-27T11:12:11Z</time>
      </trkpt>
      <trkpt lat="45.48194" lon="5.05351">
        <ele>411.59997558594</ele>
        <time>2012-05-27T11:12:18Z</time>
      </trkpt>
      <trkpt lat="45.48189" lon="5.05364">
        <ele>412.40002441406</ele>
        <time>2012-05-27T11:12:25Z</time>
      </trkpt>
      <trkpt lat="45.4818" lon="5.0539">
        <ele>413.59997558594</ele>
        <time>2012-05-27T11:12:37Z</time>
      </trkpt>
      <trkpt lat="45.48173" lon="5.05416">
        <ele>414.29998779297</ele>
        <time>2012-05-27T11:12:51Z</time>
      </trkpt>
      <trkpt lat="45.48177" lon="5.05424">
        <ele>415.09997558594</ele>
        <time>2012-05-27T11:13:37Z</time>
      </trkpt>
      <trkpt lat="45.48194" lon="5.0541">
        <ele>414</ele>
        <time>2012-05-27T11:13:48Z</time>
      </trkpt>
      <trkpt lat="45.48203" lon="5.05406">
        <ele>413.5</ele>
        <time>2012-05-27T11:14:08Z</time>
      </trkpt>
      <trkpt lat="45.48212" lon="5.05402">
        <ele>413.09997558594</ele>
        <time>2012-05-27T11:14:17Z</time>
      </trkpt>
      <trkpt lat="45.48222" lon="5.05399">
        <ele>413.5</ele>
        <time>2012-05-27T11:14:24Z</time>
      </trkpt>
      <trkpt lat="45.48231" lon="5.05396">
        <ele>414.09997558594</ele>
        <time>2012-05-27T11:14:31Z</time>
      </trkpt>
      <trkpt lat="45.4824" lon="5.05396">
        <ele>413.90002441406</ele>
        <time>2012-05-27T11:14:37Z</time>
      </trkpt>
      <trkpt lat="45.4825" lon="5.05395">
        <ele>414.59997558594</ele>
        <time>2012-05-27T11:14:54Z</time>
      </trkpt>
      <trkpt lat="45.48267" lon="5.05384">
        <ele>415.90002441406</ele>
        <time>2012-05-27T11:15:07Z</time>
      </trkpt>
      <trkpt lat="45.48286" lon="5.05369">
        <ele>418.5</ele>
        <time>2012-05-27T11:15:15Z</time>
      </trkpt>
      <trkpt lat="45.4831" lon="5.05354">
        <ele>419.90002441406</ele>
        <time>2012-05-27T11:15:21Z</time>
      </trkpt>
      <trkpt lat="45.48333" lon="5.05336">
        <ele>420.40002441406</ele>
        <time>2012-05-27T11:15:25Z</time>
      </trkpt>
      <trkpt lat="45.48351" lon="5.05314">
        <ele>420.90002441406</ele>
        <time>2012-05-27T11:15:29Z</time>
      </trkpt>
      <trkpt lat="45.48363" lon="5.05288">
        <ele>421.70001220703</ele>
        <time>2012-05-27T11:15:34Z</time>
      </trkpt>
      <trkpt lat="45.48368" lon="5.05262">
        <ele>423.40002441406</ele>
        <time>2012-05-27T11:15:45Z</time>
      </trkpt>
      <trkpt lat="45.48379" lon="5.05239">
        <ele>425.09997558594</ele>
        <time>2012-05-27T11:16:00Z</time>
      </trkpt>
      <trkpt lat="45.48385" lon="5.05228">
        <ele>426.09997558594</ele>
        <time>2012-05-27T11:16:08Z</time>
      </trkpt>
      <trkpt lat="45.48393" lon="5.05203">
        <ele>428.70001220703</ele>
        <time>2012-05-27T11:18:45Z</time>
      </trkpt>
      <trkpt lat="45.48391" lon="5.05189">
        <ele>428.90002441406</ele>
        <time>2012-05-27T11:18:51Z</time>
      </trkpt>
      <trkpt lat="45.48391" lon="5.05175">
        <ele>428.90002441406</ele>
        <time>2012-05-27T11:18:57Z</time>
      </trkpt>
      <trkpt lat="45.48391" lon="5.05161">
        <ele>430</ele>
        <time>2012-05-27T11:19:03Z</time>
      </trkpt>
      <trkpt lat="45.48396" lon="5.05184">
        <ele>428.70001220703</ele>
        <time>2012-05-27T12:09:12Z</time>
      </trkpt>
      <trkpt lat="45.48399" lon="5.0523">
        <ele>425.90002441406</ele>
        <time>2012-05-27T12:09:35Z</time>
      </trkpt>
      <trkpt lat="45.48401" lon="5.05244">
        <ele>426.90002441406</ele>
        <time>2012-05-27T12:09:43Z</time>
      </trkpt>
      <trkpt lat="45.484" lon="5.05258">
        <ele>427.5</ele>
        <time>2012-05-27T12:09:52Z</time>
      </trkpt>
      <trkpt lat="45.48402" lon="5.05286">
        <ele>428.90002441406</ele>
        <time>2012-05-27T12:10:09Z</time>
      </trkpt>
      <trkpt lat="45.48404" lon="5.05312">
        <ele>431.59997558594</ele>
        <time>2012-05-27T12:10:23Z</time>
      </trkpt>
      <trkpt lat="45.48408" lon="5.05339">
        <ele>433.20001220703</ele>
        <time>2012-05-27T12:10:39Z</time>
      </trkpt>
      <trkpt lat="45.48412" lon="5.05365">
        <ele>433.5</ele>
        <time>2012-05-27T12:10:54Z</time>
      </trkpt>
      <trkpt lat="45.48422" lon="5.05397">
        <ele>433.59997558594</ele>
        <time>2012-05-27T12:11:02Z</time>
      </trkpt>
      <trkpt lat="45.48433" lon="5.05425">
        <ele>434.5</ele>
        <time>2012-05-27T12:11:07Z</time>
      </trkpt>
      <trkpt lat="45.48446" lon="5.05452">
        <ele>434.5</ele>
        <time>2012-05-27T12:11:13Z</time>
      </trkpt>
      <trkpt lat="45.48459" lon="5.05477">
        <ele>435.40002441406</ele>
        <time>2012-05-27T12:11:18Z</time>
      </trkpt>
      <trkpt lat="45.48476" lon="5.05514">
        <ele>435.29998779297</ele>
        <time>2012-05-27T12:11:27Z</time>
      </trkpt>
      <trkpt lat="45.48487" lon="5.05555">
        <ele>434.20001220703</ele>
        <time>2012-05-27T12:11:35Z</time>
      </trkpt>
      <trkpt lat="45.48484" lon="5.05586">
        <ele>433.09997558594</ele>
        <time>2012-05-27T12:11:40Z</time>
      </trkpt>
      <trkpt lat="45.48487" lon="5.05615">
        <ele>433.20001220703</ele>
        <time>2012-05-27T12:11:44Z</time>
      </trkpt>
      <trkpt lat="45.48488" lon="5.05642">
        <ele>432.70001220703</ele>
        <time>2012-05-27T12:11:48Z</time>
      </trkpt>
      <trkpt lat="45.4849" lon="5.05654">
        <ele>433</ele>
        <time>2012-05-27T12:11:50Z</time>
      </trkpt>
      <trkpt lat="45.48497" lon="5.05691">
        <ele>434</ele>
        <time>2012-05-27T12:11:56Z</time>
      </trkpt>
      <trkpt lat="45.48503" lon="5.05716">
        <ele>434.40002441406</ele>
        <time>2012-05-27T12:12:00Z</time>
      </trkpt>
      <trkpt lat="45.48513" lon="5.05743">
        <ele>435.09997558594</ele>
        <time>2012-05-27T12:12:06Z</time>
      </trkpt>
      <trkpt lat="45.48519" lon="5.05769">
        <ele>437.09997558594</ele>
        <time>2012-05-27T12:12:21Z</time>
      </trkpt>
      <trkpt lat="45.48516" lon="5.05796">
        <ele>434.5</ele>
        <time>2012-05-27T12:12:39Z</time>
      </trkpt>
      <trkpt lat="45.4851" lon="5.05823">
        <ele>431</ele>
        <time>2012-05-27T12:12:54Z</time>
      </trkpt>
      <trkpt lat="45.48508" lon="5.05851">
        <ele>432.5</ele>
        <time>2012-05-27T12:13:07Z</time>
      </trkpt>
      <trkpt lat="45.48505" lon="5.05864">
        <ele>432.40002441406</ele>
        <time>2012-05-27T12:13:14Z</time>
      </trkpt>
      <trkpt lat="45.48502" lon="5.0589">
        <ele>431.59997558594</ele>
        <time>2012-05-27T12:13:26Z</time>
      </trkpt>
      <trkpt lat="45.48502" lon="5.05905">
        <ele>430.40002441406</ele>
        <time>2012-05-27T12:13:33Z</time>
      </trkpt>
      <trkpt lat="45.48502" lon="5.05919">
        <ele>431</ele>
        <time>2012-05-27T12:13:39Z</time>
      </trkpt>
      <trkpt lat="45.48504" lon="5.05949">
        <ele>433.5</ele>
        <time>2012-05-27T12:13:49Z</time>
      </trkpt>
      <trkpt lat="45.48503" lon="5.05962">
        <ele>432.90002441406</ele>
        <time>2012-05-27T12:13:55Z</time>
      </trkpt>
      <trkpt lat="45.48497" lon="5.05988">
        <ele>430.29998779297</ele>
        <time>2012-05-27T12:14:10Z</time>
      </trkpt>
      <trkpt lat="45.48486" lon="5.06012">
        <ele>430.40002441406</ele>
        <time>2012-05-27T12:14:24Z</time>
      </trkpt>
      <trkpt lat="45.4848" lon="5.06037">
        <ele>432.20001220703</ele>
        <time>2012-05-27T12:14:40Z</time>
      </trkpt>
      <trkpt lat="45.48475" lon="5.06063">
        <ele>428.79998779297</ele>
        <time>2012-05-27T12:14:52Z</time>
      </trkpt>
      <trkpt lat="45.48479" lon="5.06091">
        <ele>429.59997558594</ele>
        <time>2012-05-27T12:15:04Z</time>
      </trkpt>
      <trkpt lat="45.48478" lon="5.06105">
        <ele>429.40002441406</ele>
        <time>2012-05-27T12:15:11Z</time>
      </trkpt>
      <trkpt lat="45.48475" lon="5.06118">
        <ele>430.40002441406</ele>
        <time>2012-05-27T12:15:18Z</time>
      </trkpt>
      <trkpt lat="45.48472" lon="5.06145">
        <ele>426.29998779297</ele>
        <time>2012-05-27T12:15:31Z</time>
      </trkpt>
      <trkpt lat="45.48479" lon="5.06172">
        <ele>423.70001220703</ele>
        <time>2012-05-27T12:15:43Z</time>
      </trkpt>
      <trkpt lat="45.48485" lon="5.06197">
        <ele>425.59997558594</ele>
        <time>2012-05-27T12:15:56Z</time>
      </trkpt>
      <trkpt lat="45.48493" lon="5.06223">
        <ele>425.79998779297</ele>
        <time>2012-05-27T12:16:08Z</time>
      </trkpt>
      <trkpt lat="45.48496" lon="5.06236">
        <ele>425.79998779297</ele>
        <time>2012-05-27T12:16:14Z</time>
      </trkpt>
      <trkpt lat="45.48499" lon="5.06248">
        <ele>425.59997558594</ele>
        <time>2012-05-27T12:16:20Z</time>
      </trkpt>
      <trkpt lat="45.48502" lon="5.06261">
        <ele>425.20001220703</ele>
        <time>2012-05-27T12:16:26Z</time>
      </trkpt>
      <trkpt lat="45.48507" lon="5.06274">
        <ele>425.20001220703</ele>
        <time>2012-05-27T12:16:33Z</time>
      </trkpt>
      <trkpt lat="45.4851" lon="5.0629">
        <ele>424.90002441406</ele>
        <time>2012-05-27T12:16:38Z</time>
      </trkpt>
      <trkpt lat="45.48512" lon="5.06308">
        <ele>424.5</ele>
        <time>2012-05-27T12:16:41Z</time>
      </trkpt>
      <trkpt lat="45.48512" lon="5.06322">
        <ele>424.09997558594</ele>
        <time>2012-05-27T12:16:43Z</time>
      </trkpt>
      <trkpt lat="45.48512" lon="5.0635">
        <ele>423.29998779297</ele>
        <time>2012-05-27T12:16:47Z</time>
      </trkpt>
      <trkpt lat="45.48511" lon="5.06364">
        <ele>422.90002441406</ele>
        <time>2012-05-27T12:16:49Z</time>
      </trkpt>
      <trkpt lat="45.48509" lon="5.06393">
        <ele>422.40002441406</ele>
        <time>2012-05-27T12:16:54Z</time>
      </trkpt>
      <trkpt lat="45.485" lon="5.06415">
        <ele>422.5</ele>
        <time>2012-05-27T12:17:09Z</time>
      </trkpt>
      <trkpt lat="45.4848" lon="5.06421">
        <ele>423.29998779297</ele>
        <time>2012-05-27T12:17:22Z</time>
      </trkpt>
      <trkpt lat="45.48459" lon="5.06417">
        <ele>422.29998779297</ele>
        <time>2012-05-27T12:17:27Z</time>
      </trkpt>
      <trkpt lat="45.48439" lon="5.06406">
        <ele>422.5</ele>
        <time>2012-05-27T12:17:31Z</time>
      </trkpt>
      <trkpt lat="45.4842" lon="5.06392">
        <ele>422.29998779297</ele>
        <time>2012-05-27T12:17:35Z</time>
      </trkpt>
      <trkpt lat="45.48401" lon="5.06382">
        <ele>421.70001220703</ele>
        <time>2012-05-27T12:17:39Z</time>
      </trkpt>
      <trkpt lat="45.48381" lon="5.06369">
        <ele>421</ele>
        <time>2012-05-27T12:17:44Z</time>
      </trkpt>
      <trkpt lat="45.48362" lon="5.06361">
        <ele>419.79998779297</ele>
        <time>2012-05-27T12:17:58Z</time>
      </trkpt>
      <trkpt lat="45.48353" lon="5.06358">
        <ele>419.20001220703</ele>
        <time>2012-05-27T12:18:05Z</time>
      </trkpt>
      <trkpt lat="45.48343" lon="5.06353">
        <ele>419</ele>
        <time>2012-05-27T12:18:12Z</time>
      </trkpt>
      <trkpt lat="45.48335" lon="5.06349">
        <ele>419.29998779297</ele>
        <time>2012-05-27T12:18:18Z</time>
      </trkpt>
      <trkpt lat="45.48325" lon="5.06345">
        <ele>419.90002441406</ele>
        <time>2012-05-27T12:18:25Z</time>
      </trkpt>
      <trkpt lat="45.48315" lon="5.06341">
        <ele>420</ele>
        <time>2012-05-27T12:18:32Z</time>
      </trkpt>
      <trkpt lat="45.48306" lon="5.06337">
        <ele>420</ele>
        <time>2012-05-27T12:18:39Z</time>
      </trkpt>
      <trkpt lat="45.48296" lon="5.06337">
        <ele>420.20001220703</ele>
        <time>2012-05-27T12:18:47Z</time>
      </trkpt>
      <trkpt lat="45.4828" lon="5.06351">
        <ele>421.90002441406</ele>
        <time>2012-05-27T12:19:02Z</time>
      </trkpt>
      <trkpt lat="45.48271" lon="5.0636">
        <ele>422</ele>
        <time>2012-05-27T12:19:09Z</time>
      </trkpt>
      <trkpt lat="45.48264" lon="5.06368">
        <ele>422.5</ele>
        <time>2012-05-27T12:19:16Z</time>
      </trkpt>
      <trkpt lat="45.48258" lon="5.0638">
        <ele>423.20001220703</ele>
        <time>2012-05-27T12:19:23Z</time>
      </trkpt>
      <trkpt lat="45.48256" lon="5.06408">
        <ele>423.40002441406</ele>
        <time>2012-05-27T12:19:37Z</time>
      </trkpt>
      <trkpt lat="45.48257" lon="5.06421">
        <ele>423.40002441406</ele>
        <time>2012-05-27T12:19:44Z</time>
      </trkpt>
      <trkpt lat="45.48259" lon="5.06436">
        <ele>423.90002441406</ele>
        <time>2012-05-27T12:19:51Z</time>
      </trkpt>
      <trkpt lat="45.48261" lon="5.06449">
        <ele>423.90002441406</ele>
        <time>2012-05-27T12:19:58Z</time>
      </trkpt>
      <trkpt lat="45.48263" lon="5.06463">
        <ele>424.40002441406</ele>
        <time>2012-05-27T12:20:05Z</time>
      </trkpt>
      <trkpt lat="45.48262" lon="5.06476">
        <ele>423.40002441406</ele>
        <time>2012-05-27T12:20:11Z</time>
      </trkpt>
      <trkpt lat="45.48265" lon="5.06489">
        <ele>424.5</ele>
        <time>2012-05-27T12:20:17Z</time>
      </trkpt>
      <trkpt lat="45.48267" lon="5.06503">
        <ele>424.29998779297</ele>
        <time>2012-05-27T12:20:24Z</time>
      </trkpt>
      <trkpt lat="45.4827" lon="5.06516">
        <ele>424.90002441406</ele>
        <time>2012-05-27T12:20:31Z</time>
      </trkpt>
      <trkpt lat="45.48273" lon="5.06529">
        <ele>425.09997558594</ele>
        <time>2012-05-27T12:20:38Z</time>
      </trkpt>
      <trkpt lat="45.48276" lon="5.06542">
        <ele>425</ele>
        <time>2012-05-27T12:20:44Z</time>
      </trkpt>
      <trkpt lat="45.48278" lon="5.06556">
        <ele>425.20001220703</ele>
        <time>2012-05-27T12:20:51Z</time>
      </trkpt>
      <trkpt lat="45.48281" lon="5.06569">
        <ele>425.20001220703</ele>
        <time>2012-05-27T12:20:58Z</time>
      </trkpt>
      <trkpt lat="45.48283" lon="5.06583">
        <ele>425.20001220703</ele>
        <time>2012-05-27T12:21:05Z</time>
      </trkpt>
      <trkpt lat="45.48285" lon="5.06597">
        <ele>425.5</ele>
        <time>2012-05-27T12:21:12Z</time>
      </trkpt>
      <trkpt lat="45.48285" lon="5.06625">
        <ele>426.5</ele>
        <time>2012-05-27T12:21:26Z</time>
      </trkpt>
      <trkpt lat="45.48286" lon="5.06638">
        <ele>427.09997558594</ele>
        <time>2012-05-27T12:21:31Z</time>
      </trkpt>
      <trkpt lat="45.48287" lon="5.06651">
        <ele>427.09997558594</ele>
        <time>2012-05-27T12:21:34Z</time>
      </trkpt>
      <trkpt lat="45.48289" lon="5.06665">
        <ele>427.5</ele>
        <time>2012-05-27T12:21:38Z</time>
      </trkpt>
      <trkpt lat="45.48294" lon="5.06692">
        <ele>428.09997558594</ele>
        <time>2012-05-27T12:21:53Z</time>
      </trkpt>
      <trkpt lat="45.48297" lon="5.06704">
        <ele>428</ele>
        <time>2012-05-27T12:22:00Z</time>
      </trkpt>
      <trkpt lat="45.48287" lon="5.06718">
        <ele>426.20001220703</ele>
        <time>2012-05-27T12:22:13Z</time>
      </trkpt>
      <trkpt lat="45.48266" lon="5.06716">
        <ele>426.09997558594</ele>
        <time>2012-05-27T12:22:19Z</time>
      </trkpt>
      <trkpt lat="45.48257" lon="5.06715">
        <ele>425.90002441406</ele>
        <time>2012-05-27T12:22:24Z</time>
      </trkpt>
      <trkpt lat="45.48237" lon="5.06714">
        <ele>426.20001220703</ele>
        <time>2012-05-27T12:22:38Z</time>
      </trkpt>
      <trkpt lat="45.48229" lon="5.06724">
        <ele>427.40002441406</ele>
        <time>2012-05-27T12:22:46Z</time>
      </trkpt>
      <trkpt lat="45.48221" lon="5.06749">
        <ele>428.59997558594</ele>
        <time>2012-05-27T12:22:53Z</time>
      </trkpt>
      <trkpt lat="45.48212" lon="5.06783">
        <ele>428.90002441406</ele>
        <time>2012-05-27T12:22:59Z</time>
      </trkpt>
      <trkpt lat="45.48206" lon="5.06817">
        <ele>429</ele>
        <time>2012-05-27T12:23:05Z</time>
      </trkpt>
      <trkpt lat="45.48204" lon="5.06845">
        <ele>428.79998779297</ele>
        <time>2012-05-27T12:23:17Z</time>
      </trkpt>
      <trkpt lat="45.48201" lon="5.06873">
        <ele>431.09997558594</ele>
        <time>2012-05-27T12:23:31Z</time>
      </trkpt>
      <trkpt lat="45.48198" lon="5.06886">
        <ele>432.5</ele>
        <time>2012-05-27T12:23:38Z</time>
      </trkpt>
      <trkpt lat="45.48193" lon="5.06914">
        <ele>435.09997558594</ele>
        <time>2012-05-27T12:23:52Z</time>
      </trkpt>
      <trkpt lat="45.4819" lon="5.06927">
        <ele>435.70001220703</ele>
        <time>2012-05-27T12:23:59Z</time>
      </trkpt>
      <trkpt lat="45.48187" lon="5.0694">
        <ele>436.5</ele>
        <time>2012-05-27T12:24:06Z</time>
      </trkpt>
      <trkpt lat="45.48183" lon="5.06953">
        <ele>437.5</ele>
        <time>2012-05-27T12:24:13Z</time>
      </trkpt>
      <trkpt lat="45.4818" lon="5.06966">
        <ele>438.20001220703</ele>
        <time>2012-05-27T12:24:20Z</time>
      </trkpt>
      <trkpt lat="45.48179" lon="5.0698">
        <ele>438.90002441406</ele>
        <time>2012-05-27T12:24:28Z</time>
      </trkpt>
      <trkpt lat="45.48179" lon="5.06994">
        <ele>439.59997558594</ele>
        <time>2012-05-27T12:24:36Z</time>
      </trkpt>
      <trkpt lat="45.48183" lon="5.07022">
        <ele>441.29998779297</ele>
        <time>2012-05-27T12:24:51Z</time>
      </trkpt>
      <trkpt lat="45.48185" lon="5.0705">
        <ele>443.59997558594</ele>
        <time>2012-05-27T12:25:00Z</time>
      </trkpt>
      <trkpt lat="45.48182" lon="5.0708">
        <ele>444.90002441406</ele>
        <time>2012-05-27T12:25:05Z</time>
      </trkpt>
      <trkpt lat="45.48175" lon="5.07109">
        <ele>446</ele>
        <time>2012-05-27T12:25:09Z</time>
      </trkpt>
      <trkpt lat="45.48167" lon="5.07146">
        <ele>446.70001220703</ele>
        <time>2012-05-27T12:25:13Z</time>
      </trkpt>
      <trkpt lat="45.48163" lon="5.07167">
        <ele>447.29998779297</ele>
        <time>2012-05-27T12:25:15Z</time>
      </trkpt>
      <trkpt lat="45.48159" lon="5.07188">
        <ele>448</ele>
        <time>2012-05-27T12:25:17Z</time>
      </trkpt>
      <trkpt lat="45.48153" lon="5.07222">
        <ele>449.79998779297</ele>
        <time>2012-05-27T12:25:21Z</time>
      </trkpt>
      <trkpt lat="45.48149" lon="5.07249">
        <ele>453.5</ele>
        <time>2012-05-27T12:25:36Z</time>
      </trkpt>
      <trkpt lat="45.48147" lon="5.07263">
        <ele>453.70001220703</ele>
        <time>2012-05-27T12:25:48Z</time>
      </trkpt>
      <trkpt lat="45.48148" lon="5.07277">
        <ele>455.09997558594</ele>
        <time>2012-05-27T12:25:56Z</time>
      </trkpt>
      <trkpt lat="45.48147" lon="5.07291">
        <ele>454.79998779297</ele>
        <time>2012-05-27T12:26:53Z</time>
      </trkpt>
      <trkpt lat="45.48143" lon="5.07317">
        <ele>455.40002441406</ele>
        <time>2012-05-27T12:27:07Z</time>
      </trkpt>
      <trkpt lat="45.48141" lon="5.07332">
        <ele>455.20001220703</ele>
        <time>2012-05-27T12:27:32Z</time>
      </trkpt>
      <trkpt lat="45.48136" lon="5.0736">
        <ele>456</ele>
        <time>2012-05-27T12:27:47Z</time>
      </trkpt>
      <trkpt lat="45.48132" lon="5.07386">
        <ele>456.09997558594</ele>
        <time>2012-05-27T12:28:01Z</time>
      </trkpt>
      <trkpt lat="45.48129" lon="5.074">
        <ele>456.5</ele>
        <time>2012-05-27T12:28:08Z</time>
      </trkpt>
      <trkpt lat="45.48123" lon="5.07426">
        <ele>458.09997558594</ele>
        <time>2012-05-27T12:28:22Z</time>
      </trkpt>
      <trkpt lat="45.48118" lon="5.07437">
        <ele>459.09997558594</ele>
        <time>2012-05-27T12:28:28Z</time>
      </trkpt>
      <trkpt lat="45.48112" lon="5.07447">
        <ele>459.20001220703</ele>
        <time>2012-05-27T12:28:35Z</time>
      </trkpt>
      <trkpt lat="45.48105" lon="5.07458">
        <ele>459.09997558594</ele>
        <time>2012-05-27T12:28:42Z</time>
      </trkpt>
      <trkpt lat="45.48091" lon="5.07478">
        <ele>457.90002441406</ele>
        <time>2012-05-27T12:28:56Z</time>
      </trkpt>
      <trkpt lat="45.48086" lon="5.0749">
        <ele>456.09997558594</ele>
        <time>2012-05-27T12:29:03Z</time>
      </trkpt>
      <trkpt lat="45.48082" lon="5.07503">
        <ele>455.40002441406</ele>
        <time>2012-05-27T12:29:11Z</time>
      </trkpt>
      <trkpt lat="45.48079" lon="5.07529">
        <ele>452.90002441406</ele>
        <time>2012-05-27T12:29:25Z</time>
      </trkpt>
      <trkpt lat="45.48079" lon="5.07543">
        <ele>452.5</ele>
        <time>2012-05-27T12:29:32Z</time>
      </trkpt>
      <trkpt lat="45.48079" lon="5.07557">
        <ele>452.59997558594</ele>
        <time>2012-05-27T12:29:39Z</time>
      </trkpt>
      <trkpt lat="45.48078" lon="5.0757">
        <ele>451.20001220703</ele>
        <time>2012-05-27T12:29:46Z</time>
      </trkpt>
      <trkpt lat="45.48078" lon="5.07583">
        <ele>450.90002441406</ele>
        <time>2012-05-27T12:29:53Z</time>
      </trkpt>
      <trkpt lat="45.48078" lon="5.07597">
        <ele>451</ele>
        <time>2012-05-27T12:30:00Z</time>
      </trkpt>
      <trkpt lat="45.48079" lon="5.07611">
        <ele>450.09997558594</ele>
        <time>2012-05-27T12:30:07Z</time>
      </trkpt>
      <trkpt lat="45.48087" lon="5.07616">
        <ele>448.79998779297</ele>
        <time>2012-05-27T12:30:14Z</time>
      </trkpt>
      <trkpt lat="45.48097" lon="5.07616">
        <ele>448</ele>
        <time>2012-05-27T12:30:20Z</time>
      </trkpt>
      <trkpt lat="45.48106" lon="5.07615">
        <ele>447.20001220703</ele>
        <time>2012-05-27T12:30:26Z</time>
      </trkpt>
      <trkpt lat="45.48115" lon="5.07615">
        <ele>446.79998779297</ele>
        <time>2012-05-27T12:30:33Z</time>
      </trkpt>
      <trkpt lat="45.48134" lon="5.07616">
        <ele>447.09997558594</ele>
        <time>2012-05-27T12:30:47Z</time>
      </trkpt>
      <trkpt lat="45.48154" lon="5.07614">
        <ele>447.09997558594</ele>
        <time>2012-05-27T12:31:01Z</time>
      </trkpt>
      <trkpt lat="45.48163" lon="5.07612">
        <ele>447.59997558594</ele>
        <time>2012-05-27T12:31:07Z</time>
      </trkpt>
      <trkpt lat="45.48174" lon="5.07612">
        <ele>448.09997558594</ele>
        <time>2012-05-27T12:31:14Z</time>
      </trkpt>
      <trkpt lat="45.48193" lon="5.07612">
        <ele>447.59997558594</ele>
        <time>2012-05-27T12:31:27Z</time>
      </trkpt>
      <trkpt lat="45.48212" lon="5.07613">
        <ele>449</ele>
        <time>2012-05-27T12:31:40Z</time>
      </trkpt>
      <trkpt lat="45.48231" lon="5.07609">
        <ele>448.40002441406</ele>
        <time>2012-05-27T12:31:53Z</time>
      </trkpt>
      <trkpt lat="45.4825" lon="5.07602">
        <ele>448.40002441406</ele>
        <time>2012-05-27T12:32:05Z</time>
      </trkpt>
      <trkpt lat="45.48267" lon="5.07593">
        <ele>449</ele>
        <time>2012-05-27T12:32:20Z</time>
      </trkpt>
      <trkpt lat="45.48283" lon="5.07577">
        <ele>449.5</ele>
        <time>2012-05-27T12:32:32Z</time>
      </trkpt>
      <trkpt lat="45.483" lon="5.07561">
        <ele>451</ele>
        <time>2012-05-27T12:32:45Z</time>
      </trkpt>
      <trkpt lat="45.48316" lon="5.07546">
        <ele>450.59997558594</ele>
        <time>2012-05-27T12:32:58Z</time>
      </trkpt>
      <trkpt lat="45.48332" lon="5.07529">
        <ele>449.70001220703</ele>
        <time>2012-05-27T12:33:12Z</time>
      </trkpt>
      <trkpt lat="45.48348" lon="5.07512">
        <ele>449.70001220703</ele>
        <time>2012-05-27T12:33:27Z</time>
      </trkpt>
      <trkpt lat="45.48356" lon="5.07505">
        <ele>449.5</ele>
        <time>2012-05-27T12:33:33Z</time>
      </trkpt>
      <trkpt lat="45.48373" lon="5.07488">
        <ele>448.5</ele>
        <time>2012-05-27T12:33:39Z</time>
      </trkpt>
      <trkpt lat="45.48391" lon="5.07475">
        <ele>449.40002441406</ele>
        <time>2012-05-27T12:33:49Z</time>
      </trkpt>
      <trkpt lat="45.484" lon="5.07469">
        <ele>449.20001220703</ele>
        <time>2012-05-27T12:33:55Z</time>
      </trkpt>
      <trkpt lat="45.4841" lon="5.07464">
        <ele>449.20001220703</ele>
        <time>2012-05-27T12:34:02Z</time>
      </trkpt>
      <trkpt lat="45.48419" lon="5.07459">
        <ele>448.59997558594</ele>
        <time>2012-05-27T12:34:09Z</time>
      </trkpt>
      <trkpt lat="45.48439" lon="5.07453">
        <ele>447.59997558594</ele>
        <time>2012-05-27T12:34:23Z</time>
      </trkpt>
      <trkpt lat="45.48459" lon="5.07454">
        <ele>445.59997558594</ele>
        <time>2012-05-27T12:34:36Z</time>
      </trkpt>
      <trkpt lat="45.48476" lon="5.07463">
        <ele>443.90002441406</ele>
        <time>2012-05-27T12:34:49Z</time>
      </trkpt>
      <trkpt lat="45.48486" lon="5.07468">
        <ele>443.20001220703</ele>
        <time>2012-05-27T12:34:56Z</time>
      </trkpt>
      <trkpt lat="45.48495" lon="5.07472">
        <ele>442.40002441406</ele>
        <time>2012-05-27T12:35:03Z</time>
      </trkpt>
      <trkpt lat="45.48504" lon="5.07478">
        <ele>441.90002441406</ele>
        <time>2012-05-27T12:35:10Z</time>
      </trkpt>
      <trkpt lat="45.48512" lon="5.07483">
        <ele>441.29998779297</ele>
        <time>2012-05-27T12:35:16Z</time>
      </trkpt>
      <trkpt lat="45.48531" lon="5.07489">
        <ele>440.90002441406</ele>
        <time>2012-05-27T12:35:29Z</time>
      </trkpt>
      <trkpt lat="45.48551" lon="5.07488">
        <ele>439.29998779297</ele>
        <time>2012-05-27T12:35:41Z</time>
      </trkpt>
      <trkpt lat="45.48579" lon="5.0749">
        <ele>438.29998779297</ele>
        <time>2012-05-27T12:35:59Z</time>
      </trkpt>
      <trkpt lat="45.48599" lon="5.07522">
        <ele>440.29998779297</ele>
        <time>2012-05-27T12:36:18Z</time>
      </trkpt>
      <trkpt lat="45.48608" lon="5.07527">
        <ele>439.29998779297</ele>
        <time>2012-05-27T12:39:28Z</time>
      </trkpt>
      <trkpt lat="45.48617" lon="5.07551">
        <ele>438.29998779297</ele>
        <time>2012-05-27T12:39:54Z</time>
      </trkpt>
      <trkpt lat="45.48631" lon="5.0757">
        <ele>438</ele>
        <time>2012-05-27T12:40:08Z</time>
      </trkpt>
      <trkpt lat="45.4864" lon="5.07593">
        <ele>444.20001220703</ele>
        <time>2012-05-27T12:41:23Z</time>
      </trkpt>
      <trkpt lat="45.48641" lon="5.0762">
        <ele>444.70001220703</ele>
        <time>2012-05-27T12:41:39Z</time>
      </trkpt>
      <trkpt lat="45.48643" lon="5.07646">
        <ele>446.20001220703</ele>
        <time>2012-05-27T12:41:55Z</time>
      </trkpt>
      <trkpt lat="45.48643" lon="5.07673">
        <ele>447.90002441406</ele>
        <time>2012-05-27T12:42:11Z</time>
      </trkpt>
      <trkpt lat="45.48641" lon="5.07699">
        <ele>452.29998779297</ele>
        <time>2012-05-27T12:42:25Z</time>
      </trkpt>
      <trkpt lat="45.48643" lon="5.07726">
        <ele>454.59997558594</ele>
        <time>2012-05-27T12:42:39Z</time>
      </trkpt>
      <trkpt lat="45.48643" lon="5.07741">
        <ele>459</ele>
        <time>2012-05-27T12:42:46Z</time>
      </trkpt>
      <trkpt lat="45.48639" lon="5.07767">
        <ele>458.70001220703</ele>
        <time>2012-05-27T12:43:05Z</time>
      </trkpt>
      <trkpt lat="45.48624" lon="5.07785">
        <ele>460.40002441406</ele>
        <time>2012-05-27T12:43:21Z</time>
      </trkpt>
      <trkpt lat="45.48612" lon="5.07807">
        <ele>462.40002441406</ele>
        <time>2012-05-27T12:43:39Z</time>
      </trkpt>
      <trkpt lat="45.48597" lon="5.07825">
        <ele>463</ele>
        <time>2012-05-27T12:43:54Z</time>
      </trkpt>
      <trkpt lat="45.48582" lon="5.07842">
        <ele>465.79998779297</ele>
        <time>2012-05-27T12:44:09Z</time>
      </trkpt>
      <trkpt lat="45.4857" lon="5.07863">
        <ele>465.79998779297</ele>
        <time>2012-05-27T12:44:26Z</time>
      </trkpt>
      <trkpt lat="45.48565" lon="5.07874">
        <ele>466.59997558594</ele>
        <time>2012-05-27T12:44:32Z</time>
      </trkpt>
      <trkpt lat="45.48559" lon="5.07886">
        <ele>466.40002441406</ele>
        <time>2012-05-27T12:44:38Z</time>
      </trkpt>
      <trkpt lat="45.48553" lon="5.07898">
        <ele>467.40002441406</ele>
        <time>2012-05-27T12:44:44Z</time>
      </trkpt>
      <trkpt lat="45.48548" lon="5.0791">
        <ele>468.20001220703</ele>
        <time>2012-05-27T12:44:50Z</time>
      </trkpt>
      <trkpt lat="45.48544" lon="5.07922">
        <ele>468.79998779297</ele>
        <time>2012-05-27T12:44:56Z</time>
      </trkpt>
      <trkpt lat="45.48534" lon="5.07947">
        <ele>470.59997558594</ele>
        <time>2012-05-27T12:45:10Z</time>
      </trkpt>
      <trkpt lat="45.48526" lon="5.0797">
        <ele>472.20001220703</ele>
        <time>2012-05-27T12:45:23Z</time>
      </trkpt>
      <trkpt lat="45.48516" lon="5.07994">
        <ele>474</ele>
        <time>2012-05-27T12:45:34Z</time>
      </trkpt>
      <trkpt lat="45.48514" lon="5.0802">
        <ele>475.59997558594</ele>
        <time>2012-05-27T12:45:49Z</time>
      </trkpt>
      <trkpt lat="45.48512" lon="5.07993">
        <ele>479.20001220703</ele>
        <time>2012-05-27T12:48:44Z</time>
      </trkpt>
      <trkpt lat="45.48521" lon="5.07963">
        <ele>478.59997558594</ele>
        <time>2012-05-27T12:48:51Z</time>
      </trkpt>
      <trkpt lat="45.48532" lon="5.07932">
        <ele>477.29998779297</ele>
        <time>2012-05-27T12:48:57Z</time>
      </trkpt>
      <trkpt lat="45.48547" lon="5.0789">
        <ele>476.40002441406</ele>
        <time>2012-05-27T12:49:04Z</time>
      </trkpt>
      <trkpt lat="45.48559" lon="5.07863">
        <ele>474.70001220703</ele>
        <time>2012-05-27T12:49:09Z</time>
      </trkpt>
      <trkpt lat="45.4855" lon="5.07866">
        <ele>472.09997558594</ele>
        <time>2012-05-27T12:49:22Z</time>
      </trkpt>
      <trkpt lat="45.48532" lon="5.07877">
        <ele>473</ele>
        <time>2012-05-27T12:49:35Z</time>
      </trkpt>
      <trkpt lat="45.48514" lon="5.07888">
        <ele>475.70001220703</ele>
        <time>2012-05-27T12:49:50Z</time>
      </trkpt>
      <trkpt lat="45.48506" lon="5.07894">
        <ele>476.90002441406</ele>
        <time>2012-05-27T12:49:58Z</time>
      </trkpt>
      <trkpt lat="45.48498" lon="5.079">
        <ele>476.79998779297</ele>
        <time>2012-05-27T12:50:06Z</time>
      </trkpt>
      <trkpt lat="45.48483" lon="5.07916">
        <ele>478.90002441406</ele>
        <time>2012-05-27T12:50:21Z</time>
      </trkpt>
      <trkpt lat="45.4847" lon="5.07935">
        <ele>482.90002441406</ele>
        <time>2012-05-27T12:50:36Z</time>
      </trkpt>
      <trkpt lat="45.48448" lon="5.07961">
        <ele>487.20001220703</ele>
        <time>2012-05-27T12:51:03Z</time>
      </trkpt>
      <trkpt lat="45.48437" lon="5.07982">
        <ele>486.29998779297</ele>
        <time>2012-05-27T12:51:19Z</time>
      </trkpt>
      <trkpt lat="45.48426" lon="5.08004">
        <ele>486</ele>
        <time>2012-05-27T12:51:34Z</time>
      </trkpt>
      <trkpt lat="45.48408" lon="5.08038">
        <ele>490.79998779297</ele>
        <time>2012-05-27T12:51:55Z</time>
      </trkpt>
      <trkpt lat="45.48402" lon="5.08065">
        <ele>492.59997558594</ele>
        <time>2012-05-27T12:52:06Z</time>
      </trkpt>
      <trkpt lat="45.48392" lon="5.08089">
        <ele>491.20001220703</ele>
        <time>2012-05-27T12:52:21Z</time>
      </trkpt>
      <trkpt lat="45.48382" lon="5.08128">
        <ele>495.29998779297</ele>
        <time>2012-05-27T12:52:42Z</time>
      </trkpt>
      <trkpt lat="45.48376" lon="5.08155">
        <ele>496.70001220703</ele>
        <time>2012-05-27T12:53:09Z</time>
      </trkpt>
      <trkpt lat="45.48378" lon="5.08183">
        <ele>497.5</ele>
        <time>2012-05-27T12:53:23Z</time>
      </trkpt>
      <trkpt lat="45.48381" lon="5.08224">
        <ele>500.90002441406</ele>
        <time>2012-05-27T12:53:46Z</time>
      </trkpt>
      <trkpt lat="45.4838" lon="5.08265">
        <ele>504.20001220703</ele>
        <time>2012-05-27T12:54:07Z</time>
      </trkpt>
      <trkpt lat="45.48384" lon="5.08291">
        <ele>504.5</ele>
        <time>2012-05-27T12:54:21Z</time>
      </trkpt>
      <trkpt lat="45.48381" lon="5.08319">
        <ele>505</ele>
        <time>2012-05-27T12:54:36Z</time>
      </trkpt>
      <trkpt lat="45.48383" lon="5.0836">
        <ele>507.90002441406</ele>
        <time>2012-05-27T12:54:58Z</time>
      </trkpt>
      <trkpt lat="45.48391" lon="5.08398">
        <ele>510</ele>
        <time>2012-05-27T12:55:17Z</time>
      </trkpt>
      <trkpt lat="45.48397" lon="5.08438">
        <ele>513.5</ele>
        <time>2012-05-27T12:55:36Z</time>
      </trkpt>
      <trkpt lat="45.484" lon="5.08465">
        <ele>510.70001220703</ele>
        <time>2012-05-27T12:55:53Z</time>
      </trkpt>
      <trkpt lat="45.48399" lon="5.08491">
        <ele>511.29998779297</ele>
        <time>2012-05-27T12:56:06Z</time>
      </trkpt>
      <trkpt lat="45.48398" lon="5.08531">
        <ele>514.09997558594</ele>
        <time>2012-05-27T12:56:25Z</time>
      </trkpt>
      <trkpt lat="45.48412" lon="5.08584">
        <ele>512.20001220703</ele>
        <time>2012-05-27T12:56:55Z</time>
      </trkpt>
      <trkpt lat="45.48423" lon="5.08655">
        <ele>510.90002441406</ele>
        <time>2012-05-27T12:57:21Z</time>
      </trkpt>
      <trkpt lat="45.4843" lon="5.08694">
        <ele>512.79998779297</ele>
        <time>2012-05-27T12:57:35Z</time>
      </trkpt>
      <trkpt lat="45.48445" lon="5.08731">
        <ele>515.29998779297</ele>
        <time>2012-05-27T12:57:53Z</time>
      </trkpt>
      <trkpt lat="45.48452" lon="5.08757">
        <ele>515.20001220703</ele>
        <time>2012-05-27T12:58:08Z</time>
      </trkpt>
      <trkpt lat="45.48463" lon="5.08794">
        <ele>517</ele>
        <time>2012-05-27T12:58:28Z</time>
      </trkpt>
      <trkpt lat="45.48468" lon="5.08821">
        <ele>516.90002441406</ele>
        <time>2012-05-27T12:58:44Z</time>
      </trkpt>
      <trkpt lat="45.48491" lon="5.08847">
        <ele>517.79998779297</ele>
        <time>2012-05-27T12:58:58Z</time>
      </trkpt>
      <trkpt lat="45.4852" lon="5.08869">
        <ele>518.29998779297</ele>
        <time>2012-05-27T12:59:08Z</time>
      </trkpt>
      <trkpt lat="45.48549" lon="5.08891">
        <ele>518.90002441406</ele>
        <time>2012-05-27T12:59:16Z</time>
      </trkpt>
      <trkpt lat="45.48578" lon="5.08909">
        <ele>520.09997558594</ele>
        <time>2012-05-27T12:59:28Z</time>
      </trkpt>
      <trkpt lat="45.48604" lon="5.08922">
        <ele>521</ele>
        <time>2012-05-27T12:59:59Z</time>
      </trkpt>
      <trkpt lat="45.48605" lon="5.08964">
        <ele>520.70001220703</ele>
        <time>2012-05-27T13:00:22Z</time>
      </trkpt>
      <trkpt lat="45.48606" lon="5.08991">
        <ele>522.29998779297</ele>
        <time>2012-05-27T13:00:37Z</time>
      </trkpt>
      <trkpt lat="45.48605" lon="5.09018">
        <ele>521.5</ele>
        <time>2012-05-27T13:00:52Z</time>
      </trkpt>
      <trkpt lat="45.48603" lon="5.09045">
        <ele>520.29998779297</ele>
        <time>2012-05-27T13:01:08Z</time>
      </trkpt>
      <trkpt lat="45.48601" lon="5.09071">
        <ele>518.90002441406</ele>
        <time>2012-05-27T13:01:23Z</time>
      </trkpt>
      <trkpt lat="45.48597" lon="5.09097">
        <ele>517.20001220703</ele>
        <time>2012-05-27T13:01:36Z</time>
      </trkpt>
      <trkpt lat="45.48586" lon="5.09134">
        <ele>518.09997558594</ele>
        <time>2012-05-27T13:02:03Z</time>
      </trkpt>
      <trkpt lat="45.48574" lon="5.09172">
        <ele>520</ele>
        <time>2012-05-27T13:02:27Z</time>
      </trkpt>
      <trkpt lat="45.48569" lon="5.09212">
        <ele>517.59997558594</ele>
        <time>2012-05-27T13:02:52Z</time>
      </trkpt>
      <trkpt lat="45.48564" lon="5.0924">
        <ele>517</ele>
        <time>2012-05-27T13:03:05Z</time>
      </trkpt>
      <trkpt lat="45.48561" lon="5.09267">
        <ele>516.90002441406</ele>
        <time>2012-05-27T13:03:16Z</time>
      </trkpt>
      <trkpt lat="45.48562" lon="5.09294">
        <ele>516.70001220703</ele>
        <time>2012-05-27T13:03:28Z</time>
      </trkpt>
      <trkpt lat="45.48563" lon="5.09322">
        <ele>517.79998779297</ele>
        <time>2012-05-27T13:03:41Z</time>
      </trkpt>
      <trkpt lat="45.48563" lon="5.09349">
        <ele>518.5</ele>
        <time>2012-05-27T13:03:55Z</time>
      </trkpt>
      <trkpt lat="45.48566" lon="5.09376">
        <ele>519</ele>
        <time>2012-05-27T13:04:09Z</time>
      </trkpt>
      <trkpt lat="45.4857" lon="5.09402">
        <ele>519.59997558594</ele>
        <time>2012-05-27T13:04:22Z</time>
      </trkpt>
      <trkpt lat="45.48572" lon="5.09416">
        <ele>518.70001220703</ele>
        <time>2012-05-27T13:04:29Z</time>
      </trkpt>
      <trkpt lat="45.48573" lon="5.09429">
        <ele>518.20001220703</ele>
        <time>2012-05-27T13:04:35Z</time>
      </trkpt>
      <trkpt lat="45.48574" lon="5.09443">
        <ele>517.90002441406</ele>
        <time>2012-05-27T13:04:41Z</time>
      </trkpt>
      <trkpt lat="45.48574" lon="5.09476">
        <ele>517.79998779297</ele>
        <time>2012-05-27T13:04:49Z</time>
      </trkpt>
      <trkpt lat="45.48574" lon="5.09495">
        <ele>518.09997558594</ele>
        <time>2012-05-27T13:04:52Z</time>
      </trkpt>
      <trkpt lat="45.48574" lon="5.09522">
        <ele>517.70001220703</ele>
        <time>2012-05-27T13:04:56Z</time>
      </trkpt>
      <trkpt lat="45.48574" lon="5.09555">
        <ele>518.20001220703</ele>
        <time>2012-05-27T13:05:01Z</time>
      </trkpt>
      <trkpt lat="45.48576" lon="5.09581">
        <ele>518.09997558594</ele>
        <time>2012-05-27T13:05:05Z</time>
      </trkpt>
      <trkpt lat="45.48576" lon="5.09607">
        <ele>517.90002441406</ele>
        <time>2012-05-27T13:05:09Z</time>
      </trkpt>
      <trkpt lat="45.48577" lon="5.09639">
        <ele>517.40002441406</ele>
        <time>2012-05-27T13:05:15Z</time>
      </trkpt>
      <trkpt lat="45.48578" lon="5.09652">
        <ele>517.09997558594</ele>
        <time>2012-05-27T13:05:20Z</time>
      </trkpt>
      <trkpt lat="45.48579" lon="5.09679">
        <ele>514.79998779297</ele>
        <time>2012-05-27T13:05:35Z</time>
      </trkpt>
      <trkpt lat="45.4858" lon="5.09693">
        <ele>513.90002441406</ele>
        <time>2012-05-27T13:05:42Z</time>
      </trkpt>
      <trkpt lat="45.4858" lon="5.09707">
        <ele>512.90002441406</ele>
        <time>2012-05-27T13:05:49Z</time>
      </trkpt>
      <trkpt lat="45.48582" lon="5.09736">
        <ele>511.20001220703</ele>
        <time>2012-05-27T13:06:03Z</time>
      </trkpt>
      <trkpt lat="45.48582" lon="5.0975">
        <ele>509.40002441406</ele>
        <time>2012-05-27T13:06:10Z</time>
      </trkpt>
      <trkpt lat="45.48584" lon="5.09764">
        <ele>508.29998779297</ele>
        <time>2012-05-27T13:06:17Z</time>
      </trkpt>
      <trkpt lat="45.48586" lon="5.09778">
        <ele>507.59997558594</ele>
        <time>2012-05-27T13:06:26Z</time>
      </trkpt>
      <trkpt lat="45.48588" lon="5.09793">
        <ele>506.90002441406</ele>
        <time>2012-05-27T13:06:33Z</time>
      </trkpt>
      <trkpt lat="45.48594" lon="5.09819">
        <ele>504.29998779297</ele>
        <time>2012-05-27T13:06:46Z</time>
      </trkpt>
      <trkpt lat="45.48596" lon="5.09832">
        <ele>503.59997558594</ele>
        <time>2012-05-27T13:06:52Z</time>
      </trkpt>
      <trkpt lat="45.48602" lon="5.09859">
        <ele>501.90002441406</ele>
        <time>2012-05-27T13:07:04Z</time>
      </trkpt>
      <trkpt lat="45.48609" lon="5.0989">
        <ele>502.20001220703</ele>
        <time>2012-05-27T13:07:10Z</time>
      </trkpt>
      <trkpt lat="45.48616" lon="5.09917">
        <ele>502</ele>
        <time>2012-05-27T13:07:18Z</time>
      </trkpt>
      <trkpt lat="45.48621" lon="5.09944">
        <ele>501.40002441406</ele>
        <time>2012-05-27T13:07:32Z</time>
      </trkpt>
      <trkpt lat="45.48634" lon="5.09964">
        <ele>500.5</ele>
        <time>2012-05-27T13:07:48Z</time>
      </trkpt>
      <trkpt lat="45.48651" lon="5.09978">
        <ele>499.09997558594</ele>
        <time>2012-05-27T13:08:02Z</time>
      </trkpt>
      <trkpt lat="45.48668" lon="5.09991">
        <ele>498.09997558594</ele>
        <time>2012-05-27T13:08:16Z</time>
      </trkpt>
      <trkpt lat="45.48676" lon="5.09997">
        <ele>498</ele>
        <time>2012-05-27T13:08:22Z</time>
      </trkpt>
      <trkpt lat="45.48692" lon="5.10009">
        <ele>500.09997558594</ele>
        <time>2012-05-27T13:13:17Z</time>
      </trkpt>
      <trkpt lat="45.48714" lon="5.10036">
        <ele>494.90002441406</ele>
        <time>2012-05-27T13:14:20Z</time>
      </trkpt>
      <trkpt lat="45.48726" lon="5.10056">
        <ele>493.40002441406</ele>
        <time>2012-05-27T13:14:36Z</time>
      </trkpt>
      <trkpt lat="45.48737" lon="5.10079">
        <ele>491.09997558594</ele>
        <time>2012-05-27T13:14:50Z</time>
      </trkpt>
      <trkpt lat="45.48742" lon="5.10091">
        <ele>489.59997558594</ele>
        <time>2012-05-27T13:14:58Z</time>
      </trkpt>
      <trkpt lat="45.48748" lon="5.10102">
        <ele>487.90002441406</ele>
        <time>2012-05-27T13:15:06Z</time>
      </trkpt>
      <trkpt lat="45.48754" lon="5.10112">
        <ele>485.70001220703</ele>
        <time>2012-05-27T13:15:14Z</time>
      </trkpt>
      <trkpt lat="45.48763" lon="5.10117">
        <ele>483.09997558594</ele>
        <time>2012-05-27T13:15:23Z</time>
      </trkpt>
      <trkpt lat="45.48773" lon="5.10114">
        <ele>481.29998779297</ele>
        <time>2012-05-27T13:15:33Z</time>
      </trkpt>
      <trkpt lat="45.48791" lon="5.10107">
        <ele>478.40002441406</ele>
        <time>2012-05-27T13:15:54Z</time>
      </trkpt>
      <trkpt lat="45.48809" lon="5.10103">
        <ele>475.5</ele>
        <time>2012-05-27T13:16:08Z</time>
      </trkpt>
      <trkpt lat="45.48828" lon="5.10108">
        <ele>472.5</ele>
        <time>2012-05-27T13:16:24Z</time>
      </trkpt>
      <trkpt lat="45.48844" lon="5.10121">
        <ele>469.59997558594</ele>
        <time>2012-05-27T13:16:49Z</time>
      </trkpt>
      <trkpt lat="45.48844" lon="5.10147">
        <ele>467.5</ele>
        <time>2012-05-27T13:17:04Z</time>
      </trkpt>
      <trkpt lat="45.48843" lon="5.1016">
        <ele>467</ele>
        <time>2012-05-27T13:17:12Z</time>
      </trkpt>
      <trkpt lat="45.4884" lon="5.10188">
        <ele>467</ele>
        <time>2012-05-27T13:17:28Z</time>
      </trkpt>
      <trkpt lat="45.48839" lon="5.10202">
        <ele>466.90002441406</ele>
        <time>2012-05-27T13:17:36Z</time>
      </trkpt>
      <trkpt lat="45.48839" lon="5.10215">
        <ele>466.29998779297</ele>
        <time>2012-05-27T13:17:43Z</time>
      </trkpt>
      <trkpt lat="45.48836" lon="5.10229">
        <ele>465.40002441406</ele>
        <time>2012-05-27T13:17:51Z</time>
      </trkpt>
      <trkpt lat="45.48823" lon="5.10248">
        <ele>462.79998779297</ele>
        <time>2012-05-27T13:18:12Z</time>
      </trkpt>
      <trkpt lat="45.48814" lon="5.10256">
        <ele>462.20001220703</ele>
        <time>2012-05-27T13:18:19Z</time>
      </trkpt>
      <trkpt lat="45.48805" lon="5.10265">
        <ele>462.20001220703</ele>
        <time>2012-05-27T13:18:25Z</time>
      </trkpt>
      <trkpt lat="45.48798" lon="5.10273">
        <ele>461.79998779297</ele>
        <time>2012-05-27T13:18:31Z</time>
      </trkpt>
      <trkpt lat="45.48797" lon="5.10287">
        <ele>461.59997558594</ele>
        <time>2012-05-27T13:18:38Z</time>
      </trkpt>
      <trkpt lat="45.48804" lon="5.10312">
        <ele>459.70001220703</ele>
        <time>2012-05-27T13:18:50Z</time>
      </trkpt>
      <trkpt lat="45.48814" lon="5.10336">
        <ele>460.09997558594</ele>
        <time>2012-05-27T13:19:53Z</time>
      </trkpt>
      <trkpt lat="45.48822" lon="5.10342">
        <ele>459.90002441406</ele>
        <time>2012-05-27T13:20:00Z</time>
      </trkpt>
      <trkpt lat="45.4884" lon="5.10354">
        <ele>461.90002441406</ele>
        <time>2012-05-27T13:20:14Z</time>
      </trkpt>
      <trkpt lat="45.4886" lon="5.10365">
        <ele>461</ele>
        <time>2012-05-27T13:20:26Z</time>
      </trkpt>
      <trkpt lat="45.48884" lon="5.10378">
        <ele>462.29998779297</ele>
        <time>2012-05-27T13:20:32Z</time>
      </trkpt>
      <trkpt lat="45.48903" lon="5.10388">
        <ele>462.79998779297</ele>
        <time>2012-05-27T13:20:36Z</time>
      </trkpt>
      <trkpt lat="45.48932" lon="5.10407">
        <ele>462.20001220703</ele>
        <time>2012-05-27T13:20:50Z</time>
      </trkpt>
      <trkpt lat="45.48951" lon="5.10419">
        <ele>460.20001220703</ele>
        <time>2012-05-27T13:21:03Z</time>
      </trkpt>
      <trkpt lat="45.4897" lon="5.10431">
        <ele>458.79998779297</ele>
        <time>2012-05-27T13:21:08Z</time>
      </trkpt>
      <trkpt lat="45.48989" lon="5.10441">
        <ele>458.79998779297</ele>
        <time>2012-05-27T13:21:12Z</time>
      </trkpt>
      <trkpt lat="45.4902" lon="5.10452">
        <ele>458.90002441406</ele>
        <time>2012-05-27T13:21:22Z</time>
      </trkpt>
      <trkpt lat="45.49039" lon="5.10458">
        <ele>457.59997558594</ele>
        <time>2012-05-27T13:21:36Z</time>
      </trkpt>
      <trkpt lat="45.49048" lon="5.1046">
        <ele>457.90002441406</ele>
        <time>2012-05-27T13:21:42Z</time>
      </trkpt>
      <trkpt lat="45.49067" lon="5.10466">
        <ele>458.90002441406</ele>
        <time>2012-05-27T13:21:55Z</time>
      </trkpt>
      <trkpt lat="45.49092" lon="5.1047">
        <ele>458.90002441406</ele>
        <time>2012-05-27T13:22:03Z</time>
      </trkpt>
      <trkpt lat="45.49115" lon="5.10468">
        <ele>459.70001220703</ele>
        <time>2012-05-27T13:22:08Z</time>
      </trkpt>
      <trkpt lat="45.49158" lon="5.10463">
        <ele>460.90002441406</ele>
        <time>2012-05-27T13:22:22Z</time>
      </trkpt>
      <trkpt lat="45.49187" lon="5.10458">
        <ele>459.90002441406</ele>
        <time>2012-05-27T13:22:44Z</time>
      </trkpt>
      <trkpt lat="45.49203" lon="5.10443">
        <ele>462.09997558594</ele>
        <time>2012-05-27T13:22:58Z</time>
      </trkpt>
      <trkpt lat="45.4922" lon="5.10408">
        <ele>464.20001220703</ele>
        <time>2012-05-27T13:23:15Z</time>
      </trkpt>
      <trkpt lat="45.4923" lon="5.10384">
        <ele>463.90002441406</ele>
        <time>2012-05-27T13:23:27Z</time>
      </trkpt>
      <trkpt lat="45.49242" lon="5.10361">
        <ele>462.5</ele>
        <time>2012-05-27T13:23:39Z</time>
      </trkpt>
      <trkpt lat="45.49257" lon="5.10342">
        <ele>462.5</ele>
        <time>2012-05-27T13:23:52Z</time>
      </trkpt>
      <trkpt lat="45.49283" lon="5.10322">
        <ele>456.90002441406</ele>
        <time>2012-05-27T13:24:15Z</time>
      </trkpt>
      <trkpt lat="45.49301" lon="5.10312">
        <ele>454.20001220703</ele>
        <time>2012-05-27T13:24:27Z</time>
      </trkpt>
      <trkpt lat="45.4932" lon="5.10304">
        <ele>449.09997558594</ele>
        <time>2012-05-27T13:24:37Z</time>
      </trkpt>
      <trkpt lat="45.49344" lon="5.10282">
        <ele>444.79998779297</ele>
        <time>2012-05-27T13:24:56Z</time>
      </trkpt>
      <trkpt lat="45.49361" lon="5.10267">
        <ele>442.59997558594</ele>
        <time>2012-05-27T13:25:09Z</time>
      </trkpt>
      <trkpt lat="45.49379" lon="5.10257">
        <ele>439.79998779297</ele>
        <time>2012-05-27T13:25:19Z</time>
      </trkpt>
      <trkpt lat="45.49398" lon="5.10248">
        <ele>436.29998779297</ele>
        <time>2012-05-27T13:25:29Z</time>
      </trkpt>
      <trkpt lat="45.49417" lon="5.10241">
        <ele>434</ele>
        <time>2012-05-27T13:25:40Z</time>
      </trkpt>
      <trkpt lat="45.49437" lon="5.10234">
        <ele>431.90002441406</ele>
        <time>2012-05-27T13:25:53Z</time>
      </trkpt>
      <trkpt lat="45.4946" lon="5.10252">
        <ele>430.79998779297</ele>
        <time>2012-05-27T13:26:13Z</time>
      </trkpt>
      <trkpt lat="45.4948" lon="5.10282">
        <ele>428.79998779297</ele>
        <time>2012-05-27T13:26:34Z</time>
      </trkpt>
      <trkpt lat="45.49505" lon="5.10299">
        <ele>426.70001220703</ele>
        <time>2012-05-27T13:26:56Z</time>
      </trkpt>
      <trkpt lat="45.49521" lon="5.10312">
        <ele>425.20001220703</ele>
        <time>2012-05-27T13:27:10Z</time>
      </trkpt>
      <trkpt lat="45.49535" lon="5.10346">
        <ele>424.5</ele>
        <time>2012-05-27T13:27:28Z</time>
      </trkpt>
      <trkpt lat="45.49546" lon="5.10382">
        <ele>423.40002441406</ele>
        <time>2012-05-27T13:29:00Z</time>
      </trkpt>
      <trkpt lat="45.4957" lon="5.10399">
        <ele>413.59997558594</ele>
        <time>2012-05-27T13:29:46Z</time>
      </trkpt>
      <trkpt lat="45.49588" lon="5.10431">
        <ele>407.40002441406</ele>
        <time>2012-05-27T13:30:08Z</time>
      </trkpt>
      <trkpt lat="45.49617" lon="5.10437">
        <ele>403.29998779297</ele>
        <time>2012-05-27T13:30:30Z</time>
      </trkpt>
      <trkpt lat="45.49645" lon="5.1044">
        <ele>401.90002441406</ele>
        <time>2012-05-27T13:30:58Z</time>
      </trkpt>
      <trkpt lat="45.49648" lon="5.10465">
        <ele>400</ele>
        <time>2012-05-27T13:31:19Z</time>
      </trkpt>
      <trkpt lat="45.49644" lon="5.10478">
        <ele>399.40002441406</ele>
        <time>2012-05-27T13:31:25Z</time>
      </trkpt>
      <trkpt lat="45.49641" lon="5.10492">
        <ele>398</ele>
        <time>2012-05-27T13:31:32Z</time>
      </trkpt>
      <trkpt lat="45.49639" lon="5.10505">
        <ele>397.59997558594</ele>
        <time>2012-05-27T13:31:39Z</time>
      </trkpt>
      <trkpt lat="45.49635" lon="5.10518">
        <ele>398.59997558594</ele>
        <time>2012-05-27T13:33:22Z</time>
      </trkpt>
      <trkpt lat="45.49632" lon="5.10544">
        <ele>399.20001220703</ele>
        <time>2012-05-27T13:33:36Z</time>
      </trkpt>
      <trkpt lat="45.49628" lon="5.10571">
        <ele>399.29998779297</ele>
        <time>2012-05-27T13:33:50Z</time>
      </trkpt>
      <trkpt lat="45.49628" lon="5.10603">
        <ele>400.20001220703</ele>
        <time>2012-05-27T13:33:58Z</time>
      </trkpt>
      <trkpt lat="45.49626" lon="5.10634">
        <ele>401.20001220703</ele>
        <time>2012-05-27T13:34:04Z</time>
      </trkpt>
      <trkpt lat="45.49623" lon="5.10664">
        <ele>401.59997558594</ele>
        <time>2012-05-27T13:34:10Z</time>
      </trkpt>
      <trkpt lat="45.49621" lon="5.10693">
        <ele>402.70001220703</ele>
        <time>2012-05-27T13:34:21Z</time>
      </trkpt>
      <trkpt lat="45.4962" lon="5.10721">
        <ele>403.90002441406</ele>
        <time>2012-05-27T13:34:36Z</time>
      </trkpt>
      <trkpt lat="45.49621" lon="5.10735">
        <ele>403.70001220703</ele>
        <time>2012-05-27T13:34:44Z</time>
      </trkpt>
      <trkpt lat="45.4962" lon="5.1075">
        <ele>403.5</ele>
        <time>2012-05-27T13:34:51Z</time>
      </trkpt>
      <trkpt lat="45.4962" lon="5.10763">
        <ele>404.29998779297</ele>
        <time>2012-05-27T13:35:00Z</time>
      </trkpt>
      <trkpt lat="45.49618" lon="5.10777">
        <ele>404.40002441406</ele>
        <time>2012-05-27T13:35:09Z</time>
      </trkpt>
      <trkpt lat="45.49614" lon="5.10804">
        <ele>405.09997558594</ele>
        <time>2012-05-27T13:35:22Z</time>
      </trkpt>
      <trkpt lat="45.4961" lon="5.10831">
        <ele>404</ele>
        <time>2012-05-27T13:35:38Z</time>
      </trkpt>
      <trkpt lat="45.49608" lon="5.10858">
        <ele>403.20001220703</ele>
        <time>2012-05-27T13:35:55Z</time>
      </trkpt>
      <trkpt lat="45.49607" lon="5.10884">
        <ele>402.40002441406</ele>
        <time>2012-05-27T13:36:15Z</time>
      </trkpt>
      <trkpt lat="45.49612" lon="5.1091">
        <ele>404.5</ele>
        <time>2012-05-27T13:37:44Z</time>
      </trkpt>
      <trkpt lat="45.49611" lon="5.10937">
        <ele>403.20001220703</ele>
        <time>2012-05-27T13:38:01Z</time>
      </trkpt>
      <trkpt lat="45.49607" lon="5.10964">
        <ele>404.29998779297</ele>
        <time>2012-05-27T13:38:14Z</time>
      </trkpt>
      <trkpt lat="45.49603" lon="5.10991">
        <ele>405.70001220703</ele>
        <time>2012-05-27T13:38:28Z</time>
      </trkpt>
      <trkpt lat="45.496" lon="5.11017">
        <ele>406.09997558594</ele>
        <time>2012-05-27T13:38:42Z</time>
      </trkpt>
      <trkpt lat="45.49598" lon="5.11058">
        <ele>407.70001220703</ele>
        <time>2012-05-27T13:39:07Z</time>
      </trkpt>
      <trkpt lat="45.49594" lon="5.11085">
        <ele>407.90002441406</ele>
        <time>2012-05-27T13:39:20Z</time>
      </trkpt>
      <trkpt lat="45.49593" lon="5.11111">
        <ele>408.20001220703</ele>
        <time>2012-05-27T13:39:35Z</time>
      </trkpt>
      <trkpt lat="45.49597" lon="5.11138">
        <ele>409.09997558594</ele>
        <time>2012-05-27T13:39:49Z</time>
      </trkpt>
      <trkpt lat="45.496" lon="5.11164">
        <ele>411</ele>
        <time>2012-05-27T13:40:03Z</time>
      </trkpt>
      <trkpt lat="45.49598" lon="5.11193">
        <ele>411.20001220703</ele>
        <time>2012-05-27T13:40:19Z</time>
      </trkpt>
      <trkpt lat="45.49594" lon="5.11249">
        <ele>415.59997558594</ele>
        <time>2012-05-27T13:40:47Z</time>
      </trkpt>
      <trkpt lat="45.49598" lon="5.11289">
        <ele>416.5</ele>
        <time>2012-05-27T13:41:10Z</time>
      </trkpt>
      <trkpt lat="45.49594" lon="5.11329">
        <ele>414.79998779297</ele>
        <time>2012-05-27T13:41:31Z</time>
      </trkpt>
      <trkpt lat="45.49582" lon="5.11372">
        <ele>414.59997558594</ele>
        <time>2012-05-27T13:41:49Z</time>
      </trkpt>
      <trkpt lat="45.49571" lon="5.1141">
        <ele>416</ele>
        <time>2012-05-27T13:42:07Z</time>
      </trkpt>
      <trkpt lat="45.49565" lon="5.1145">
        <ele>419</ele>
        <time>2012-05-27T13:42:23Z</time>
      </trkpt>
      <trkpt lat="45.49562" lon="5.1149">
        <ele>419.70001220703</ele>
        <time>2012-05-27T13:42:44Z</time>
      </trkpt>
      <trkpt lat="45.49564" lon="5.11529">
        <ele>421.90002441406</ele>
        <time>2012-05-27T13:43:02Z</time>
      </trkpt>
      <trkpt lat="45.49583" lon="5.11562">
        <ele>419.70001220703</ele>
        <time>2012-05-27T13:43:23Z</time>
      </trkpt>
      <trkpt lat="45.49589" lon="5.11603">
        <ele>416.70001220703</ele>
        <time>2012-05-27T13:43:47Z</time>
      </trkpt>
      <trkpt lat="45.49598" lon="5.11643">
        <ele>414.79998779297</ele>
        <time>2012-05-27T13:44:03Z</time>
      </trkpt>
      <trkpt lat="45.49614" lon="5.11677">
        <ele>412.59997558594</ele>
        <time>2012-05-27T13:44:21Z</time>
      </trkpt>
      <trkpt lat="45.49622" lon="5.11726">
        <ele>411</ele>
        <time>2012-05-27T13:44:47Z</time>
      </trkpt>
      <trkpt lat="45.49617" lon="5.11771">
        <ele>409.40002441406</ele>
        <time>2012-05-27T13:44:58Z</time>
      </trkpt>
      <trkpt lat="45.4961" lon="5.11819">
        <ele>409</ele>
        <time>2012-05-27T13:45:04Z</time>
      </trkpt>
      <trkpt lat="45.49598" lon="5.11866">
        <ele>408.20001220703</ele>
        <time>2012-05-27T13:45:10Z</time>
      </trkpt>
      <trkpt lat="45.49584" lon="5.11962">
        <ele>406.90002441406</ele>
        <time>2012-05-27T13:45:33Z</time>
      </trkpt>
      <trkpt lat="45.49588" lon="5.11989">
        <ele>406.90002441406</ele>
        <time>2012-05-27T13:45:45Z</time>
      </trkpt>
      <trkpt lat="45.496" lon="5.12027">
        <ele>409.09997558594</ele>
        <time>2012-05-27T13:46:05Z</time>
      </trkpt>
      <trkpt lat="45.49603" lon="5.12055">
        <ele>407.09997558594</ele>
        <time>2012-05-27T13:46:19Z</time>
      </trkpt>
      <trkpt lat="45.49604" lon="5.12084">
        <ele>406.5</ele>
        <time>2012-05-27T13:46:32Z</time>
      </trkpt>
      <trkpt lat="45.49604" lon="5.12117">
        <ele>405.5</ele>
        <time>2012-05-27T13:46:40Z</time>
      </trkpt>
      <trkpt lat="45.496" lon="5.12148">
        <ele>405.29998779297</ele>
        <time>2012-05-27T13:46:48Z</time>
      </trkpt>
      <trkpt lat="45.49596" lon="5.12175">
        <ele>404.29998779297</ele>
        <time>2012-05-27T13:47:01Z</time>
      </trkpt>
      <trkpt lat="45.49593" lon="5.12189">
        <ele>403.20001220703</ele>
        <time>2012-05-27T13:47:10Z</time>
      </trkpt>
      <trkpt lat="45.49585" lon="5.12215">
        <ele>405.40002441406</ele>
        <time>2012-05-27T13:47:24Z</time>
      </trkpt>
      <trkpt lat="45.49577" lon="5.12241">
        <ele>407.79998779297</ele>
        <time>2012-05-27T13:47:36Z</time>
      </trkpt>
      <trkpt lat="45.49568" lon="5.12266">
        <ele>410.09997558594</ele>
        <time>2012-05-27T13:47:48Z</time>
      </trkpt>
      <trkpt lat="45.49561" lon="5.12275">
        <ele>409.5</ele>
        <time>2012-05-27T13:47:56Z</time>
      </trkpt>
      <trkpt lat="45.4955" lon="5.12297">
        <ele>409.5</ele>
        <time>2012-05-27T13:48:04Z</time>
      </trkpt>
      <trkpt lat="45.49538" lon="5.12319">
        <ele>409.79998779297</ele>
        <time>2012-05-27T13:48:12Z</time>
      </trkpt>
      <trkpt lat="45.49526" lon="5.12341">
        <ele>408.59997558594</ele>
        <time>2012-05-27T13:48:22Z</time>
      </trkpt>
      <trkpt lat="45.49501" lon="5.1237">
        <ele>409</ele>
        <time>2012-05-27T13:48:36Z</time>
      </trkpt>
      <trkpt lat="45.49433" lon="5.1245">
        <ele>408.40002441406</ele>
        <time>2012-05-27T13:49:13Z</time>
      </trkpt>
      <trkpt lat="45.49313" lon="5.12703">
        <ele>406.79998779297</ele>
        <time>2012-05-27T13:50:02Z</time>
      </trkpt>
      <trkpt lat="45.49296" lon="5.12738">
        <ele>408.20001220703</ele>
        <time>2012-05-27T13:50:22Z</time>
      </trkpt>
      <trkpt lat="45.49287" lon="5.12764">
        <ele>409.29998779297</ele>
        <time>2012-05-27T13:50:37Z</time>
      </trkpt>
      <trkpt lat="45.49281" lon="5.12793">
        <ele>409.79998779297</ele>
        <time>2012-05-27T13:50:47Z</time>
      </trkpt>
      <trkpt lat="45.49271" lon="5.12828">
        <ele>409.90002441406</ele>
        <time>2012-05-27T13:50:52Z</time>
      </trkpt>
      <trkpt lat="45.49256" lon="5.12865">
        <ele>409.90002441406</ele>
        <time>2012-05-27T13:50:56Z</time>
      </trkpt>
      <trkpt lat="45.4924" lon="5.12893">
        <ele>410.20001220703</ele>
        <time>2012-05-27T13:51:00Z</time>
      </trkpt>
      <trkpt lat="45.49226" lon="5.12918">
        <ele>411.09997558594</ele>
        <time>2012-05-27T13:51:04Z</time>
      </trkpt>
      <trkpt lat="45.49211" lon="5.12941">
        <ele>412.79998779297</ele>
        <time>2012-05-27T13:51:13Z</time>
      </trkpt>
      <trkpt lat="45.49197" lon="5.12958">
        <ele>415.29998779297</ele>
        <time>2012-05-27T13:51:28Z</time>
      </trkpt>
      <trkpt lat="45.49182" lon="5.12933">
        <ele>416.09997558594</ele>
        <time>2012-05-27T13:51:38Z</time>
      </trkpt>
      <trkpt lat="45.49175" lon="5.12905">
        <ele>417.09997558594</ele>
        <time>2012-05-27T13:52:09Z</time>
      </trkpt>
      <trkpt lat="45.49161" lon="5.12864">
        <ele>417</ele>
        <time>2012-05-27T13:52:13Z</time>
      </trkpt>
      <trkpt lat="45.4915" lon="5.12839">
        <ele>418.29998779297</ele>
        <time>2012-05-27T13:52:15Z</time>
      </trkpt>
      <trkpt lat="45.49141" lon="5.12818">
        <ele>419.09997558594</ele>
        <time>2012-05-27T13:52:17Z</time>
      </trkpt>
      <trkpt lat="45.49133" lon="5.12801">
        <ele>419.59997558594</ele>
        <time>2012-05-27T13:52:19Z</time>
      </trkpt>
      <trkpt lat="45.49125" lon="5.12784">
        <ele>420.29998779297</ele>
        <time>2012-05-27T13:52:21Z</time>
      </trkpt>
      <trkpt lat="45.49112" lon="5.12758">
        <ele>420.40002441406</ele>
        <time>2012-05-27T13:52:25Z</time>
      </trkpt>
      <trkpt lat="45.49099" lon="5.12736">
        <ele>421.09997558594</ele>
        <time>2012-05-27T13:52:36Z</time>
      </trkpt>
      <trkpt lat="45.49087" lon="5.1271">
        <ele>424.90002441406</ele>
        <time>2012-05-27T13:52:49Z</time>
      </trkpt>
      <trkpt lat="45.49078" lon="5.12682">
        <ele>426.70001220703</ele>
        <time>2012-05-27T13:52:54Z</time>
      </trkpt>
      <trkpt lat="45.49066" lon="5.12656">
        <ele>428.90002441406</ele>
        <time>2012-05-27T13:53:00Z</time>
      </trkpt>
      <trkpt lat="45.49054" lon="5.12636">
        <ele>435.40002441406</ele>
        <time>2012-05-27T13:53:11Z</time>
      </trkpt>
      <trkpt lat="45.49049" lon="5.12625">
        <ele>437.29998779297</ele>
        <time>2012-05-27T13:53:17Z</time>
      </trkpt>
      <trkpt lat="45.49044" lon="5.12612">
        <ele>438.20001220703</ele>
        <time>2012-05-27T13:53:23Z</time>
      </trkpt>
      <trkpt lat="45.49039" lon="5.12585">
        <ele>439.09997558594</ele>
        <time>2012-05-27T13:53:40Z</time>
      </trkpt>
      <trkpt lat="45.49035" lon="5.12559">
        <ele>441.09997558594</ele>
        <time>2012-05-27T13:53:59Z</time>
      </trkpt>
      <trkpt lat="45.49028" lon="5.12535">
        <ele>441.5</ele>
        <time>2012-05-27T13:54:11Z</time>
      </trkpt>
      <trkpt lat="45.4902" lon="5.1251">
        <ele>443.5</ele>
        <time>2012-05-27T13:54:22Z</time>
      </trkpt>
      <trkpt lat="45.49012" lon="5.12484">
        <ele>446.5</ele>
        <time>2012-05-27T13:54:37Z</time>
      </trkpt>
      <trkpt lat="45.49005" lon="5.12458">
        <ele>446.79998779297</ele>
        <time>2012-05-27T13:54:50Z</time>
      </trkpt>
      <trkpt lat="45.49" lon="5.1243">
        <ele>445.59997558594</ele>
        <time>2012-05-27T13:55:07Z</time>
      </trkpt>
      <trkpt lat="45.48996" lon="5.12403">
        <ele>443.79998779297</ele>
        <time>2012-05-27T13:55:19Z</time>
      </trkpt>
      <trkpt lat="45.48988" lon="5.12377">
        <ele>445.40002441406</ele>
        <time>2012-05-27T13:55:33Z</time>
      </trkpt>
      <trkpt lat="45.48974" lon="5.12342">
        <ele>444.09997558594</ele>
        <time>2012-05-27T13:55:50Z</time>
      </trkpt>
      <trkpt lat="45.48962" lon="5.12321">
        <ele>441.70001220703</ele>
        <time>2012-05-27T13:56:03Z</time>
      </trkpt>
      <trkpt lat="45.48943" lon="5.12323">
        <ele>437.79998779297</ele>
        <time>2012-05-27T13:56:34Z</time>
      </trkpt>
      <trkpt lat="45.48925" lon="5.12327">
        <ele>435.79998779297</ele>
        <time>2012-05-27T13:56:46Z</time>
      </trkpt>
      <trkpt lat="45.48906" lon="5.12333">
        <ele>434.5</ele>
        <time>2012-05-27T13:57:00Z</time>
      </trkpt>
      <trkpt lat="45.4889" lon="5.12347">
        <ele>432.29998779297</ele>
        <time>2012-05-27T13:57:13Z</time>
      </trkpt>
      <trkpt lat="45.48875" lon="5.12367">
        <ele>432.5</ele>
        <time>2012-05-27T13:57:38Z</time>
      </trkpt>
      <trkpt lat="45.48867" lon="5.12373">
        <ele>432.29998779297</ele>
        <time>2012-05-27T13:57:41Z</time>
      </trkpt>
      <trkpt lat="45.4885" lon="5.12392">
        <ele>432.40002441406</ele>
        <time>2012-05-27T13:57:48Z</time>
      </trkpt>
      <trkpt lat="45.48842" lon="5.124">
        <ele>432.90002441406</ele>
        <time>2012-05-27T13:57:51Z</time>
      </trkpt>
      <trkpt lat="45.48835" lon="5.12412">
        <ele>433</ele>
        <time>2012-05-27T13:57:54Z</time>
      </trkpt>
      <trkpt lat="45.48824" lon="5.1244">
        <ele>434.70001220703</ele>
        <time>2012-05-27T13:58:00Z</time>
      </trkpt>
      <trkpt lat="45.48815" lon="5.12437">
        <ele>432.20001220703</ele>
        <time>2012-05-27T13:58:08Z</time>
      </trkpt>
      <trkpt lat="45.48809" lon="5.12427">
        <ele>432.5</ele>
        <time>2012-05-27T13:58:14Z</time>
      </trkpt>
      <trkpt lat="45.48797" lon="5.12406">
        <ele>432.70001220703</ele>
        <time>2012-05-27T13:58:26Z</time>
      </trkpt>
      <trkpt lat="45.48785" lon="5.12385">
        <ele>432.70001220703</ele>
        <time>2012-05-27T13:58:39Z</time>
      </trkpt>
      <trkpt lat="45.48773" lon="5.12365">
        <ele>434.09997558594</ele>
        <time>2012-05-27T13:58:52Z</time>
      </trkpt>
      <trkpt lat="45.48766" lon="5.12356">
        <ele>434.5</ele>
        <time>2012-05-27T13:58:58Z</time>
      </trkpt>
      <trkpt lat="45.4876" lon="5.12346">
        <ele>435</ele>
        <time>2012-05-27T13:59:05Z</time>
      </trkpt>
      <trkpt lat="45.48753" lon="5.12337">
        <ele>435.29998779297</ele>
        <time>2012-05-27T13:59:12Z</time>
      </trkpt>
      <trkpt lat="45.48745" lon="5.12327">
        <ele>435.40002441406</ele>
        <time>2012-05-27T13:59:19Z</time>
      </trkpt>
      <trkpt lat="45.48738" lon="5.12318">
        <ele>435.70001220703</ele>
        <time>2012-05-27T13:59:26Z</time>
      </trkpt>
      <trkpt lat="45.48731" lon="5.12309">
        <ele>435.79998779297</ele>
        <time>2012-05-27T13:59:32Z</time>
      </trkpt>
      <trkpt lat="45.48723" lon="5.123">
        <ele>436.20001220703</ele>
        <time>2012-05-27T13:59:39Z</time>
      </trkpt>
      <trkpt lat="45.48716" lon="5.12291">
        <ele>436</ele>
        <time>2012-05-27T13:59:46Z</time>
      </trkpt>
      <trkpt lat="45.48708" lon="5.12283">
        <ele>436.79998779297</ele>
        <time>2012-05-27T13:59:53Z</time>
      </trkpt>
      <trkpt lat="45.487" lon="5.12275">
        <ele>437.79998779297</ele>
        <time>2012-05-27T14:00:00Z</time>
      </trkpt>
      <trkpt lat="45.48693" lon="5.12267">
        <ele>438</ele>
        <time>2012-05-27T14:00:07Z</time>
      </trkpt>
      <trkpt lat="45.48685" lon="5.12259">
        <ele>438.70001220703</ele>
        <time>2012-05-27T14:00:14Z</time>
      </trkpt>
      <trkpt lat="45.48677" lon="5.12251">
        <ele>439.5</ele>
        <time>2012-05-27T14:00:22Z</time>
      </trkpt>
      <trkpt lat="45.48668" lon="5.12244">
        <ele>439.90002441406</ele>
        <time>2012-05-27T14:00:30Z</time>
      </trkpt>
      <trkpt lat="45.4866" lon="5.12237">
        <ele>440.29998779297</ele>
        <time>2012-05-27T14:00:37Z</time>
      </trkpt>
      <trkpt lat="45.48651" lon="5.1223">
        <ele>441.40002441406</ele>
        <time>2012-05-27T14:00:44Z</time>
      </trkpt>
      <trkpt lat="45.48642" lon="5.12223">
        <ele>442.20001220703</ele>
        <time>2012-05-27T14:00:51Z</time>
      </trkpt>
      <trkpt lat="45.48633" lon="5.12216">
        <ele>443.40002441406</ele>
        <time>2012-05-27T14:00:58Z</time>
      </trkpt>
      <trkpt lat="45.48625" lon="5.12207">
        <ele>444</ele>
        <time>2012-05-27T14:01:05Z</time>
      </trkpt>
      <trkpt lat="45.48617" lon="5.12199">
        <ele>445</ele>
        <time>2012-05-27T14:01:13Z</time>
      </trkpt>
      <trkpt lat="45.48608" lon="5.12192">
        <ele>447.29998779297</ele>
        <time>2012-05-27T14:01:20Z</time>
      </trkpt>
      <trkpt lat="45.48601" lon="5.12183">
        <ele>448.70001220703</ele>
        <time>2012-05-27T14:01:27Z</time>
      </trkpt>
      <trkpt lat="45.48592" lon="5.12176">
        <ele>450.40002441406</ele>
        <time>2012-05-27T14:01:34Z</time>
      </trkpt>
      <trkpt lat="45.48582" lon="5.12171">
        <ele>451.90002441406</ele>
        <time>2012-05-27T14:01:41Z</time>
      </trkpt>
      <trkpt lat="45.48573" lon="5.12168">
        <ele>452.5</ele>
        <time>2012-05-27T14:01:50Z</time>
      </trkpt>
      <trkpt lat="45.48566" lon="5.12176">
        <ele>452.59997558594</ele>
        <time>2012-05-27T14:02:01Z</time>
      </trkpt>
      <trkpt lat="45.48557" lon="5.12183">
        <ele>453.40002441406</ele>
        <time>2012-05-27T14:02:08Z</time>
      </trkpt>
      <trkpt lat="45.48549" lon="5.12189">
        <ele>454.5</ele>
        <time>2012-05-27T14:02:15Z</time>
      </trkpt>
      <trkpt lat="45.4854" lon="5.12195">
        <ele>455.40002441406</ele>
        <time>2012-05-27T14:02:20Z</time>
      </trkpt>
      <trkpt lat="45.48531" lon="5.12201">
        <ele>457</ele>
        <time>2012-05-27T14:02:27Z</time>
      </trkpt>
      <trkpt lat="45.48523" lon="5.12206">
        <ele>458</ele>
        <time>2012-05-27T14:02:34Z</time>
      </trkpt>
      <trkpt lat="45.48505" lon="5.12219">
        <ele>460.09997558594</ele>
        <time>2012-05-27T14:02:48Z</time>
      </trkpt>
      <trkpt lat="45.48497" lon="5.12225">
        <ele>460.5</ele>
        <time>2012-05-27T14:02:55Z</time>
      </trkpt>
      <trkpt lat="45.48487" lon="5.1223">
        <ele>460.70001220703</ele>
        <time>2012-05-27T14:03:02Z</time>
      </trkpt>
      <trkpt lat="45.48478" lon="5.12233">
        <ele>460.29998779297</ele>
        <time>2012-05-27T14:03:09Z</time>
      </trkpt>
      <trkpt lat="45.48469" lon="5.12237">
        <ele>460.5</ele>
        <time>2012-05-27T14:03:17Z</time>
      </trkpt>
      <trkpt lat="45.4846" lon="5.12243">
        <ele>461.40002441406</ele>
        <time>2012-05-27T14:03:24Z</time>
      </trkpt>
      <trkpt lat="45.48451" lon="5.12247">
        <ele>462</ele>
        <time>2012-05-27T14:03:31Z</time>
      </trkpt>
      <trkpt lat="45.48441" lon="5.12252">
        <ele>462.5</ele>
        <time>2012-05-27T14:03:38Z</time>
      </trkpt>
      <trkpt lat="45.48432" lon="5.12256">
        <ele>463.09997558594</ele>
        <time>2012-05-27T14:03:45Z</time>
      </trkpt>
      <trkpt lat="45.48423" lon="5.1226">
        <ele>463.40002441406</ele>
        <time>2012-05-27T14:03:53Z</time>
      </trkpt>
      <trkpt lat="45.48413" lon="5.12264">
        <ele>463.90002441406</ele>
        <time>2012-05-27T14:04:01Z</time>
      </trkpt>
      <trkpt lat="45.48404" lon="5.12267">
        <ele>464.29998779297</ele>
        <time>2012-05-27T14:04:08Z</time>
      </trkpt>
      <trkpt lat="45.48397" lon="5.12276">
        <ele>464.20001220703</ele>
        <time>2012-05-27T14:04:16Z</time>
      </trkpt>
      <trkpt lat="45.48396" lon="5.12309">
        <ele>463.09997558594</ele>
        <time>2012-05-27T14:04:22Z</time>
      </trkpt>
      <trkpt lat="45.48397" lon="5.1234">
        <ele>463</ele>
        <time>2012-05-27T14:04:26Z</time>
      </trkpt>
      <trkpt lat="45.48396" lon="5.12373">
        <ele>462.5</ele>
        <time>2012-05-27T14:04:30Z</time>
      </trkpt>
      <trkpt lat="45.48396" lon="5.12389">
        <ele>462.40002441406</ele>
        <time>2012-05-27T14:04:32Z</time>
      </trkpt>
      <trkpt lat="45.48396" lon="5.12405">
        <ele>462.40002441406</ele>
        <time>2012-05-27T14:04:34Z</time>
      </trkpt>
      <trkpt lat="45.48397" lon="5.12436">
        <ele>462.70001220703</ele>
        <time>2012-05-27T14:04:39Z</time>
      </trkpt>
      <trkpt lat="45.484" lon="5.12463">
        <ele>464</ele>
        <time>2012-05-27T14:04:51Z</time>
      </trkpt>
      <trkpt lat="45.48403" lon="5.12489">
        <ele>466.09997558594</ele>
        <time>2012-05-27T14:05:03Z</time>
      </trkpt>
      <trkpt lat="45.48405" lon="5.12503">
        <ele>465.20001220703</ele>
        <time>2012-05-27T14:05:10Z</time>
      </trkpt>
      <trkpt lat="45.48409" lon="5.12516">
        <ele>464.70001220703</ele>
        <time>2012-05-27T14:05:17Z</time>
      </trkpt>
      <trkpt lat="45.48418" lon="5.1254">
        <ele>463.79998779297</ele>
        <time>2012-05-27T14:05:30Z</time>
      </trkpt>
      <trkpt lat="45.48427" lon="5.12565">
        <ele>463.90002441406</ele>
        <time>2012-05-27T14:05:43Z</time>
      </trkpt>
      <trkpt lat="45.48435" lon="5.12589">
        <ele>463.29998779297</ele>
        <time>2012-05-27T14:05:56Z</time>
      </trkpt>
      <trkpt lat="45.4844" lon="5.12614">
        <ele>462.90002441406</ele>
        <time>2012-05-27T14:06:11Z</time>
      </trkpt>
      <trkpt lat="45.48448" lon="5.1264">
        <ele>463.29998779297</ele>
        <time>2012-05-27T14:06:25Z</time>
      </trkpt>
      <trkpt lat="45.48455" lon="5.12667">
        <ele>463.20001220703</ele>
        <time>2012-05-27T14:06:39Z</time>
      </trkpt>
      <trkpt lat="45.48459" lon="5.12694">
        <ele>463.79998779297</ele>
        <time>2012-05-27T14:06:54Z</time>
      </trkpt>
      <trkpt lat="45.48459" lon="5.12723">
        <ele>464.5</ele>
        <time>2012-05-27T14:07:08Z</time>
      </trkpt>
      <trkpt lat="45.48457" lon="5.1275">
        <ele>463.29998779297</ele>
        <time>2012-05-27T14:07:21Z</time>
      </trkpt>
      <trkpt lat="45.48458" lon="5.12778">
        <ele>463.90002441406</ele>
        <time>2012-05-27T14:07:35Z</time>
      </trkpt>
      <trkpt lat="45.48459" lon="5.12793">
        <ele>465.20001220703</ele>
        <time>2012-05-27T14:07:44Z</time>
      </trkpt>
      <trkpt lat="45.48455" lon="5.12821">
        <ele>466.70001220703</ele>
        <time>2012-05-27T14:08:00Z</time>
      </trkpt>
      <trkpt lat="45.48449" lon="5.12846">
        <ele>469.70001220703</ele>
        <time>2012-05-27T14:08:15Z</time>
      </trkpt>
      <trkpt lat="45.48446" lon="5.12874">
        <ele>471.5</ele>
        <time>2012-05-27T14:08:30Z</time>
      </trkpt>
      <trkpt lat="45.48442" lon="5.12888">
        <ele>472</ele>
        <time>2012-05-27T14:08:37Z</time>
      </trkpt>
      <trkpt lat="45.48437" lon="5.12914">
        <ele>472.40002441406</ele>
        <time>2012-05-27T14:08:50Z</time>
      </trkpt>
      <trkpt lat="45.48432" lon="5.12926">
        <ele>473.09997558594</ele>
        <time>2012-05-27T14:08:56Z</time>
      </trkpt>
      <trkpt lat="45.48422" lon="5.1295">
        <ele>474.09997558594</ele>
        <time>2012-05-27T14:09:09Z</time>
      </trkpt>
      <trkpt lat="45.48415" lon="5.12977">
        <ele>476.40002441406</ele>
        <time>2012-05-27T14:09:23Z</time>
      </trkpt>
      <trkpt lat="45.48407" lon="5.13002">
        <ele>478.29998779297</ele>
        <time>2012-05-27T14:09:37Z</time>
      </trkpt>
      <trkpt lat="45.48391" lon="5.1302">
        <ele>479.70001220703</ele>
        <time>2012-05-27T14:09:46Z</time>
      </trkpt>
      <trkpt lat="45.48374" lon="5.13037">
        <ele>481.29998779297</ele>
        <time>2012-05-27T14:09:56Z</time>
      </trkpt>
      <trkpt lat="45.48358" lon="5.13051">
        <ele>484.5</ele>
        <time>2012-05-27T14:10:09Z</time>
      </trkpt>
      <trkpt lat="45.4834" lon="5.13064">
        <ele>485.79998779297</ele>
        <time>2012-05-27T14:10:24Z</time>
      </trkpt>
      <trkpt lat="45.48322" lon="5.13078">
        <ele>486.5</ele>
        <time>2012-05-27T14:10:41Z</time>
      </trkpt>
      <trkpt lat="45.48305" lon="5.13091">
        <ele>489.90002441406</ele>
        <time>2012-05-27T14:10:54Z</time>
      </trkpt>
      <trkpt lat="45.48287" lon="5.13099">
        <ele>490.40002441406</ele>
        <time>2012-05-27T14:11:10Z</time>
      </trkpt>
      <trkpt lat="45.48268" lon="5.13101">
        <ele>493.70001220703</ele>
        <time>2012-05-27T14:11:23Z</time>
      </trkpt>
      <trkpt lat="45.48259" lon="5.13102">
        <ele>494.5</ele>
        <time>2012-05-27T14:11:30Z</time>
      </trkpt>
      <trkpt lat="45.48249" lon="5.13102">
        <ele>496.09997558594</ele>
        <time>2012-05-27T14:11:36Z</time>
      </trkpt>
      <trkpt lat="45.48239" lon="5.13102">
        <ele>497.09997558594</ele>
        <time>2012-05-27T14:11:43Z</time>
      </trkpt>
      <trkpt lat="45.48229" lon="5.131">
        <ele>498.40002441406</ele>
        <time>2012-05-27T14:11:51Z</time>
      </trkpt>
      <trkpt lat="45.48219" lon="5.13099">
        <ele>499.09997558594</ele>
        <time>2012-05-27T14:11:59Z</time>
      </trkpt>
      <trkpt lat="45.48209" lon="5.13095">
        <ele>500.29998779297</ele>
        <time>2012-05-27T14:12:06Z</time>
      </trkpt>
      <trkpt lat="45.48199" lon="5.13093">
        <ele>500.70001220703</ele>
        <time>2012-05-27T14:12:12Z</time>
      </trkpt>
      <trkpt lat="45.48189" lon="5.13091">
        <ele>501.09997558594</ele>
        <time>2012-05-27T14:12:15Z</time>
      </trkpt>
      <trkpt lat="45.48178" lon="5.13092">
        <ele>501</ele>
        <time>2012-05-27T14:12:18Z</time>
      </trkpt>
      <trkpt lat="45.48167" lon="5.13096">
        <ele>501.09997558594</ele>
        <time>2012-05-27T14:12:21Z</time>
      </trkpt>
      <trkpt lat="45.48158" lon="5.13101">
        <ele>501</ele>
        <time>2012-05-27T14:12:24Z</time>
      </trkpt>
      <trkpt lat="45.48149" lon="5.13109">
        <ele>500.90002441406</ele>
        <time>2012-05-27T14:12:27Z</time>
      </trkpt>
      <trkpt lat="45.48134" lon="5.13124">
        <ele>501.90002441406</ele>
        <time>2012-05-27T14:12:38Z</time>
      </trkpt>
      <trkpt lat="45.48128" lon="5.13134">
        <ele>501</ele>
        <time>2012-05-27T14:12:47Z</time>
      </trkpt>
      <trkpt lat="45.48113" lon="5.13151">
        <ele>500</ele>
        <time>2012-05-27T14:13:02Z</time>
      </trkpt>
      <trkpt lat="45.48099" lon="5.1317">
        <ele>504.59997558594</ele>
        <time>2012-05-27T14:13:12Z</time>
      </trkpt>
      <trkpt lat="45.48084" lon="5.13187">
        <ele>505.09997558594</ele>
        <time>2012-05-27T14:13:26Z</time>
      </trkpt>
      <trkpt lat="45.48069" lon="5.13202">
        <ele>505.59997558594</ele>
        <time>2012-05-27T14:13:40Z</time>
      </trkpt>
      <trkpt lat="45.4806" lon="5.13209">
        <ele>505.79998779297</ele>
        <time>2012-05-27T14:13:54Z</time>
      </trkpt>
      <trkpt lat="45.48044" lon="5.13225">
        <ele>506.70001220703</ele>
        <time>2012-05-27T14:14:07Z</time>
      </trkpt>
      <trkpt lat="45.48024" lon="5.13239">
        <ele>508.29998779297</ele>
        <time>2012-05-27T14:14:14Z</time>
      </trkpt>
      <trkpt lat="45.48005" lon="5.1325">
        <ele>508.90002441406</ele>
        <time>2012-05-27T14:14:19Z</time>
      </trkpt>
      <trkpt lat="45.47989" lon="5.13267">
        <ele>508.79998779297</ele>
        <time>2012-05-27T14:14:25Z</time>
      </trkpt>
      <trkpt lat="45.4797" lon="5.13285">
        <ele>508.29998779297</ele>
        <time>2012-05-27T14:14:31Z</time>
      </trkpt>
      <trkpt lat="45.47949" lon="5.13297">
        <ele>506.40002441406</ele>
        <time>2012-05-27T14:14:37Z</time>
      </trkpt>
      <trkpt lat="45.47926" lon="5.13303">
        <ele>505.79998779297</ele>
        <time>2012-05-27T14:14:42Z</time>
      </trkpt>
      <trkpt lat="45.47917" lon="5.13304">
        <ele>506</ele>
        <time>2012-05-27T14:14:44Z</time>
      </trkpt>
      <trkpt lat="45.47907" lon="5.13306">
        <ele>506</ele>
        <time>2012-05-27T14:14:46Z</time>
      </trkpt>
      <trkpt lat="45.47898" lon="5.13308">
        <ele>506.09997558594</ele>
        <time>2012-05-27T14:14:48Z</time>
      </trkpt>
      <trkpt lat="45.47888" lon="5.1331">
        <ele>506.09997558594</ele>
        <time>2012-05-27T14:14:50Z</time>
      </trkpt>
      <trkpt lat="45.47878" lon="5.13312">
        <ele>506.29998779297</ele>
        <time>2012-05-27T14:14:52Z</time>
      </trkpt>
      <trkpt lat="45.47856" lon="5.13316">
        <ele>506.09997558594</ele>
        <time>2012-05-27T14:14:57Z</time>
      </trkpt>
      <trkpt lat="45.47835" lon="5.13319">
        <ele>506.5</ele>
        <time>2012-05-27T14:15:05Z</time>
      </trkpt>
      <trkpt lat="45.47816" lon="5.13322">
        <ele>504.70001220703</ele>
        <time>2012-05-27T14:15:20Z</time>
      </trkpt>
      <trkpt lat="45.47807" lon="5.13322">
        <ele>504.09997558594</ele>
        <time>2012-05-27T14:15:26Z</time>
      </trkpt>
      <trkpt lat="45.47797" lon="5.13322">
        <ele>503.90002441406</ele>
        <time>2012-05-27T14:15:33Z</time>
      </trkpt>
      <trkpt lat="45.47787" lon="5.13324">
        <ele>502.90002441406</ele>
        <time>2012-05-27T14:15:40Z</time>
      </trkpt>
      <trkpt lat="45.47777" lon="5.13326">
        <ele>501.40002441406</ele>
        <time>2012-05-27T14:15:47Z</time>
      </trkpt>
      <trkpt lat="45.47768" lon="5.13326">
        <ele>500.20001220703</ele>
        <time>2012-05-27T14:15:54Z</time>
      </trkpt>
      <trkpt lat="45.47759" lon="5.13329">
        <ele>500.20001220703</ele>
        <time>2012-05-27T14:16:00Z</time>
      </trkpt>
      <trkpt lat="45.4775" lon="5.13332">
        <ele>498.90002441406</ele>
        <time>2012-05-27T14:16:07Z</time>
      </trkpt>
      <trkpt lat="45.47741" lon="5.13334">
        <ele>498.20001220703</ele>
        <time>2012-05-27T14:16:14Z</time>
      </trkpt>
      <trkpt lat="45.47731" lon="5.13339">
        <ele>498.5</ele>
        <time>2012-05-27T14:16:21Z</time>
      </trkpt>
      <trkpt lat="45.47721" lon="5.13344">
        <ele>498.20001220703</ele>
        <time>2012-05-27T14:16:28Z</time>
      </trkpt>
      <trkpt lat="45.47711" lon="5.13347">
        <ele>497.5</ele>
        <time>2012-05-27T14:16:35Z</time>
      </trkpt>
      <trkpt lat="45.47703" lon="5.13352">
        <ele>496.79998779297</ele>
        <time>2012-05-27T14:16:41Z</time>
      </trkpt>
      <trkpt lat="45.47694" lon="5.13358">
        <ele>496.79998779297</ele>
        <time>2012-05-27T14:16:48Z</time>
      </trkpt>
      <trkpt lat="45.47686" lon="5.13366">
        <ele>495.79998779297</ele>
        <time>2012-05-27T14:16:56Z</time>
      </trkpt>
      <trkpt lat="45.47679" lon="5.13376">
        <ele>495.29998779297</ele>
        <time>2012-05-27T14:17:02Z</time>
      </trkpt>
      <trkpt lat="45.47674" lon="5.13388">
        <ele>494.20001220703</ele>
        <time>2012-05-27T14:17:09Z</time>
      </trkpt>
      <trkpt lat="45.47667" lon="5.13414">
        <ele>493.40002441406</ele>
        <time>2012-05-27T14:17:26Z</time>
      </trkpt>
      <trkpt lat="45.47656" lon="5.13437">
        <ele>490.20001220703</ele>
        <time>2012-05-27T14:17:40Z</time>
      </trkpt>
      <trkpt lat="45.47643" lon="5.13458">
        <ele>492</ele>
        <time>2012-05-27T14:17:51Z</time>
      </trkpt>
      <trkpt lat="45.47637" lon="5.1347">
        <ele>491.20001220703</ele>
        <time>2012-05-27T14:17:59Z</time>
      </trkpt>
      <trkpt lat="45.47629" lon="5.13495">
        <ele>488</ele>
        <time>2012-05-27T14:18:11Z</time>
      </trkpt>
      <trkpt lat="45.47622" lon="5.1352">
        <ele>486.90002441406</ele>
        <time>2012-05-27T14:18:23Z</time>
      </trkpt>
      <trkpt lat="45.47619" lon="5.13534">
        <ele>487.20001220703</ele>
        <time>2012-05-27T14:18:29Z</time>
      </trkpt>
      <trkpt lat="45.47614" lon="5.13561">
        <ele>486.29998779297</ele>
        <time>2012-05-27T14:18:43Z</time>
      </trkpt>
      <trkpt lat="45.4761" lon="5.13589">
        <ele>486.09997558594</ele>
        <time>2012-05-27T14:18:55Z</time>
      </trkpt>
      <trkpt lat="45.47608" lon="5.13604">
        <ele>485.90002441406</ele>
        <time>2012-05-27T14:19:01Z</time>
      </trkpt>
      <trkpt lat="45.47603" lon="5.13637">
        <ele>484.09997558594</ele>
        <time>2012-05-27T14:19:08Z</time>
      </trkpt>
      <trkpt lat="45.47597" lon="5.13669">
        <ele>483.70001220703</ele>
        <time>2012-05-27T14:19:13Z</time>
      </trkpt>
      <trkpt lat="45.47593" lon="5.13698">
        <ele>483.29998779297</ele>
        <time>2012-05-27T14:19:17Z</time>
      </trkpt>
      <trkpt lat="45.47588" lon="5.13725">
        <ele>482.09997558594</ele>
        <time>2012-05-27T14:19:21Z</time>
      </trkpt>
      <trkpt lat="45.47583" lon="5.13755">
        <ele>481.20001220703</ele>
        <time>2012-05-27T14:19:27Z</time>
      </trkpt>
      <trkpt lat="45.47576" lon="5.13783">
        <ele>480.90002441406</ele>
        <time>2012-05-27T14:19:40Z</time>
      </trkpt>
      <trkpt lat="45.47567" lon="5.13785">
        <ele>480.5</ele>
        <time>2012-05-27T14:19:47Z</time>
      </trkpt>
      <trkpt lat="45.47557" lon="5.13784">
        <ele>480.29998779297</ele>
        <time>2012-05-27T14:19:54Z</time>
      </trkpt>
      <trkpt lat="45.47548" lon="5.13784">
        <ele>479.70001220703</ele>
        <time>2012-05-27T14:20:01Z</time>
      </trkpt>
      <trkpt lat="45.47539" lon="5.13782">
        <ele>479.40002441406</ele>
        <time>2012-05-27T14:20:08Z</time>
      </trkpt>
      <trkpt lat="45.47529" lon="5.13781">
        <ele>478.79998779297</ele>
        <time>2012-05-27T14:20:15Z</time>
      </trkpt>
      <trkpt lat="45.4752" lon="5.1378">
        <ele>477.79998779297</ele>
        <time>2012-05-27T14:20:22Z</time>
      </trkpt>
      <trkpt lat="45.4751" lon="5.13779">
        <ele>477.5</ele>
        <time>2012-05-27T14:20:29Z</time>
      </trkpt>
      <trkpt lat="45.47501" lon="5.13778">
        <ele>477.20001220703</ele>
        <time>2012-05-27T14:20:36Z</time>
      </trkpt>
      <trkpt lat="45.47492" lon="5.13777">
        <ele>476.59997558594</ele>
        <time>2012-05-27T14:20:43Z</time>
      </trkpt>
      <trkpt lat="45.47482" lon="5.13777">
        <ele>476.79998779297</ele>
        <time>2012-05-27T14:20:50Z</time>
      </trkpt>
      <trkpt lat="45.47464" lon="5.13775">
        <ele>476.59997558594</ele>
        <time>2012-05-27T14:21:04Z</time>
      </trkpt>
      <trkpt lat="45.47446" lon="5.13765">
        <ele>476.90002441406</ele>
        <time>2012-05-27T14:21:16Z</time>
      </trkpt>
      <trkpt lat="45.47428" lon="5.13755">
        <ele>476.20001220703</ele>
        <time>2012-05-27T14:21:53Z</time>
      </trkpt>
      <trkpt lat="45.47409" lon="5.13746">
        <ele>476.70001220703</ele>
        <time>2012-05-27T14:22:07Z</time>
      </trkpt>
      <trkpt lat="45.47389" lon="5.13738">
        <ele>476.79998779297</ele>
        <time>2012-05-27T14:22:20Z</time>
      </trkpt>
      <trkpt lat="45.4737" lon="5.13729">
        <ele>477.29998779297</ele>
        <time>2012-05-27T14:22:32Z</time>
      </trkpt>
      <trkpt lat="45.47361" lon="5.13728">
        <ele>476.79998779297</ele>
        <time>2012-05-27T14:22:39Z</time>
      </trkpt>
      <trkpt lat="45.47351" lon="5.13726">
        <ele>477.29998779297</ele>
        <time>2012-05-27T14:22:46Z</time>
      </trkpt>
      <trkpt lat="45.47342" lon="5.13727">
        <ele>477.90002441406</ele>
        <time>2012-05-27T14:23:16Z</time>
      </trkpt>
      <trkpt lat="45.47324" lon="5.13733">
        <ele>475.5</ele>
        <time>2012-05-27T14:24:20Z</time>
      </trkpt>
      <trkpt lat="45.47314" lon="5.13735">
        <ele>475.70001220703</ele>
        <time>2012-05-27T14:24:27Z</time>
      </trkpt>
      <trkpt lat="45.47305" lon="5.13737">
        <ele>475.79998779297</ele>
        <time>2012-05-27T14:24:35Z</time>
      </trkpt>
      <trkpt lat="45.47295" lon="5.13739">
        <ele>475.79998779297</ele>
        <time>2012-05-27T14:24:42Z</time>
      </trkpt>
      <trkpt lat="45.47286" lon="5.13741">
        <ele>476.09997558594</ele>
        <time>2012-05-27T14:24:49Z</time>
      </trkpt>
      <trkpt lat="45.47275" lon="5.13744">
        <ele>476</ele>
        <time>2012-05-27T14:24:56Z</time>
      </trkpt>
      <trkpt lat="45.47266" lon="5.13746">
        <ele>476.29998779297</ele>
        <time>2012-05-27T14:25:02Z</time>
      </trkpt>
      <trkpt lat="45.47256" lon="5.13747">
        <ele>476.09997558594</ele>
        <time>2012-05-27T14:25:09Z</time>
      </trkpt>
      <trkpt lat="45.47247" lon="5.13748">
        <ele>476.70001220703</ele>
        <time>2012-05-27T14:25:16Z</time>
      </trkpt>
      <trkpt lat="45.47237" lon="5.1375">
        <ele>476.90002441406</ele>
        <time>2012-05-27T14:25:23Z</time>
      </trkpt>
      <trkpt lat="45.47228" lon="5.1375">
        <ele>477.20001220703</ele>
        <time>2012-05-27T14:25:30Z</time>
      </trkpt>
      <trkpt lat="45.47217" lon="5.13752">
        <ele>477.09997558594</ele>
        <time>2012-05-27T14:25:37Z</time>
      </trkpt>
      <trkpt lat="45.47197" lon="5.13751">
        <ele>477.90002441406</ele>
        <time>2012-05-27T14:25:52Z</time>
      </trkpt>
      <trkpt lat="45.47188" lon="5.13747">
        <ele>477.79998779297</ele>
        <time>2012-05-27T14:25:59Z</time>
      </trkpt>
      <trkpt lat="45.47179" lon="5.13745">
        <ele>478</ele>
        <time>2012-05-27T14:26:07Z</time>
      </trkpt>
      <trkpt lat="45.47159" lon="5.13749">
        <ele>479</ele>
        <time>2012-05-27T14:26:22Z</time>
      </trkpt>
      <trkpt lat="45.4715" lon="5.1375">
        <ele>479.40002441406</ele>
        <time>2012-05-27T14:26:28Z</time>
      </trkpt>
      <trkpt lat="45.47141" lon="5.13752">
        <ele>480.09997558594</ele>
        <time>2012-05-27T14:26:34Z</time>
      </trkpt>
      <trkpt lat="45.47132" lon="5.13754">
        <ele>480.70001220703</ele>
        <time>2012-05-27T14:26:41Z</time>
      </trkpt>
      <trkpt lat="45.47122" lon="5.13755">
        <ele>481</ele>
        <time>2012-05-27T14:26:48Z</time>
      </trkpt>
      <trkpt lat="45.47102" lon="5.13758">
        <ele>483.90002441406</ele>
        <time>2012-05-27T14:27:02Z</time>
      </trkpt>
      <trkpt lat="45.47092" lon="5.13761">
        <ele>484.40002441406</ele>
        <time>2012-05-27T14:27:09Z</time>
      </trkpt>
      <trkpt lat="45.47073" lon="5.13765">
        <ele>484.29998779297</ele>
        <time>2012-05-27T14:27:26Z</time>
      </trkpt>
      <trkpt lat="45.47064" lon="5.13769">
        <ele>485.09997558594</ele>
        <time>2012-05-27T14:27:32Z</time>
      </trkpt>
      <trkpt lat="45.47055" lon="5.13771">
        <ele>487.40002441406</ele>
        <time>2012-05-27T14:27:53Z</time>
      </trkpt>
      <trkpt lat="45.47047" lon="5.13774">
        <ele>488.20001220703</ele>
        <time>2012-05-27T14:28:04Z</time>
      </trkpt>
      <trkpt lat="45.47028" lon="5.13775">
        <ele>491.5</ele>
        <time>2012-05-27T14:28:24Z</time>
      </trkpt>
      <trkpt lat="45.47015" lon="5.13738">
        <ele>492.59997558594</ele>
        <time>2012-05-27T14:28:51Z</time>
      </trkpt>
      <trkpt lat="45.47023" lon="5.13698">
        <ele>492.70001220703</ele>
        <time>2012-05-27T14:29:16Z</time>
      </trkpt>
      <trkpt lat="45.47032" lon="5.13659">
        <ele>494.79998779297</ele>
        <time>2012-05-27T14:29:39Z</time>
      </trkpt>
      <trkpt lat="45.47036" lon="5.13631">
        <ele>495.70001220703</ele>
        <time>2012-05-27T14:29:53Z</time>
      </trkpt>
      <trkpt lat="45.47033" lon="5.13588">
        <ele>499</ele>
        <time>2012-05-27T14:30:10Z</time>
      </trkpt>
      <trkpt lat="45.47024" lon="5.13562">
        <ele>501.5</ele>
        <time>2012-05-27T14:30:23Z</time>
      </trkpt>
      <trkpt lat="45.4701" lon="5.13541">
        <ele>503.40002441406</ele>
        <time>2012-05-27T14:30:37Z</time>
      </trkpt>
      <trkpt lat="45.46996" lon="5.13523">
        <ele>503.79998779297</ele>
        <time>2012-05-27T14:30:52Z</time>
      </trkpt>
      <trkpt lat="45.46983" lon="5.13503">
        <ele>504.70001220703</ele>
        <time>2012-05-27T14:31:05Z</time>
      </trkpt>
      <trkpt lat="45.46964" lon="5.13468">
        <ele>506.5</ele>
        <time>2012-05-27T14:31:26Z</time>
      </trkpt>
      <trkpt lat="45.46951" lon="5.13448">
        <ele>505.79998779297</ele>
        <time>2012-05-27T14:31:41Z</time>
      </trkpt>
      <trkpt lat="45.46937" lon="5.13428">
        <ele>506.20001220703</ele>
        <time>2012-05-27T14:31:56Z</time>
      </trkpt>
      <trkpt lat="45.46926" lon="5.13406">
        <ele>506.20001220703</ele>
        <time>2012-05-27T14:32:09Z</time>
      </trkpt>
      <trkpt lat="45.46914" lon="5.13382">
        <ele>505.79998779297</ele>
        <time>2012-05-27T14:32:23Z</time>
      </trkpt>
      <trkpt lat="45.46901" lon="5.13362">
        <ele>506.79998779297</ele>
        <time>2012-05-27T14:32:37Z</time>
      </trkpt>
      <trkpt lat="45.46891" lon="5.13356">
        <ele>508</ele>
        <time>2012-05-27T14:32:44Z</time>
      </trkpt>
      <trkpt lat="45.46872" lon="5.13352">
        <ele>508.70001220703</ele>
        <time>2012-05-27T14:32:59Z</time>
      </trkpt>
      <trkpt lat="45.46853" lon="5.13351">
        <ele>509.79998779297</ele>
        <time>2012-05-27T14:33:13Z</time>
      </trkpt>
      <trkpt lat="45.46837" lon="5.13342">
        <ele>511.09997558594</ele>
        <time>2012-05-27T14:33:28Z</time>
      </trkpt>
      <trkpt lat="45.46832" lon="5.13316">
        <ele>511.59997558594</ele>
        <time>2012-05-27T14:33:44Z</time>
      </trkpt>
      <trkpt lat="45.46831" lon="5.13289">
        <ele>512.29998779297</ele>
        <time>2012-05-27T14:33:57Z</time>
      </trkpt>
      <trkpt lat="45.46831" lon="5.13275">
        <ele>512.90002441406</ele>
        <time>2012-05-27T14:34:04Z</time>
      </trkpt>
      <trkpt lat="45.46821" lon="5.13253">
        <ele>514.40002441406</ele>
        <time>2012-05-27T14:34:17Z</time>
      </trkpt>
      <trkpt lat="45.46812" lon="5.13252">
        <ele>514.79998779297</ele>
        <time>2012-05-27T14:34:24Z</time>
      </trkpt>
      <trkpt lat="45.46803" lon="5.13245">
        <ele>516.29998779297</ele>
        <time>2012-05-27T14:34:38Z</time>
      </trkpt>
      <trkpt lat="45.46786" lon="5.13233">
        <ele>517.79998779297</ele>
        <time>2012-05-27T14:34:53Z</time>
      </trkpt>
      <trkpt lat="45.46768" lon="5.13223">
        <ele>519.29998779297</ele>
        <time>2012-05-27T14:35:06Z</time>
      </trkpt>
      <trkpt lat="45.4676" lon="5.1322">
        <ele>520.09997558594</ele>
        <time>2012-05-27T14:35:12Z</time>
      </trkpt>
      <trkpt lat="45.4674" lon="5.13208">
        <ele>522.29998779297</ele>
        <time>2012-05-27T14:35:22Z</time>
      </trkpt>
      <trkpt lat="45.46731" lon="5.13203">
        <ele>524.80004882812</ele>
        <time>2012-05-27T14:35:28Z</time>
      </trkpt>
      <trkpt lat="45.46721" lon="5.13198">
        <ele>525.90002441406</ele>
        <time>2012-05-27T14:35:35Z</time>
      </trkpt>
      <trkpt lat="45.46712" lon="5.13195">
        <ele>527.30004882812</ele>
        <time>2012-05-27T14:35:42Z</time>
      </trkpt>
      <trkpt lat="45.46704" lon="5.1319">
        <ele>528.59997558594</ele>
        <time>2012-05-27T14:35:49Z</time>
      </trkpt>
      <trkpt lat="45.46694" lon="5.13186">
        <ele>529.40002441406</ele>
        <time>2012-05-27T14:35:57Z</time>
      </trkpt>
      <trkpt lat="45.46684" lon="5.13182">
        <ele>529.80004882812</ele>
        <time>2012-05-27T14:36:04Z</time>
      </trkpt>
      <trkpt lat="45.46674" lon="5.13179">
        <ele>529.80004882812</ele>
        <time>2012-05-27T14:36:11Z</time>
      </trkpt>
      <trkpt lat="45.46664" lon="5.13175">
        <ele>529.90002441406</ele>
        <time>2012-05-27T14:36:18Z</time>
      </trkpt>
      <trkpt lat="45.46655" lon="5.13172">
        <ele>529.80004882812</ele>
        <time>2012-05-27T14:36:25Z</time>
      </trkpt>
      <trkpt lat="45.46645" lon="5.13169">
        <ele>529.59997558594</ele>
        <time>2012-05-27T14:36:32Z</time>
      </trkpt>
      <trkpt lat="45.46635" lon="5.13164">
        <ele>529.19995117188</ele>
        <time>2012-05-27T14:36:40Z</time>
      </trkpt>
      <trkpt lat="45.46626" lon="5.1316">
        <ele>528.5</ele>
        <time>2012-05-27T14:36:48Z</time>
      </trkpt>
      <trkpt lat="45.46616" lon="5.13156">
        <ele>527.90002441406</ele>
        <time>2012-05-27T14:36:55Z</time>
      </trkpt>
      <trkpt lat="45.46606" lon="5.13152">
        <ele>527.19995117188</ele>
        <time>2012-05-27T14:37:02Z</time>
      </trkpt>
      <trkpt lat="45.46597" lon="5.13148">
        <ele>526.30004882812</ele>
        <time>2012-05-27T14:37:09Z</time>
      </trkpt>
      <trkpt lat="45.46588" lon="5.13142">
        <ele>525.30004882812</ele>
        <time>2012-05-27T14:37:16Z</time>
      </trkpt>
      <trkpt lat="45.46578" lon="5.13138">
        <ele>524.40002441406</ele>
        <time>2012-05-27T14:37:23Z</time>
      </trkpt>
      <trkpt lat="45.46569" lon="5.13133">
        <ele>523.70001220703</ele>
        <time>2012-05-27T14:37:30Z</time>
      </trkpt>
      <trkpt lat="45.46559" lon="5.13129">
        <ele>522.79998779297</ele>
        <time>2012-05-27T14:37:37Z</time>
      </trkpt>
      <trkpt lat="45.46549" lon="5.13124">
        <ele>521.70001220703</ele>
        <time>2012-05-27T14:37:44Z</time>
      </trkpt>
      <trkpt lat="45.46541" lon="5.1312">
        <ele>520.5</ele>
        <time>2012-05-27T14:37:51Z</time>
      </trkpt>
      <trkpt lat="45.46531" lon="5.13116">
        <ele>519.29998779297</ele>
        <time>2012-05-27T14:37:58Z</time>
      </trkpt>
      <trkpt lat="45.46522" lon="5.13112">
        <ele>518.40002441406</ele>
        <time>2012-05-27T14:38:05Z</time>
      </trkpt>
      <trkpt lat="45.46512" lon="5.13107">
        <ele>517.29998779297</ele>
        <time>2012-05-27T14:38:12Z</time>
      </trkpt>
      <trkpt lat="45.46503" lon="5.13102">
        <ele>516.59997558594</ele>
        <time>2012-05-27T14:38:18Z</time>
      </trkpt>
      <trkpt lat="45.46493" lon="5.13098">
        <ele>515.70001220703</ele>
        <time>2012-05-27T14:38:25Z</time>
      </trkpt>
      <trkpt lat="45.46484" lon="5.13093">
        <ele>514.40002441406</ele>
        <time>2012-05-27T14:38:32Z</time>
      </trkpt>
      <trkpt lat="45.46475" lon="5.13089">
        <ele>513.20001220703</ele>
        <time>2012-05-27T14:38:39Z</time>
      </trkpt>
      <trkpt lat="45.46466" lon="5.13083">
        <ele>511.70001220703</ele>
        <time>2012-05-27T14:38:47Z</time>
      </trkpt>
      <trkpt lat="45.46456" lon="5.13077">
        <ele>509.70001220703</ele>
        <time>2012-05-27T14:38:55Z</time>
      </trkpt>
      <trkpt lat="45.46448" lon="5.1307">
        <ele>508.90002441406</ele>
        <time>2012-05-27T14:39:03Z</time>
      </trkpt>
      <trkpt lat="45.4644" lon="5.13062">
        <ele>508.5</ele>
        <time>2012-05-27T14:39:10Z</time>
      </trkpt>
      <trkpt lat="45.46433" lon="5.13054">
        <ele>507.79998779297</ele>
        <time>2012-05-27T14:39:17Z</time>
      </trkpt>
      <trkpt lat="45.46425" lon="5.13045">
        <ele>506.90002441406</ele>
        <time>2012-05-27T14:39:25Z</time>
      </trkpt>
      <trkpt lat="45.46411" lon="5.13028">
        <ele>504.70001220703</ele>
        <time>2012-05-27T14:39:42Z</time>
      </trkpt>
      <trkpt lat="45.46396" lon="5.13011">
        <ele>503.59997558594</ele>
        <time>2012-05-27T14:39:58Z</time>
      </trkpt>
      <trkpt lat="45.46381" lon="5.12995">
        <ele>500.59997558594</ele>
        <time>2012-05-27T14:40:11Z</time>
      </trkpt>
      <trkpt lat="45.46363" lon="5.12984">
        <ele>497.5</ele>
        <time>2012-05-27T14:40:26Z</time>
      </trkpt>
      <trkpt lat="45.46345" lon="5.12978">
        <ele>493.20001220703</ele>
        <time>2012-05-27T14:40:42Z</time>
      </trkpt>
      <trkpt lat="45.46325" lon="5.12975">
        <ele>486.5</ele>
        <time>2012-05-27T14:41:00Z</time>
      </trkpt>
      <trkpt lat="45.46315" lon="5.12977">
        <ele>483.5</ele>
        <time>2012-05-27T14:41:09Z</time>
      </trkpt>
      <trkpt lat="45.46306" lon="5.12982">
        <ele>480.90002441406</ele>
        <time>2012-05-27T14:41:17Z</time>
      </trkpt>
      <trkpt lat="45.46301" lon="5.1297">
        <ele>478.79998779297</ele>
        <time>2012-05-27T14:41:27Z</time>
      </trkpt>
      <trkpt lat="45.4631" lon="5.12945">
        <ele>480</ele>
        <time>2012-05-27T14:41:37Z</time>
      </trkpt>
      <trkpt lat="45.46323" lon="5.12925">
        <ele>479.79998779297</ele>
        <time>2012-05-27T14:41:43Z</time>
      </trkpt>
      <trkpt lat="45.46336" lon="5.12904">
        <ele>478.5</ele>
        <time>2012-05-27T14:41:50Z</time>
      </trkpt>
      <trkpt lat="45.46334" lon="5.12891">
        <ele>478.20001220703</ele>
        <time>2012-05-27T14:41:59Z</time>
      </trkpt>
      <trkpt lat="45.46328" lon="5.12881">
        <ele>478.20001220703</ele>
        <time>2012-05-27T14:42:07Z</time>
      </trkpt>
      <trkpt lat="45.46321" lon="5.1287">
        <ele>477.59997558594</ele>
        <time>2012-05-27T14:42:16Z</time>
      </trkpt>
      <trkpt lat="45.46312" lon="5.12872">
        <ele>476.09997558594</ele>
        <time>2012-05-27T14:42:27Z</time>
      </trkpt>
      <trkpt lat="45.46307" lon="5.12884">
        <ele>474.40002441406</ele>
        <time>2012-05-27T14:42:45Z</time>
      </trkpt>
      <trkpt lat="45.46301" lon="5.12895">
        <ele>471.59997558594</ele>
        <time>2012-05-27T14:43:22Z</time>
      </trkpt>
      <trkpt lat="45.46293" lon="5.12904">
        <ele>471</ele>
        <time>2012-05-27T14:43:30Z</time>
      </trkpt>
      <trkpt lat="45.46286" lon="5.12912">
        <ele>470.70001220703</ele>
        <time>2012-05-27T14:43:37Z</time>
      </trkpt>
      <trkpt lat="45.46278" lon="5.1292">
        <ele>470</ele>
        <time>2012-05-27T14:43:44Z</time>
      </trkpt>
      <trkpt lat="45.4626" lon="5.12932">
        <ele>469.29998779297</ele>
        <time>2012-05-27T14:43:59Z</time>
      </trkpt>
      <trkpt lat="45.46252" lon="5.1294">
        <ele>469.20001220703</ele>
        <time>2012-05-27T14:44:06Z</time>
      </trkpt>
      <trkpt lat="45.46243" lon="5.12947">
        <ele>469.70001220703</ele>
        <time>2012-05-27T14:44:13Z</time>
      </trkpt>
      <trkpt lat="45.46227" lon="5.12963">
        <ele>465</ele>
        <time>2012-05-27T14:44:29Z</time>
      </trkpt>
      <trkpt lat="45.46219" lon="5.12968">
        <ele>462.59997558594</ele>
        <time>2012-05-27T14:44:36Z</time>
      </trkpt>
      <trkpt lat="45.462" lon="5.12967">
        <ele>459.29998779297</ele>
        <time>2012-05-27T14:44:51Z</time>
      </trkpt>
      <trkpt lat="45.46191" lon="5.12961">
        <ele>458.70001220703</ele>
        <time>2012-05-27T14:44:58Z</time>
      </trkpt>
      <trkpt lat="45.46181" lon="5.12955">
        <ele>458.20001220703</ele>
        <time>2012-05-27T14:45:05Z</time>
      </trkpt>
      <trkpt lat="45.46165" lon="5.1294">
        <ele>457</ele>
        <time>2012-05-27T14:45:16Z</time>
      </trkpt>
      <trkpt lat="45.46156" lon="5.12933">
        <ele>456.20001220703</ele>
        <time>2012-05-27T14:45:22Z</time>
      </trkpt>
      <trkpt lat="45.46146" lon="5.12925">
        <ele>455.90002441406</ele>
        <time>2012-05-27T14:45:28Z</time>
      </trkpt>
      <trkpt lat="45.46127" lon="5.12921">
        <ele>456.20001220703</ele>
        <time>2012-05-27T14:45:37Z</time>
      </trkpt>
      <trkpt lat="45.46106" lon="5.12918">
        <ele>456.79998779297</ele>
        <time>2012-05-27T14:45:48Z</time>
      </trkpt>
      <trkpt lat="45.46088" lon="5.12912">
        <ele>457.70001220703</ele>
        <time>2012-05-27T14:46:00Z</time>
      </trkpt>
      <trkpt lat="45.46079" lon="5.12888">
        <ele>459.70001220703</ele>
        <time>2012-05-27T14:46:20Z</time>
      </trkpt>
      <trkpt lat="45.46074" lon="5.12876">
        <ele>460.09997558594</ele>
        <time>2012-05-27T14:46:26Z</time>
      </trkpt>
      <trkpt lat="45.46064" lon="5.12852">
        <ele>463.29998779297</ele>
        <time>2012-05-27T14:46:39Z</time>
      </trkpt>
      <trkpt lat="45.46061" lon="5.12838">
        <ele>464.59997558594</ele>
        <time>2012-05-27T14:46:50Z</time>
      </trkpt>
      <trkpt lat="45.46062" lon="5.12824">
        <ele>464.09997558594</ele>
        <time>2012-05-27T14:46:55Z</time>
      </trkpt>
      <trkpt lat="45.46062" lon="5.1281">
        <ele>463.70001220703</ele>
        <time>2012-05-27T14:46:59Z</time>
      </trkpt>
      <trkpt lat="45.46065" lon="5.1278">
        <ele>461.70001220703</ele>
        <time>2012-05-27T14:47:11Z</time>
      </trkpt>
      <trkpt lat="45.46066" lon="5.12766">
        <ele>461</ele>
        <time>2012-05-27T14:47:17Z</time>
      </trkpt>
      <trkpt lat="45.46066" lon="5.12753">
        <ele>462.20001220703</ele>
        <time>2012-05-27T14:47:22Z</time>
      </trkpt>
      <trkpt lat="45.46068" lon="5.12739">
        <ele>463.40002441406</ele>
        <time>2012-05-27T14:47:29Z</time>
      </trkpt>
      <trkpt lat="45.46069" lon="5.12726">
        <ele>463.29998779297</ele>
        <time>2012-05-27T14:47:36Z</time>
      </trkpt>
      <trkpt lat="45.46071" lon="5.12712">
        <ele>462.90002441406</ele>
        <time>2012-05-27T14:47:43Z</time>
      </trkpt>
      <trkpt lat="45.46072" lon="5.12698">
        <ele>463.09997558594</ele>
        <time>2012-05-27T14:47:51Z</time>
      </trkpt>
      <trkpt lat="45.46076" lon="5.12686">
        <ele>462.90002441406</ele>
        <time>2012-05-27T14:48:00Z</time>
      </trkpt>
      <trkpt lat="45.46084" lon="5.12659">
        <ele>459.09997558594</ele>
        <time>2012-05-27T14:48:17Z</time>
      </trkpt>
      <trkpt lat="45.46091" lon="5.1265">
        <ele>459.79998779297</ele>
        <time>2012-05-27T14:48:23Z</time>
      </trkpt>
      <trkpt lat="45.46097" lon="5.1264">
        <ele>460.59997558594</ele>
        <time>2012-05-27T14:48:29Z</time>
      </trkpt>
      <trkpt lat="45.46105" lon="5.12614">
        <ele>460.70001220703</ele>
        <time>2012-05-27T14:48:41Z</time>
      </trkpt>
      <trkpt lat="45.46108" lon="5.12586">
        <ele>458.29998779297</ele>
        <time>2012-05-27T14:48:54Z</time>
      </trkpt>
      <trkpt lat="45.46108" lon="5.1256">
        <ele>457.90002441406</ele>
        <time>2012-05-27T14:49:06Z</time>
      </trkpt>
      <trkpt lat="45.46108" lon="5.12532">
        <ele>459</ele>
        <time>2012-05-27T14:49:16Z</time>
      </trkpt>
      <trkpt lat="45.4611" lon="5.12519">
        <ele>458.59997558594</ele>
        <time>2012-05-27T14:49:21Z</time>
      </trkpt>
      <trkpt lat="45.46117" lon="5.1249">
        <ele>458.09997558594</ele>
        <time>2012-05-27T14:49:35Z</time>
      </trkpt>
      <trkpt lat="45.46127" lon="5.12468">
        <ele>459.5</ele>
        <time>2012-05-27T14:49:53Z</time>
      </trkpt>
      <trkpt lat="45.46139" lon="5.12447">
        <ele>457.09997558594</ele>
        <time>2012-05-27T14:50:11Z</time>
      </trkpt>
      <trkpt lat="45.46142" lon="5.12418">
        <ele>456.5</ele>
        <time>2012-05-27T14:50:31Z</time>
      </trkpt>
      <trkpt lat="45.46149" lon="5.12395">
        <ele>453.70001220703</ele>
        <time>2012-05-27T14:50:41Z</time>
      </trkpt>
      <trkpt lat="45.46156" lon="5.12368">
        <ele>452.40002441406</ele>
        <time>2012-05-27T14:50:53Z</time>
      </trkpt>
      <trkpt lat="45.46167" lon="5.12327">
        <ele>456.90002441406</ele>
        <time>2012-05-27T14:51:08Z</time>
      </trkpt>
      <trkpt lat="45.46179" lon="5.12306">
        <ele>457.59997558594</ele>
        <time>2012-05-27T14:51:18Z</time>
      </trkpt>
      <trkpt lat="45.46194" lon="5.12284">
        <ele>458.40002441406</ele>
        <time>2012-05-27T14:51:29Z</time>
      </trkpt>
      <trkpt lat="45.46198" lon="5.12256">
        <ele>460.29998779297</ele>
        <time>2012-05-27T14:51:42Z</time>
      </trkpt>
      <trkpt lat="45.46193" lon="5.12228">
        <ele>455.5</ele>
        <time>2012-05-27T14:51:55Z</time>
      </trkpt>
      <trkpt lat="45.46189" lon="5.12202">
        <ele>453</ele>
        <time>2012-05-27T14:52:09Z</time>
      </trkpt>
      <trkpt lat="45.46187" lon="5.12175">
        <ele>453.90002441406</ele>
        <time>2012-05-27T14:52:26Z</time>
      </trkpt>
      <trkpt lat="45.46186" lon="5.12148">
        <ele>456.70001220703</ele>
        <time>2012-05-27T14:52:41Z</time>
      </trkpt>
      <trkpt lat="45.46187" lon="5.12122">
        <ele>463.90002441406</ele>
        <time>2012-05-27T14:52:52Z</time>
      </trkpt>
      <trkpt lat="45.46193" lon="5.12094">
        <ele>465.79998779297</ele>
        <time>2012-05-27T14:53:06Z</time>
      </trkpt>
      <trkpt lat="45.46196" lon="5.12067">
        <ele>464.29998779297</ele>
        <time>2012-05-27T14:53:18Z</time>
      </trkpt>
      <trkpt lat="45.46196" lon="5.1204">
        <ele>462.90002441406</ele>
        <time>2012-05-27T14:53:32Z</time>
      </trkpt>
      <trkpt lat="45.46194" lon="5.12012">
        <ele>461.20001220703</ele>
        <time>2012-05-27T14:53:45Z</time>
      </trkpt>
      <trkpt lat="45.46202" lon="5.12004">
        <ele>460.20001220703</ele>
        <time>2012-05-27T14:53:53Z</time>
      </trkpt>
      <trkpt lat="45.4621" lon="5.11995">
        <ele>461.5</ele>
        <time>2012-05-27T14:54:00Z</time>
      </trkpt>
      <trkpt lat="45.46217" lon="5.11986">
        <ele>460.20001220703</ele>
        <time>2012-05-27T14:54:07Z</time>
      </trkpt>
      <trkpt lat="45.4623" lon="5.11967">
        <ele>457.5</ele>
        <time>2012-05-27T14:54:27Z</time>
      </trkpt>
      <trkpt lat="45.46237" lon="5.1196">
        <ele>457.20001220703</ele>
        <time>2012-05-27T14:54:34Z</time>
      </trkpt>
      <trkpt lat="45.46254" lon="5.11945">
        <ele>457.70001220703</ele>
        <time>2012-05-27T14:54:46Z</time>
      </trkpt>
      <trkpt lat="45.46269" lon="5.11931">
        <ele>457.90002441406</ele>
        <time>2012-05-27T14:54:59Z</time>
      </trkpt>
      <trkpt lat="45.46286" lon="5.11914">
        <ele>456.29998779297</ele>
        <time>2012-05-27T14:55:13Z</time>
      </trkpt>
      <trkpt lat="45.46295" lon="5.1189">
        <ele>455.79998779297</ele>
        <time>2012-05-27T14:55:27Z</time>
      </trkpt>
      <trkpt lat="45.46309" lon="5.11868">
        <ele>455.79998779297</ele>
        <time>2012-05-27T14:55:35Z</time>
      </trkpt>
      <trkpt lat="45.46323" lon="5.11847">
        <ele>456.79998779297</ele>
        <time>2012-05-27T14:55:46Z</time>
      </trkpt>
      <trkpt lat="45.46338" lon="5.11831">
        <ele>454.70001220703</ele>
        <time>2012-05-27T14:56:00Z</time>
      </trkpt>
      <trkpt lat="45.46357" lon="5.11823">
        <ele>452.29998779297</ele>
        <time>2012-05-27T14:56:11Z</time>
      </trkpt>
      <trkpt lat="45.46375" lon="5.11813">
        <ele>450.70001220703</ele>
        <time>2012-05-27T14:56:21Z</time>
      </trkpt>
      <trkpt lat="45.46393" lon="5.11802">
        <ele>449.79998779297</ele>
        <time>2012-05-27T14:56:34Z</time>
      </trkpt>
      <trkpt lat="45.46411" lon="5.11791">
        <ele>448.5</ele>
        <time>2012-05-27T14:56:44Z</time>
      </trkpt>
      <trkpt lat="45.46429" lon="5.11779">
        <ele>448.29998779297</ele>
        <time>2012-05-27T14:56:55Z</time>
      </trkpt>
      <trkpt lat="45.46444" lon="5.1176">
        <ele>444.5</ele>
        <time>2012-05-27T14:57:09Z</time>
      </trkpt>
      <trkpt lat="45.46461" lon="5.11743">
        <ele>443.40002441406</ele>
        <time>2012-05-27T14:57:22Z</time>
      </trkpt>
      <trkpt lat="45.46477" lon="5.11726">
        <ele>442.59997558594</ele>
        <time>2012-05-27T14:57:31Z</time>
      </trkpt>
      <trkpt lat="45.46494" lon="5.11711">
        <ele>443.40002441406</ele>
        <time>2012-05-27T14:57:44Z</time>
      </trkpt>
      <trkpt lat="45.46512" lon="5.11701">
        <ele>441.20001220703</ele>
        <time>2012-05-27T14:58:01Z</time>
      </trkpt>
      <trkpt lat="45.4653" lon="5.11689">
        <ele>441.90002441406</ele>
        <time>2012-05-27T14:58:13Z</time>
      </trkpt>
      <trkpt lat="45.46546" lon="5.11671">
        <ele>440.90002441406</ele>
        <time>2012-05-27T14:58:24Z</time>
      </trkpt>
      <trkpt lat="45.46561" lon="5.11653">
        <ele>441.70001220703</ele>
        <time>2012-05-27T14:58:34Z</time>
      </trkpt>
      <trkpt lat="45.46572" lon="5.11631">
        <ele>441.20001220703</ele>
        <time>2012-05-27T14:58:46Z</time>
      </trkpt>
      <trkpt lat="45.46583" lon="5.11607">
        <ele>442</ele>
        <time>2012-05-27T14:58:55Z</time>
      </trkpt>
      <trkpt lat="45.46597" lon="5.11589">
        <ele>445.09997558594</ele>
        <time>2012-05-27T14:59:03Z</time>
      </trkpt>
      <trkpt lat="45.46614" lon="5.11573">
        <ele>448.40002441406</ele>
        <time>2012-05-27T14:59:14Z</time>
      </trkpt>
      <trkpt lat="45.46631" lon="5.11561">
        <ele>448.5</ele>
        <time>2012-05-27T14:59:28Z</time>
      </trkpt>
      <trkpt lat="45.46647" lon="5.11541">
        <ele>444.20001220703</ele>
        <time>2012-05-27T14:59:42Z</time>
      </trkpt>
      <trkpt lat="45.46665" lon="5.1153">
        <ele>446.40002441406</ele>
        <time>2012-05-27T14:59:56Z</time>
      </trkpt>
      <trkpt lat="45.46672" lon="5.11521">
        <ele>446.20001220703</ele>
        <time>2012-05-27T15:01:19Z</time>
      </trkpt>
      <trkpt lat="45.46679" lon="5.11515">
        <ele>443.59997558594</ele>
        <time>2012-05-27T15:01:29Z</time>
      </trkpt>
      <trkpt lat="45.46687" lon="5.11508">
        <ele>438.79998779297</ele>
        <time>2012-05-27T15:01:39Z</time>
      </trkpt>
      <trkpt lat="45.46697" lon="5.11504">
        <ele>437.40002441406</ele>
        <time>2012-05-27T15:01:46Z</time>
      </trkpt>
      <trkpt lat="45.46707" lon="5.11502">
        <ele>436.90002441406</ele>
        <time>2012-05-27T15:01:52Z</time>
      </trkpt>
      <trkpt lat="45.46716" lon="5.115">
        <ele>435.90002441406</ele>
        <time>2012-05-27T15:02:01Z</time>
      </trkpt>
      <trkpt lat="45.46725" lon="5.11498">
        <ele>434.40002441406</ele>
        <time>2012-05-27T15:02:10Z</time>
      </trkpt>
      <trkpt lat="45.46735" lon="5.11492">
        <ele>434.5</ele>
        <time>2012-05-27T15:02:16Z</time>
      </trkpt>
      <trkpt lat="45.46742" lon="5.11481">
        <ele>434.09997558594</ele>
        <time>2012-05-27T15:02:23Z</time>
      </trkpt>
      <trkpt lat="45.46747" lon="5.11469">
        <ele>433.5</ele>
        <time>2012-05-27T15:02:29Z</time>
      </trkpt>
      <trkpt lat="45.46753" lon="5.11457">
        <ele>432</ele>
        <time>2012-05-27T15:02:36Z</time>
      </trkpt>
      <trkpt lat="45.46757" lon="5.11444">
        <ele>431.70001220703</ele>
        <time>2012-05-27T15:02:43Z</time>
      </trkpt>
      <trkpt lat="45.46762" lon="5.11431">
        <ele>430.90002441406</ele>
        <time>2012-05-27T15:02:51Z</time>
      </trkpt>
      <trkpt lat="45.46761" lon="5.11417">
        <ele>430.20001220703</ele>
        <time>2012-05-27T15:02:58Z</time>
      </trkpt>
      <trkpt lat="45.46763" lon="5.11403">
        <ele>430.90002441406</ele>
        <time>2012-05-27T15:03:08Z</time>
      </trkpt>
      <trkpt lat="45.46769" lon="5.11392">
        <ele>436</ele>
        <time>2012-05-27T15:03:34Z</time>
      </trkpt>
      <trkpt lat="45.46774" lon="5.11381">
        <ele>436.40002441406</ele>
        <time>2012-05-27T15:03:40Z</time>
      </trkpt>
      <trkpt lat="45.46779" lon="5.11368">
        <ele>435.5</ele>
        <time>2012-05-27T15:03:47Z</time>
      </trkpt>
      <trkpt lat="45.46783" lon="5.11355">
        <ele>434.29998779297</ele>
        <time>2012-05-27T15:03:54Z</time>
      </trkpt>
      <trkpt lat="45.46786" lon="5.11343">
        <ele>433.79998779297</ele>
        <time>2012-05-27T15:04:01Z</time>
      </trkpt>
      <trkpt lat="45.46788" lon="5.11328">
        <ele>433.20001220703</ele>
        <time>2012-05-27T15:04:08Z</time>
      </trkpt>
      <trkpt lat="45.4679" lon="5.11314">
        <ele>432.20001220703</ele>
        <time>2012-05-27T15:04:15Z</time>
      </trkpt>
      <trkpt lat="45.46791" lon="5.11301">
        <ele>432.20001220703</ele>
        <time>2012-05-27T15:04:22Z</time>
      </trkpt>
      <trkpt lat="45.46794" lon="5.11287">
        <ele>430.79998779297</ele>
        <time>2012-05-27T15:04:29Z</time>
      </trkpt>
      <trkpt lat="45.46795" lon="5.11273">
        <ele>430.59997558594</ele>
        <time>2012-05-27T15:04:34Z</time>
      </trkpt>
      <trkpt lat="45.46796" lon="5.1126">
        <ele>430.40002441406</ele>
        <time>2012-05-27T15:04:39Z</time>
      </trkpt>
      <trkpt lat="45.46796" lon="5.11245">
        <ele>431.29998779297</ele>
        <time>2012-05-27T15:04:42Z</time>
      </trkpt>
      <trkpt lat="45.46797" lon="5.11232">
        <ele>431.29998779297</ele>
        <time>2012-05-27T15:04:44Z</time>
      </trkpt>
      <trkpt lat="45.46798" lon="5.11219">
        <ele>431.20001220703</ele>
        <time>2012-05-27T15:04:46Z</time>
      </trkpt>
      <trkpt lat="45.46798" lon="5.11206">
        <ele>431</ele>
        <time>2012-05-27T15:04:48Z</time>
      </trkpt>
      <trkpt lat="45.46798" lon="5.11193">
        <ele>431</ele>
        <time>2012-05-27T15:04:50Z</time>
      </trkpt>
      <trkpt lat="45.46797" lon="5.11177">
        <ele>430.90002441406</ele>
        <time>2012-05-27T15:04:52Z</time>
      </trkpt>
      <trkpt lat="45.46796" lon="5.11162">
        <ele>431.29998779297</ele>
        <time>2012-05-27T15:04:54Z</time>
      </trkpt>
      <trkpt lat="45.46795" lon="5.11147">
        <ele>431.40002441406</ele>
        <time>2012-05-27T15:04:56Z</time>
      </trkpt>
      <trkpt lat="45.46793" lon="5.11132">
        <ele>431.29998779297</ele>
        <time>2012-05-27T15:04:58Z</time>
      </trkpt>
      <trkpt lat="45.46791" lon="5.11116">
        <ele>431</ele>
        <time>2012-05-27T15:05:00Z</time>
      </trkpt>
      <trkpt lat="45.46788" lon="5.11102">
        <ele>430.79998779297</ele>
        <time>2012-05-27T15:05:02Z</time>
      </trkpt>
      <trkpt lat="45.46786" lon="5.11087">
        <ele>430.79998779297</ele>
        <time>2012-05-27T15:05:04Z</time>
      </trkpt>
      <trkpt lat="45.46784" lon="5.11072">
        <ele>430.70001220703</ele>
        <time>2012-05-27T15:05:06Z</time>
      </trkpt>
      <trkpt lat="45.46783" lon="5.11057">
        <ele>430.90002441406</ele>
        <time>2012-05-27T15:05:08Z</time>
      </trkpt>
      <trkpt lat="45.46782" lon="5.11044">
        <ele>430.70001220703</ele>
        <time>2012-05-27T15:05:10Z</time>
      </trkpt>
      <trkpt lat="45.4678" lon="5.11026">
        <ele>430.29998779297</ele>
        <time>2012-05-27T15:05:13Z</time>
      </trkpt>
      <trkpt lat="45.46779" lon="5.11013">
        <ele>429.29998779297</ele>
        <time>2012-05-27T15:05:18Z</time>
      </trkpt>
      <trkpt lat="45.46779" lon="5.11">
        <ele>429</ele>
        <time>2012-05-27T15:05:25Z</time>
      </trkpt>
      <trkpt lat="45.4678" lon="5.10986">
        <ele>428.59997558594</ele>
        <time>2012-05-27T15:05:32Z</time>
      </trkpt>
      <trkpt lat="45.46782" lon="5.10973">
        <ele>428.90002441406</ele>
        <time>2012-05-27T15:05:38Z</time>
      </trkpt>
      <trkpt lat="45.46786" lon="5.1096">
        <ele>428.70001220703</ele>
        <time>2012-05-27T15:05:45Z</time>
      </trkpt>
      <trkpt lat="45.4679" lon="5.10948">
        <ele>428.70001220703</ele>
        <time>2012-05-27T15:05:51Z</time>
      </trkpt>
      <trkpt lat="45.46794" lon="5.10936">
        <ele>429.79998779297</ele>
        <time>2012-05-27T15:05:58Z</time>
      </trkpt>
      <trkpt lat="45.468" lon="5.10925">
        <ele>430.20001220703</ele>
        <time>2012-05-27T15:06:05Z</time>
      </trkpt>
      <trkpt lat="45.46806" lon="5.10916">
        <ele>430.90002441406</ele>
        <time>2012-05-27T15:06:12Z</time>
      </trkpt>
      <trkpt lat="45.46813" lon="5.10906">
        <ele>431.70001220703</ele>
        <time>2012-05-27T15:06:20Z</time>
      </trkpt>
      <trkpt lat="45.4682" lon="5.10896">
        <ele>432.59997558594</ele>
        <time>2012-05-27T15:06:27Z</time>
      </trkpt>
      <trkpt lat="45.46828" lon="5.10889">
        <ele>433.5</ele>
        <time>2012-05-27T15:06:33Z</time>
      </trkpt>
      <trkpt lat="45.46835" lon="5.10878">
        <ele>434.5</ele>
        <time>2012-05-27T15:06:40Z</time>
      </trkpt>
      <trkpt lat="45.46841" lon="5.10867">
        <ele>435.79998779297</ele>
        <time>2012-05-27T15:06:46Z</time>
      </trkpt>
      <trkpt lat="45.46847" lon="5.10858">
        <ele>435.59997558594</ele>
        <time>2012-05-27T15:06:52Z</time>
      </trkpt>
      <trkpt lat="45.46852" lon="5.10846">
        <ele>435.79998779297</ele>
        <time>2012-05-27T15:07:00Z</time>
      </trkpt>
      <trkpt lat="45.46858" lon="5.10834">
        <ele>437.59997558594</ele>
        <time>2012-05-27T15:07:08Z</time>
      </trkpt>
      <trkpt lat="45.46865" lon="5.10824">
        <ele>437.90002441406</ele>
        <time>2012-05-27T15:07:15Z</time>
      </trkpt>
      <trkpt lat="45.4687" lon="5.10813">
        <ele>438.20001220703</ele>
        <time>2012-05-27T15:07:21Z</time>
      </trkpt>
      <trkpt lat="45.46875" lon="5.10802">
        <ele>438.09997558594</ele>
        <time>2012-05-27T15:07:27Z</time>
      </trkpt>
      <trkpt lat="45.46881" lon="5.1079">
        <ele>438.70001220703</ele>
        <time>2012-05-27T15:07:34Z</time>
      </trkpt>
      <trkpt lat="45.46886" lon="5.10777">
        <ele>440.29998779297</ele>
        <time>2012-05-27T15:07:41Z</time>
      </trkpt>
      <trkpt lat="45.4689" lon="5.10764">
        <ele>441.70001220703</ele>
        <time>2012-05-27T15:07:48Z</time>
      </trkpt>
      <trkpt lat="45.46894" lon="5.10752">
        <ele>443.40002441406</ele>
        <time>2012-05-27T15:07:55Z</time>
      </trkpt>
      <trkpt lat="45.46898" lon="5.1074">
        <ele>444.5</ele>
        <time>2012-05-27T15:08:02Z</time>
      </trkpt>
      <trkpt lat="45.46901" lon="5.10728">
        <ele>445.79998779297</ele>
        <time>2012-05-27T15:08:08Z</time>
      </trkpt>
      <trkpt lat="45.46906" lon="5.10701">
        <ele>447.79998779297</ele>
        <time>2012-05-27T15:08:21Z</time>
      </trkpt>
      <trkpt lat="45.46908" lon="5.10688">
        <ele>447.29998779297</ele>
        <time>2012-05-27T15:08:27Z</time>
      </trkpt>
      <trkpt lat="45.4691" lon="5.10674">
        <ele>447</ele>
        <time>2012-05-27T15:08:33Z</time>
      </trkpt>
      <trkpt lat="45.46912" lon="5.1066">
        <ele>446.40002441406</ele>
        <time>2012-05-27T15:08:40Z</time>
      </trkpt>
      <trkpt lat="45.46912" lon="5.10643">
        <ele>447.20001220703</ele>
        <time>2012-05-27T15:08:45Z</time>
      </trkpt>
      <trkpt lat="45.46913" lon="5.1063">
        <ele>447.79998779297</ele>
        <time>2012-05-27T15:08:48Z</time>
      </trkpt>
      <trkpt lat="45.46913" lon="5.10615">
        <ele>448.20001220703</ele>
        <time>2012-05-27T15:08:52Z</time>
      </trkpt>
      <trkpt lat="45.46914" lon="5.10602">
        <ele>448.70001220703</ele>
        <time>2012-05-27T15:08:58Z</time>
      </trkpt>
      <trkpt lat="45.46916" lon="5.10589">
        <ele>449.5</ele>
        <time>2012-05-27T15:09:05Z</time>
      </trkpt>
      <trkpt lat="45.46922" lon="5.10564">
        <ele>451.29998779297</ele>
        <time>2012-05-27T15:09:21Z</time>
      </trkpt>
      <trkpt lat="45.4693" lon="5.10537">
        <ele>450.90002441406</ele>
        <time>2012-05-27T15:09:36Z</time>
      </trkpt>
      <trkpt lat="45.46937" lon="5.10508">
        <ele>452.90002441406</ele>
        <time>2012-05-27T15:09:47Z</time>
      </trkpt>
      <trkpt lat="45.46943" lon="5.10496">
        <ele>454</ele>
        <time>2012-05-27T15:09:51Z</time>
      </trkpt>
      <trkpt lat="45.46951" lon="5.10486">
        <ele>454.79998779297</ele>
        <time>2012-05-27T15:09:57Z</time>
      </trkpt>
      <trkpt lat="45.46958" lon="5.1048">
        <ele>455.20001220703</ele>
        <time>2012-05-27T15:10:03Z</time>
      </trkpt>
      <trkpt lat="45.46967" lon="5.10473">
        <ele>455</ele>
        <time>2012-05-27T15:10:10Z</time>
      </trkpt>
      <trkpt lat="45.46976" lon="5.10466">
        <ele>454.79998779297</ele>
        <time>2012-05-27T15:10:17Z</time>
      </trkpt>
      <trkpt lat="45.46984" lon="5.10461">
        <ele>454.90002441406</ele>
        <time>2012-05-27T15:10:24Z</time>
      </trkpt>
      <trkpt lat="45.46993" lon="5.10454">
        <ele>455</ele>
        <time>2012-05-27T15:10:32Z</time>
      </trkpt>
      <trkpt lat="45.47002" lon="5.1045">
        <ele>454.70001220703</ele>
        <time>2012-05-27T15:10:39Z</time>
      </trkpt>
      <trkpt lat="45.47013" lon="5.10447">
        <ele>453.79998779297</ele>
        <time>2012-05-27T15:10:45Z</time>
      </trkpt>
      <trkpt lat="45.47023" lon="5.10444">
        <ele>454.5</ele>
        <time>2012-05-27T15:10:51Z</time>
      </trkpt>
      <trkpt lat="45.47032" lon="5.10441">
        <ele>455.40002441406</ele>
        <time>2012-05-27T15:10:57Z</time>
      </trkpt>
      <trkpt lat="45.47042" lon="5.10437">
        <ele>455.70001220703</ele>
        <time>2012-05-27T15:11:04Z</time>
      </trkpt>
      <trkpt lat="45.4705" lon="5.10432">
        <ele>456.40002441406</ele>
        <time>2012-05-27T15:11:10Z</time>
      </trkpt>
      <trkpt lat="45.47059" lon="5.10426">
        <ele>456.40002441406</ele>
        <time>2012-05-27T15:11:17Z</time>
      </trkpt>
      <trkpt lat="45.47068" lon="5.10421">
        <ele>456.40002441406</ele>
        <time>2012-05-27T15:11:24Z</time>
      </trkpt>
      <trkpt lat="45.47077" lon="5.10416">
        <ele>455.79998779297</ele>
        <time>2012-05-27T15:11:30Z</time>
      </trkpt>
      <trkpt lat="45.47086" lon="5.1041">
        <ele>455.79998779297</ele>
        <time>2012-05-27T15:11:36Z</time>
      </trkpt>
      <trkpt lat="45.47094" lon="5.10402">
        <ele>456.79998779297</ele>
        <time>2012-05-27T15:11:42Z</time>
      </trkpt>
      <trkpt lat="45.47101" lon="5.10394">
        <ele>457.79998779297</ele>
        <time>2012-05-27T15:11:48Z</time>
      </trkpt>
      <trkpt lat="45.47108" lon="5.10383">
        <ele>458.70001220703</ele>
        <time>2012-05-27T15:11:54Z</time>
      </trkpt>
      <trkpt lat="45.47111" lon="5.10371">
        <ele>458.29998779297</ele>
        <time>2012-05-27T15:12:01Z</time>
      </trkpt>
      <trkpt lat="45.47109" lon="5.10356">
        <ele>459.20001220703</ele>
        <time>2012-05-27T15:12:07Z</time>
      </trkpt>
      <trkpt lat="45.47102" lon="5.10345">
        <ele>460.09997558594</ele>
        <time>2012-05-27T15:12:13Z</time>
      </trkpt>
      <trkpt lat="45.47095" lon="5.10338">
        <ele>460.09997558594</ele>
        <time>2012-05-27T15:12:19Z</time>
      </trkpt>
      <trkpt lat="45.47086" lon="5.10333">
        <ele>460.40002441406</ele>
        <time>2012-05-27T15:12:25Z</time>
      </trkpt>
      <trkpt lat="45.47077" lon="5.10327">
        <ele>460.70001220703</ele>
        <time>2012-05-27T15:12:31Z</time>
      </trkpt>
      <trkpt lat="45.47067" lon="5.10324">
        <ele>460.5</ele>
        <time>2012-05-27T15:12:38Z</time>
      </trkpt>
      <trkpt lat="45.47057" lon="5.10322">
        <ele>460.20001220703</ele>
        <time>2012-05-27T15:12:44Z</time>
      </trkpt>
      <trkpt lat="45.47047" lon="5.10322">
        <ele>458.59997558594</ele>
        <time>2012-05-27T15:12:51Z</time>
      </trkpt>
      <trkpt lat="45.47038" lon="5.10323">
        <ele>457.90002441406</ele>
        <time>2012-05-27T15:12:57Z</time>
      </trkpt>
      <trkpt lat="45.47028" lon="5.10324">
        <ele>457.59997558594</ele>
        <time>2012-05-27T15:13:03Z</time>
      </trkpt>
      <trkpt lat="45.47018" lon="5.10324">
        <ele>457.90002441406</ele>
        <time>2012-05-27T15:13:10Z</time>
      </trkpt>
      <trkpt lat="45.47009" lon="5.10327">
        <ele>457.09997558594</ele>
        <time>2012-05-27T15:13:17Z</time>
      </trkpt>
      <trkpt lat="45.46999" lon="5.10326">
        <ele>457.29998779297</ele>
        <time>2012-05-27T15:14:24Z</time>
      </trkpt>
      <trkpt lat="45.46989" lon="5.10322">
        <ele>456.5</ele>
        <time>2012-05-27T15:14:33Z</time>
      </trkpt>
      <trkpt lat="45.46981" lon="5.10315">
        <ele>455.40002441406</ele>
        <time>2012-05-27T15:14:41Z</time>
      </trkpt>
      <trkpt lat="45.46972" lon="5.10309">
        <ele>455.20001220703</ele>
        <time>2012-05-27T15:14:48Z</time>
      </trkpt>
      <trkpt lat="45.46964" lon="5.10302">
        <ele>454.79998779297</ele>
        <time>2012-05-27T15:14:56Z</time>
      </trkpt>
      <trkpt lat="45.46956" lon="5.10292">
        <ele>454.29998779297</ele>
        <time>2012-05-27T15:15:05Z</time>
      </trkpt>
      <trkpt lat="45.46951" lon="5.10279">
        <ele>454.09997558594</ele>
        <time>2012-05-27T15:15:12Z</time>
      </trkpt>
      <trkpt lat="45.46949" lon="5.10264">
        <ele>452.40002441406</ele>
        <time>2012-05-27T15:15:18Z</time>
      </trkpt>
      <trkpt lat="45.46951" lon="5.10251">
        <ele>451.09997558594</ele>
        <time>2012-05-27T15:15:26Z</time>
      </trkpt>
      <trkpt lat="45.46954" lon="5.10237">
        <ele>448.59997558594</ele>
        <time>2012-05-27T15:15:34Z</time>
      </trkpt>
      <trkpt lat="45.46954" lon="5.10223">
        <ele>447.40002441406</ele>
        <time>2012-05-27T15:15:41Z</time>
      </trkpt>
      <trkpt lat="45.46955" lon="5.10209">
        <ele>446.5</ele>
        <time>2012-05-27T15:15:47Z</time>
      </trkpt>
      <trkpt lat="45.46958" lon="5.10181">
        <ele>444.79998779297</ele>
        <time>2012-05-27T15:16:02Z</time>
      </trkpt>
      <trkpt lat="45.46959" lon="5.10153">
        <ele>445.40002441406</ele>
        <time>2012-05-27T15:16:19Z</time>
      </trkpt>
      <trkpt lat="45.46958" lon="5.10139">
        <ele>445.5</ele>
        <time>2012-05-27T15:16:26Z</time>
      </trkpt>
      <trkpt lat="45.46956" lon="5.10124">
        <ele>446.5</ele>
        <time>2012-05-27T15:16:33Z</time>
      </trkpt>
      <trkpt lat="45.46953" lon="5.10111">
        <ele>446.40002441406</ele>
        <time>2012-05-27T15:16:39Z</time>
      </trkpt>
      <trkpt lat="45.46952" lon="5.10098">
        <ele>446.40002441406</ele>
        <time>2012-05-27T15:16:46Z</time>
      </trkpt>
      <trkpt lat="45.46949" lon="5.10084">
        <ele>446</ele>
        <time>2012-05-27T15:16:53Z</time>
      </trkpt>
      <trkpt lat="45.46948" lon="5.10071">
        <ele>443.59997558594</ele>
        <time>2012-05-27T15:17:00Z</time>
      </trkpt>
      <trkpt lat="45.46946" lon="5.10057">
        <ele>440.70001220703</ele>
        <time>2012-05-27T15:17:08Z</time>
      </trkpt>
      <trkpt lat="45.46944" lon="5.10043">
        <ele>438.79998779297</ele>
        <time>2012-05-27T15:17:15Z</time>
      </trkpt>
      <trkpt lat="45.46942" lon="5.1003">
        <ele>438.29998779297</ele>
        <time>2012-05-27T15:17:22Z</time>
      </trkpt>
      <trkpt lat="45.46939" lon="5.10017">
        <ele>435.59997558594</ele>
        <time>2012-05-27T15:17:30Z</time>
      </trkpt>
      <trkpt lat="45.46935" lon="5.09991">
        <ele>433.70001220703</ele>
        <time>2012-05-27T15:17:45Z</time>
      </trkpt>
      <trkpt lat="45.46936" lon="5.09978">
        <ele>433.70001220703</ele>
        <time>2012-05-27T15:17:51Z</time>
      </trkpt>
      <trkpt lat="45.46935" lon="5.09965">
        <ele>432.40002441406</ele>
        <time>2012-05-27T15:17:58Z</time>
      </trkpt>
      <trkpt lat="45.46932" lon="5.09939">
        <ele>429.20001220703</ele>
        <time>2012-05-27T15:18:11Z</time>
      </trkpt>
      <trkpt lat="45.46933" lon="5.09912">
        <ele>424.79998779297</ele>
        <time>2012-05-27T15:18:25Z</time>
      </trkpt>
      <trkpt lat="45.46934" lon="5.09897">
        <ele>423.5</ele>
        <time>2012-05-27T15:18:32Z</time>
      </trkpt>
      <trkpt lat="45.46933" lon="5.09883">
        <ele>422.59997558594</ele>
        <time>2012-05-27T15:18:39Z</time>
      </trkpt>
      <trkpt lat="45.46931" lon="5.0987">
        <ele>421.59997558594</ele>
        <time>2012-05-27T15:18:46Z</time>
      </trkpt>
      <trkpt lat="45.4693" lon="5.09856">
        <ele>420.40002441406</ele>
        <time>2012-05-27T15:18:52Z</time>
      </trkpt>
      <trkpt lat="45.4693" lon="5.09843">
        <ele>419.09997558594</ele>
        <time>2012-05-27T15:18:59Z</time>
      </trkpt>
      <trkpt lat="45.46916" lon="5.09826">
        <ele>419</ele>
        <time>2012-05-27T15:19:13Z</time>
      </trkpt>
      <trkpt lat="45.46896" lon="5.09825">
        <ele>417.5</ele>
        <time>2012-05-27T15:19:27Z</time>
      </trkpt>
      <trkpt lat="45.46886" lon="5.09825">
        <ele>416.90002441406</ele>
        <time>2012-05-27T15:19:34Z</time>
      </trkpt>
      <trkpt lat="45.46867" lon="5.09829">
        <ele>417.20001220703</ele>
        <time>2012-05-27T15:19:46Z</time>
      </trkpt>
      <trkpt lat="45.46858" lon="5.09834">
        <ele>417.90002441406</ele>
        <time>2012-05-27T15:19:53Z</time>
      </trkpt>
      <trkpt lat="45.46849" lon="5.09836">
        <ele>418.5</ele>
        <time>2012-05-27T15:19:59Z</time>
      </trkpt>
      <trkpt lat="45.4684" lon="5.0983">
        <ele>416</ele>
        <time>2012-05-27T15:22:36Z</time>
      </trkpt>
      <trkpt lat="45.46827" lon="5.09861">
        <ele>413.20001220703</ele>
        <time>2012-05-27T15:23:03Z</time>
      </trkpt>
      <trkpt lat="45.4682" lon="5.0987">
        <ele>414.59997558594</ele>
        <time>2012-05-27T15:23:18Z</time>
      </trkpt>
      <trkpt lat="45.46814" lon="5.09881">
        <ele>416.59997558594</ele>
        <time>2012-05-27T15:23:26Z</time>
      </trkpt>
      <trkpt lat="45.4681" lon="5.09902">
        <ele>414.79998779297</ele>
        <time>2012-05-27T15:25:52Z</time>
      </trkpt>
    </trkseg>
  </trk>
</gpx>